Provisional Data: Mill Creek near Lancaster, PA


Please select a monitoring station.
Please select start date.
Please select start date.

Toggle Unit: C/F Toggle Unit: C/F
Sample Time Temperature (C) Temperature (F) Specific Conductivity (mS/cm) pH   Turbidity (NTU+) DO (mg/L)
8/9/2021 12:00:00 AM 23.38 74.084 0.951 8.27 -24.18 6.79
8/9/2021 12:15:00 AM 23.34 74.012 0.951 8.26 -23.71 6.75
8/9/2021 12:30:00 AM 23.3 73.94 0.944 8.26 -35.41 6.73
8/9/2021 12:45:00 AM 23.26 73.868 0.952 8.25 -35.16 6.71
8/9/2021 1:00:00 AM 23.21 73.778 0.953 8.24 -34.46 6.66
8/9/2021 1:15:00 AM 23.17 73.706 0.953 8.23 -34.62 6.69
8/9/2021 1:30:00 AM 23.12 73.616 0.953 8.23 -34.58 6.69
8/9/2021 1:45:00 AM 23.08 73.544 0.953 8.21 -34.24 6.67
8/9/2021 2:00:00 AM 23.04 73.472 0.954 8.22 -35.09 6.65
8/9/2021 2:15:00 AM 22.99 73.382 0.954 8.22 -31.64 6.65
8/9/2021 2:30:00 AM 22.95 73.31 0.954 8.2 -34.32 6.63
8/9/2021 2:45:00 AM 22.91 73.238 0.955 8.2 -35.24 6.62
8/9/2021 3:00:00 AM 22.87 73.166 0.955 8.2 -34.29 6.6
8/9/2021 3:15:00 AM 22.82 73.076 0.956 8.19 -34.11 6.57
8/9/2021 3:30:00 AM 22.77 72.986 0.955 8.18 -34.03 6.57
8/9/2021 3:45:00 AM 22.73 72.914 0.956 8.18 -34.35 6.61
8/9/2021 4:00:00 AM 22.68 72.824 0.956 8.18 -34.98 6.61
8/9/2021 4:15:00 AM 22.64 72.752 0.956 8.17 -32.31 6.6
8/9/2021 4:30:00 AM 22.59 72.662 0.957 8.17 -27.41 6.6
8/9/2021 4:45:00 AM 22.54 72.57201 0.957 8.16 -34.39 6.58
8/9/2021 5:00:00 AM 22.5 72.5 0.957 8.16 -34.97 6.63
8/9/2021 5:15:00 AM 22.45 72.41 0.957 8.15 -35.16 6.64
8/9/2021 5:30:00 AM 22.4 72.32 0.957 8.15 -34.01 6.66
8/9/2021 5:45:00 AM 22.35 72.23 0.957 8.15 -34.77 6.67
8/9/2021 6:00:00 AM 22.3 72.14 0.957 8.14 -33.44 6.51
8/9/2021 6:15:00 AM 22.25 72.05 0.958 8.15 -33.67 6.67
8/9/2021 6:30:00 AM 22.21 71.978 0.958 8.14 -33.07 6.69
8/9/2021 6:45:00 AM 22.17 71.906 0.958 8.14 -31.66 6.7
8/9/2021 7:00:00 AM 22.13 71.834 0.958 8.14 -28.78 6.75
8/9/2021 7:15:00 AM 22.1 71.78 0.958 8.15 -24.6 6.75
8/9/2021 7:30:00 AM 22.09 71.762 0.959 8.16 -22.53 6.86
8/9/2021 7:45:00 AM 22.08 71.744 0.959 8.16 -27.19 6.75
8/9/2021 8:00:00 AM 22.09 71.762 0.959 8.17 -29.71 6.9
8/9/2021 8:15:00 AM 22.09 71.762 0.959 8.19 -31.12 7.08
8/9/2021 8:30:00 AM 22.1 71.78 0.959 8.22 -30.25 7.18
8/9/2021 8:45:00 AM 22.12 71.816 0.959 8.21 -30.06 7.29
8/9/2021 9:00:00 AM 22.15 71.87 0.96 8.23 -30.08 7.4
8/9/2021 9:15:00 AM 22.19 71.942 0.96 8.24 -30.65 7.39
8/9/2021 9:30:00 AM 22.23 72.014 0.96 8.24 -30.34 7.44
8/9/2021 9:45:00 AM 22.28 72.104 0.96 8.24 -31.23 7.83
8/9/2021 10:00:00 AM 22.35 72.23 0.96 8.27 -29.52 7.95
8/9/2021 10:15:00 AM 22.45 72.41 0.961 8.27 -30.93 8.15
8/9/2021 10:30:00 AM 22.53 72.554 0.961 8.27 -31.23 8.3
8/9/2021 10:45:00 AM 22.6 72.68 0.961 8.27 -31.08 8.47
8/9/2021 11:00:00 AM 22.65 72.77 0.962 8.28 -31.08 8.52
8/9/2021 11:15:00 AM 22.74 72.932 0.962 8.27 -31.31 8.66
8/9/2021 11:30:00 AM 22.9 73.22 0.962 8.27 -31.9 8.79
8/9/2021 11:45:00 AM 22.98 73.364 0.963 8.28 -32.84 8.94
8/9/2021 12:00:00 PM 23.1 73.58 0.962 8.29 -32.57 9.04
8/9/2021 12:15:00 PM 23.27 73.886 0.963 8.3 -32.58 9.22
8/9/2021 12:30:00 PM 23.46 74.228 0.963 8.31 -31.98 9.32
8/9/2021 12:45:00 PM 23.54 74.372 0.964 8.33 -32.01 9.48
8/9/2021 1:00:00 PM 23.59 74.462 0.965 8.33 -32.68 9.44
8/9/2021 1:15:00 PM 23.83 74.894 0.964 8.37 -32.83 9.72
8/9/2021 1:30:00 PM 24.04 75.272 0.964 8.38 -32.85 9.84
8/9/2021 1:45:00 PM 24.25 75.65 0.965 8.4 -31.9 9.97
8/9/2021 2:00:00 PM 24.42 75.956 0.965 8.41 -32.54 10.02
8/9/2021 2:15:00 PM 24.56 76.208 0.966 8.43 -31.92 10.06
8/9/2021 2:30:00 PM 24.69 76.442 0.966 8.45 -32.17 10.06
8/9/2021 2:45:00 PM 24.68 76.424 0.967 8.44 -32.9 9.89
8/9/2021 3:00:00 PM 24.79 76.622 0.967 8.45 -32.35 9.74
8/9/2021 3:15:00 PM 24.75 76.55 0.968 8.45 -33.23 9.66
8/9/2021 3:30:00 PM 24.82 76.676 0.968 8.45 -32.26 9.6
8/9/2021 3:45:00 PM 24.87 76.766 0.968 8.46 -32.78 9.68
8/9/2021 4:00:00 PM 24.9 76.82 0.968 8.46 -33.09 9.58
8/9/2021 4:15:00 PM 24.97 76.946 0.968 8.47 -33.48 9.59
8/9/2021 4:30:00 PM 25 77 0.968 8.47 -33.3 9.5
8/9/2021 4:45:00 PM 24.99 76.982 0.969 8.47 -33.11 9.38
8/9/2021 5:00:00 PM 24.97 76.946 0.969 8.46 -33.34 9.28
8/9/2021 5:15:00 PM 24.95 76.91 0.969 8.47 -33.5 9.13
8/9/2021 5:30:00 PM 24.93 76.874 0.969 8.46 -34.06 9
8/9/2021 5:45:00 PM 24.89 76.802 0.969 8.45 -33.26 8.88
8/9/2021 6:00:00 PM 24.83 76.694 0.969 8.44 -34.04 8.68
8/9/2021 6:15:00 PM 24.78 76.604 0.969 8.43 -33.65 8.46
8/9/2021 6:30:00 PM 24.71 76.478 0.969 8.42 -33.5 8.34
8/9/2021 6:45:00 PM 24.66 76.388 0.969 8.41 -34.13 8.21
8/9/2021 7:00:00 PM 24.62 76.316 0.97 8.4 -29.11 7.89
8/9/2021 7:15:00 PM 24.58 76.244 0.97 8.39 -10.73 7.83
8/9/2021 7:30:00 PM 24.54 76.172 0.97 8.39 -34.69 7.72
8/9/2021 7:45:00 PM 24.51 76.118 0.969 8.39 -34.59 7.64
8/9/2021 8:00:00 PM 24.48 76.064 0.969 8.38 -34.97 7.54
8/9/2021 8:15:00 PM 24.45 76.01 0.97 8.37 -34.21 7.23
8/9/2021 8:30:00 PM 24.42 75.956 0.97 8.36 -34.13 7.23
8/9/2021 8:45:00 PM 24.38 75.884 0.97 8.35 -35.24 7.09
8/9/2021 9:00:00 PM 24.35 75.83 0.97 8.34 -36.01 6.87
8/9/2021 9:15:00 PM 24.32 75.776 0.97 8.34 -35.07 6.92
8/9/2021 9:30:00 PM 24.3 75.74 0.97 8.34 -35.25 7.01
8/9/2021 9:45:00 PM 24.28 75.704 0.97 8.35 -35.67 6.92
8/9/2021 10:00:00 PM 24.26 75.668 0.97 8.34 -34.74 6.87
8/9/2021 10:15:00 PM 24.24 75.632 0.97 8.34 -34.92 6.83
8/9/2021 10:30:00 PM 24.22 75.596 0.97 8.34 -35.77 6.8
8/9/2021 10:45:00 PM 24.21 75.578 0.971 8.33 -35.83 6.76
8/9/2021 11:00:00 PM 24.19 75.542 0.971 8.32 -35.42 6.71
8/9/2021 11:15:00 PM 24.17 75.506 0.971 8.32 -28.7 6.69
8/9/2021 11:30:00 PM 24.15 75.47 0.971 8.31 -33.51 6.64
8/9/2021 11:45:00 PM 24.14 75.452 0.972 8.31 -33.91 6.6
8/10/2021 12:00:00 AM 24.11 75.398 0.972 8.3 -33.73 6.57
8/10/2021 12:15:00 AM 24.1 75.38 0.972 8.3 -34.37 6.49
8/10/2021 12:30:00 AM 24.08 75.344 0.973 8.29 -35.19 6.37
8/10/2021 12:45:00 AM 24.05 75.29 0.973 8.28 -35.76 6.39
8/10/2021 1:00:00 AM 24.02 75.236 0.974 8.28 -25.16 6.37
8/10/2021 1:15:00 AM 24.01 75.218 0.974 8.27 -28.21 6.29
8/10/2021 1:30:00 AM 23.99 75.182 0.974 8.26 -27.15 6.25
8/10/2021 1:45:00 AM 23.97 75.146 0.975 8.25 -35.18 6.29
8/10/2021 2:00:00 AM 23.94 75.092 0.975 8.25 -35.47 6.25
8/10/2021 2:15:00 AM 23.91 75.038 0.975 8.24 -34.82 6.26
8/10/2021 2:30:00 AM 23.87 74.966 0.975 8.23 -35.45 6.22
8/10/2021 2:45:00 AM 23.84 74.912 0.976 8.23 -33.4 6.31
8/10/2021 3:00:00 AM 23.81 74.858 0.976 8.22 -33.36 6.24
8/10/2021 3:15:00 AM 23.78 74.804 0.976 8.22 -35.5 6.2
8/10/2021 3:30:00 AM 23.75 74.75 0.976 8.21 -34.79 6.18
8/10/2021 3:45:00 AM 23.72 74.696 0.977 8.21 -34.72 6.2
8/10/2021 4:00:00 AM 23.68 74.624 0.977 8.21 -34.77 6.21
8/10/2021 4:15:00 AM 23.65 74.57 0.977 8.2 -35.19 6.28
8/10/2021 4:30:00 AM 23.63 74.534 0.977 8.21 -34.66 6.3
8/10/2021 4:45:00 AM 23.6 74.48 0.977 8.2 -34.58 6.28
8/10/2021 5:00:00 AM 23.58 74.444 0.977 8.2 -35.37 6.3
8/10/2021 5:15:00 AM 23.56 74.408 0.978 8.19 -35.08 6.21
8/10/2021 5:30:00 AM 23.54 74.372 0.978 8.18 -33.7 6.12
8/10/2021 5:45:00 AM 23.52 74.336 0.978 8.19 -35 6.26
8/10/2021 6:00:00 AM 23.49 74.282 0.978 8.18 -35.06 6.32
8/10/2021 6:15:00 AM 23.46 74.228 0.978 8.18 -34.2 6.33
8/10/2021 6:30:00 AM 23.44 74.192 0.978 8.17 -35.04 6.29
8/10/2021 6:45:00 AM 23.42 74.156 0.978 8.18 -35.26 6.33
8/10/2021 7:00:00 AM 23.4 74.12 0.978 8.17 -34.96 6.33
8/10/2021 7:15:00 AM 23.38 74.084 0.978 8.17 -35.24 6.34
8/10/2021 7:30:00 AM 23.37 74.066 0.978 8.16 -35.46 6.38
8/10/2021 7:45:00 AM 23.36 74.048 0.978 8.16 -35.7 6.38
8/10/2021 8:00:00 AM 23.35 74.03 0.978 8.16 -35.27 6.47
8/10/2021 8:15:00 AM 23.34 74.012 0.978 8.17 -34.67 6.54
8/10/2021 8:30:00 AM 23.33 73.994 0.978 8.17 -33.39 6.56
8/10/2021 8:45:00 AM 23.33 73.994 0.978 8.17 -33.4 6.61
8/10/2021 9:00:00 AM 23.36 74.048 0.977 8.17 -33.81 6.71
8/10/2021 9:15:00 AM 23.36 74.048 0.977 8.17 -34.68 6.77
8/10/2021 9:30:00 AM 23.39 74.102 0.977 8.18 -35.51 6.91
8/10/2021 9:45:00 AM 23.43 74.174 0.977 8.19 -35.22 7.03
8/10/2021 10:00:00 AM 23.47 74.246 0.976 8.2 -35.79 7.17
8/10/2021 10:15:00 AM 23.53 74.354 0.976 8.21 -35.63 7.33
8/10/2021 10:30:00 AM 23.58 74.444 0.976 8.22 -34.5 7.54
8/10/2021 10:45:00 AM 23.7 74.66 0.966 8.24 -34.85 7.72
8/10/2021 11:00:00 AM 23.84 74.912 0.976 8.25 -34.82 7.89
8/10/2021 11:15:00 AM 23.97 75.146 0.975 8.25 -36.06 8.14
8/10/2021 11:30:00 AM 24.09 75.362 0.975 8.25 -36.03 8.32
8/10/2021 11:45:00 AM 24.23 75.614 0.975 8.27 -36.01 8.42
8/10/2021 12:00:00 PM 24.39 75.902 0.975 8.29 -35.91 8.62
8/10/2021 12:15:00 PM 24.54 76.172 0.936 8.31 -35.52 8.81
8/10/2021 12:30:00 PM 24.71 76.478 0.975 8.32 -36.14 8.96
8/10/2021 12:45:00 PM 24.89 76.802 0.976 8.34 -35.61 9.12
8/10/2021 1:00:00 PM 25.02 77.036 0.976 8.36 -35.65 9.22
8/10/2021 1:15:00 PM 25.19 77.342 0.976 8.37 -36.05 9.33
8/10/2021 1:30:00 PM 25.33 77.594 0.977 8.38 -35.89 9.43
8/10/2021 1:45:00 PM 25.44 77.792 0.977 8.39 -35.76 9.45
8/10/2021 2:00:00 PM 25.56 78.008 0.977 8.41 -36.28 9.52
8/10/2021 2:15:00 PM 25.71 78.278 0.978 8.42 -36.09 9.61
8/10/2021 2:30:00 PM 25.7 78.26 0.979 8.43 -35.9 9.57
8/10/2021 2:45:00 PM 25.76 78.368 0.979 8.44 -35.91 9.5
8/10/2021 3:00:00 PM 25.81 78.458 0.979 8.45 -36.17 9.42
8/10/2021 3:15:00 PM 25.92 78.656 0.979 8.45 -36.35 9.47
8/10/2021 3:30:00 PM 25.99 78.782 0.98 8.46 -36.1 9.49
8/10/2021 3:45:00 PM 26.05 78.89 0.981 8.47 -36.42 9.46
8/10/2021 4:00:00 PM 26.05 78.89 0.982 8.47 -36.01 9.4
8/10/2021 4:15:00 PM 26.07 78.926 0.982 8.47 -35.62 9.3
8/10/2021 4:30:00 PM 26.07 78.926 0.983 8.47 -36.1 9.16
8/10/2021 4:45:00 PM 26.06 78.908 0.984 8.47 -36.05 9.06
8/10/2021 5:00:00 PM 26.03 78.854 0.984 8.47 -35.86 8.92
8/10/2021 5:15:00 PM 26.01 78.818 0.984 8.47 -35.73 8.76
8/10/2021 5:30:00 PM 25.98 78.764 0.984 8.47 -36.24 8.72
8/10/2021 5:45:00 PM 25.94 78.692 0.984 8.47 -35.5 8.56
8/10/2021 6:00:00 PM 25.89 78.602 0.985 8.45 -36.1 8.43
8/10/2021 6:15:00 PM 25.84 78.512 0.985 8.45 -36.13 8.24
8/10/2021 6:30:00 PM 25.79 78.422 0.986 8.44 -36.07 8.1
8/10/2021 6:45:00 PM 25.72 78.296 0.986 8.43 -36.13 7.9
8/10/2021 7:00:00 PM 25.61 78.098 0.986 8.42 -36.19 7.72
8/10/2021 7:15:00 PM 25.44 77.792 0.983 8.41 -34.55 7.49
8/10/2021 7:30:00 PM 25.28 77.504 0.963 8.4 -33.1 7.4
8/10/2021 7:45:00 PM 25.17 77.306 0.955 8.4 -32.04 7.31
8/10/2021 8:00:00 PM 25.13 77.234 0.95 8.41 -33.48 7.22
8/10/2021 8:15:00 PM 25.12 77.216 0.955 8.41 -32.9 7.17
8/10/2021 8:30:00 PM 25.11 77.198 0.952 8.4 -33.12 7.07
8/10/2021 8:45:00 PM 25.09 77.162 0.961 8.39 -33.06 6.95
8/10/2021 9:00:00 PM 25.06 77.108 0.961 8.39 -33.34 6.87
8/10/2021 9:15:00 PM 25.01 77.018 0.96 8.38 -33.77 6.74
8/10/2021 9:30:00 PM 24.96 76.92799 0.958 8.38 -33.03 6.7
8/10/2021 9:45:00 PM 24.91 76.838 0.955 8.37 -32.42 6.65
8/10/2021 10:00:00 PM 24.88 76.784 0.953 8.36 -25.95 6.62
8/10/2021 10:15:00 PM 24.85 76.73 0.952 8.36 -24.84 6.66
8/10/2021 10:30:00 PM 24.82 76.676 0.951 8.36 -19.52 6.69
8/10/2021 10:45:00 PM 24.79 76.622 0.947 8.34 0 6.68
8/10/2021 11:00:00 PM 24.55 76.19 0.897 8.31 13.63 6.68
8/10/2021 11:15:00 PM 24.11 75.398 0.8 8.25 56 6.56
8/10/2021 11:30:00 PM 24.02 75.236 0.741 8.21 71.23 6.42
8/10/2021 11:45:00 PM 24.14 75.452 0.727 8.19 46.32 6.36
8/11/2021 12:00:00 AM 24.25 75.65 0.734 8.17 77.61 6.34
8/11/2021 12:15:00 AM 24.31 75.758 0.739 8.17 319.8 6.34
8/11/2021 12:30:00 AM 24.32 75.776 0.737 8.16 7.11 6.36
8/11/2021 12:45:00 AM 24.3 75.74 0.734 8.15 260.6 6.36
8/11/2021 1:00:00 AM 24.27 75.686 0.732 8.14 345.7 6.4
8/11/2021 1:15:00 AM 24.23 75.614 0.734 8.13 301.4 6.39
8/11/2021 1:30:00 AM 24.2 75.56 0.735 8.13 263.4 6.4
8/11/2021 1:45:00 AM 24.16 75.488 0.733 8.12 89.36 6.39
8/11/2021 2:00:00 AM 24.12 75.416 0.728 8.11 191.2 6.36
8/11/2021 2:15:00 AM 24.08 75.344 0.721 8.1 230.4 6.31
8/11/2021 2:30:00 AM 24.04 75.272 0.716 8.08 353.6 6.28
8/11/2021 2:45:00 AM 24 75.2 0.714 8.07 97.13 6.27
8/11/2021 3:00:00 AM 23.95 75.11 0.716 8.05 122.3 6.23
8/11/2021 3:15:00 AM 23.91 75.038 0.721 8.04 69.34 6.22
8/11/2021 3:30:00 AM 23.87 74.966 0.729 8.03 442.4 6.2
8/11/2021 3:45:00 AM 23.83 74.894 0.739 8.02 98.08 6.22
8/11/2021 4:00:00 AM 23.79 74.82201 0.749 8.01 346 6.24
8/11/2021 4:15:00 AM 23.75 74.75 0.76 8 45.91 6.24
8/11/2021 4:30:00 AM 23.7 74.66 0.769 7.99 13.76 6.23
8/11/2021 4:45:00 AM 23.66 74.588 0.778 7.99 40.08 6.24
8/11/2021 5:00:00 AM 23.61 74.498 0.785 7.99 -0.72 6.28
8/11/2021 5:15:00 AM 23.57 74.426 0.789 7.99 22.51 6.25
8/11/2021 5:30:00 AM 23.52 74.336 0.79 7.99 -12.02 6.25
8/11/2021 5:45:00 AM 23.48 74.264 0.787 7.98 86.15 6.24
8/11/2021 6:00:00 AM 23.44 74.192 0.783 7.98 0.68 6.24
8/11/2021 6:15:00 AM 23.39 74.102 0.774 7.97 488.5 6.19
8/11/2021 6:30:00 AM 23.35 74.03 0.714 7.96 324 6.18
8/11/2021 6:45:00 AM 23.32 73.976 0.653 7.96 402.6 6.18
8/11/2021 7:00:00 AM 23.3 73.94 0.621 7.95 89.41 6.17
8/11/2021 7:15:00 AM 23.28 73.904 0.582 7.94 12.16 6.12
8/11/2021 7:30:00 AM 23.27 73.886 0.687 7.93 145.7 6.15
8/11/2021 7:45:00 AM 23.26 73.868 0.66 7.92 14.26 6.12
8/11/2021 8:00:00 AM 23.25 73.85 0.659 7.91 -11.85 6.12
8/11/2021 8:15:00 AM 23.25 73.85 0.674 7.9 -10.24 6.14
8/11/2021 8:30:00 AM 23.26 73.868 0.673 7.89 8.25 6.16
8/11/2021 8:45:00 AM 23.27 73.886 0.679 7.89 -4.48 6.2
8/11/2021 9:00:00 AM 23.29 73.922 0.675 7.89 9.93 6.22
8/11/2021 9:15:00 AM 23.3 73.94 0.682 7.88 21.45 6.26
8/11/2021 9:30:00 AM 23.33 73.994 0.68 7.88 -21.09 6.28
8/11/2021 9:45:00 AM 23.37 74.066 0.682 7.88 -12.06 6.36
8/11/2021 10:00:00 AM 23.42 74.156 0.694 7.88 -4.86 6.4
8/11/2021 10:15:00 AM 23.49 74.282 0.704 7.89 -1.03 6.49
8/11/2021 10:30:00 AM 23.59 74.462 0.703 7.9 6.72 6.55
8/11/2021 10:45:00 AM 23.77 74.786 0.709 7.91 171 6.65
8/11/2021 11:00:00 AM 23.94 75.092 0.709 7.93 -9.04 6.77
8/11/2021 11:15:00 AM 24.07 75.326 0.712 7.94 -12.55 6.87
8/11/2021 11:30:00 AM 24.22 75.596 0.715 7.95 78.67 6.95
8/11/2021 11:45:00 AM 24.38 75.884 0.717 7.96 -11.48 7.06
8/11/2021 12:00:00 PM 24.56 76.208 0.703 7.98 3.79 7.23
8/11/2021 12:15:00 PM 24.72 76.496 0.713 8 -25.5 7.32
8/11/2021 12:30:00 PM 24.9 76.82 0.716 8.01 -27.6 7.46
8/11/2021 12:45:00 PM 25.05 77.09 0.718 8.03 -26.66 7.54
8/11/2021 1:00:00 PM 25.2 77.36 0.696 8.05 12.56 7.67
8/11/2021 1:15:00 PM 25.31 77.558 0.73 8.07 -25.07 7.69
8/11/2021 1:30:00 PM 25.45 77.81 0.698 8.08 -25.72 7.78
8/11/2021 1:45:00 PM 25.62 78.116 0.715 8.1 12.65 7.89
8/11/2021 2:00:00 PM 25.67 78.206 0.707 8.11 -6.06 7.91
8/11/2021 2:15:00 PM 25.56 78.008 0.733 8.11 45.21 7.67
8/11/2021 2:30:00 PM 25.7 78.26 0.742 8.12 -17.38 7.65
8/11/2021 2:45:00 PM 25.85 78.53 0.744 8.14 115.5 7.78
8/11/2021 3:00:00 PM 25.93 78.674 0.744 8.14 -23.79 7.85
8/11/2021 3:15:00 PM 25.98 78.764 0.739 8.16 -17.96 7.81
8/11/2021 3:30:00 PM 26 78.8 0.715 8.16 38.13 7.74
8/11/2021 3:45:00 PM 26.08 78.944 0.698 8.17 -25.8 7.7
8/11/2021 4:00:00 PM 26.16 79.088 0.743 8.18 -10.58 7.68
8/11/2021 4:15:00 PM 26.23 79.214 0.755 8.18 8.4 7.66
8/11/2021 4:30:00 PM 26.28 79.304 0.707 8.19 3.42 7.66
8/11/2021 4:45:00 PM 26.29 79.32201 0.696 8.19 7.89 7.6
8/11/2021 5:00:00 PM 26.27 79.286 0.669 8.19 -21.04 7.45
8/11/2021 5:15:00 PM 26.2 79.16 0.741 8.19 84.89 7.27
8/11/2021 5:30:00 PM 26.16 79.088 0.735 8.18 -27.64 7.12
8/11/2021 5:45:00 PM 26.13 79.034 0.729 8.17 -25.1 6.96
8/11/2021 6:00:00 PM 26.09 78.962 0.723 8.16 -12.61 6.82
8/11/2021 6:15:00 PM 25.98 78.764 0.708 8.16 25.09 6.75
8/11/2021 6:30:00 PM 25.8 78.44 0.672 8.15 -8.93 6.82
8/11/2021 6:45:00 PM 25.83 78.494 0.672 8.14 -21.57 6.75
8/11/2021 7:00:00 PM 25.43 77.774 0.584 8.14 27.31 6.69
8/11/2021 7:15:00 PM 25.44 77.792 0.577 8.11 28.83 6.62
8/11/2021 7:30:00 PM 25.6 78.08 0.616 8.08 -0.72 6.42
8/11/2021 7:45:00 PM 25.67 78.206 0.64 8.07 -2.07 6.36
8/11/2021 8:00:00 PM 25.68 78.224 0.649 8.06 -18.97 6.24
8/11/2021 8:15:00 PM 25.65 78.17 0.654 8.05 -17.46 6.24
8/11/2021 8:30:00 PM 25.6 78.08 0.66 8.05 -20.48 6.28
8/11/2021 8:45:00 PM 25.54 77.972 0.671 8.05 2.48 6.3
8/11/2021 9:00:00 PM 25.47 77.846 0.685 8.05 -5.2 6.33
8/11/2021 9:15:00 PM 25.39 77.702 0.695 8.05 35.7 6.32
8/11/2021 9:30:00 PM 25.25 77.45 0.695 8.04 104.6 6.37
8/11/2021 9:45:00 PM 25.09 77.162 0.681 8.04 161.3 6.35
8/11/2021 10:00:00 PM 24.95 76.91 0.647 8.03 446.8 6.28
8/11/2021 10:15:00 PM 24.84 76.712 0.612 8.02 298.7 6.16
8/11/2021 10:30:00 PM 24.71 76.478 0.589 7.99 76.43 6.03
8/11/2021 10:45:00 PM 24.6 76.28 0.577 7.96 75.53 5.94
8/11/2021 11:00:00 PM 24.53 76.154 0.572 7.94 175.8 5.9
8/11/2021 11:15:00 PM 24.5 76.1 0.568 7.92 172.7 5.9
8/11/2021 11:30:00 PM 24.49 76.082 0.566 7.91 16.38 5.89
8/11/2021 11:45:00 PM 24.5 76.1 0.567 7.9 54.33 5.89
8/12/2021 12:00:00 AM 24.49 76.082 0.572 7.9 105.7 5.89
8/12/2021 12:15:00 AM 24.49 76.082 0.58 7.89 11.47 5.87
8/12/2021 12:30:00 AM 24.46 76.028 0.59 7.89 17.1 5.89
8/12/2021 12:45:00 AM 24.43 75.974 0.601 7.88 163.1 5.88
8/12/2021 1:00:00 AM 24.39 75.902 0.611 7.88 -5.22 5.89
8/12/2021 1:15:00 AM 24.36 75.848 0.619 7.87 -9.68 5.85
8/12/2021 1:30:00 AM 24.31 75.758 0.629 7.87 -6.13 5.87
8/12/2021 1:45:00 AM 24.27 75.686 0.636 7.87 175.5 5.87
8/12/2021 2:00:00 AM 24.23 75.614 0.642 7.87 -2.33 5.86
8/12/2021 2:15:00 AM 24.18 75.524 0.649 7.88 -2.06 5.9
8/12/2021 2:30:00 AM 24.14 75.452 0.654 7.88 7.05 5.85
8/12/2021 2:45:00 AM 24.1 75.38 0.663 7.88 0.36 5.91
8/12/2021 3:00:00 AM 24.07 75.326 0.672 7.88 69.47 5.88
8/12/2021 3:15:00 AM 24.03 75.254 0.681 7.88 23.07 5.9
8/12/2021 3:30:00 AM 23.99 75.182 0.69 7.89 -0.1 5.9
8/12/2021 3:45:00 AM 23.95 75.11 0.7 7.89 119.8 5.89
8/12/2021 4:00:00 AM 23.91 75.038 0.706 7.89 -7.35 5.91
8/12/2021 4:15:00 AM 23.87 74.966 0.713 7.9 3.07 5.95
8/12/2021 4:30:00 AM 23.84 74.912 0.717 7.9 -8.83 5.96
8/12/2021 4:45:00 AM 23.81 74.858 0.72 7.9 86.67 5.96
8/12/2021 5:00:00 AM 23.77 74.786 0.721 7.89 -3.95 5.96
8/12/2021 5:15:00 AM 23.73 74.714 0.721 7.89 125.4 5.97
8/12/2021 5:30:00 AM 23.7 74.66 0.721 7.89 -2.75 5.97
8/12/2021 5:45:00 AM 23.67 74.606 0.719 7.89 -4.91 5.99
8/12/2021 6:00:00 AM 23.65 74.57 0.718 7.89 6.12 5.97
8/12/2021 6:15:00 AM 23.63 74.534 0.716 7.88 99.01 5.96
8/12/2021 6:30:00 AM 23.61 74.498 0.714 7.88 -1.36 5.96
8/12/2021 6:45:00 AM 23.59 74.462 0.712 7.88 77.04 5.97
8/12/2021 7:00:00 AM 23.58 74.444 0.711 7.88 -25.91 5.97
8/12/2021 7:15:00 AM 23.57 74.426 0.708 7.87 -23.54 6.01
8/12/2021 7:30:00 AM 23.56 74.408 0.703 7.88 -23.64 6.05
8/12/2021 7:45:00 AM 23.56 74.408 0.7 7.87 -18.19 6.05
8/12/2021 8:00:00 AM 23.56 74.408 0.695 7.87 -22.51 6.08
8/12/2021 8:15:00 AM 23.56 74.408 0.688 7.87 -25.79 6.08
8/12/2021 8:30:00 AM 23.57 74.426 0.68 7.86 -2.66 6.08
8/12/2021 8:45:00 AM 23.58 74.444 0.67 7.86 -25.91 6.11
8/12/2021 9:00:00 AM 23.61 74.498 0.664 7.86 -17.27 6.13
8/12/2021 9:15:00 AM 23.64 74.552 0.654 7.86 -22.08 6.2
8/12/2021 9:30:00 AM 23.67 74.606 0.644 7.85 35.84 6.22
8/12/2021 9:45:00 AM 23.7 74.66 0.635 7.85 17.63 6.19
8/12/2021 10:00:00 AM 23.75 74.75 0.627 7.85 -21.93 6.2
8/12/2021 10:15:00 AM 23.83 74.894 0.621 7.85 -23.71 6.33
8/12/2021 10:30:00 AM 23.92 75.056 0.616 7.86 58.61 6.45
8/12/2021 10:45:00 AM 24.1 75.38 0.613 7.86 51.2 6.56
8/12/2021 11:00:00 AM 24.26 75.668 0.612 7.87 -23.4 6.64
8/12/2021 11:15:00 AM 24.39 75.902 0.612 7.88 -26.63 6.76
8/12/2021 11:30:00 AM 24.52 76.136 0.613 7.89 -20.2 6.82
8/12/2021 11:45:00 AM 24.68 76.424 0.616 7.9 124.1 7.06
8/12/2021 12:00:00 PM 24.83 76.694 0.621 7.91 222.3 7.09
8/12/2021 12:15:00 PM 24.99 76.982 0.626 7.92 -23.81 7.14
8/12/2021 12:30:00 PM 25.15 77.27 0.632 7.94 -19.92 7.28
8/12/2021 12:45:00 PM 25.28 77.504 0.64 7.95 70.2 7.38
8/12/2021 1:00:00 PM 25.4 77.72 0.65 7.97 -21.21 7.38
8/12/2021 1:15:00 PM 25.56 78.008 0.66 7.98 1.31 7.51
8/12/2021 1:30:00 PM 25.67 78.206 0.669 8 -24.5 7.54
8/12/2021 1:45:00 PM 25.79 78.422 0.682 8.01 -25.73 7.57
8/12/2021 2:00:00 PM 25.92 78.656 0.693 8.03 45.49 7.63
8/12/2021 2:15:00 PM 26.02 78.836 0.705 8.04 -9.74 7.66
8/12/2021 2:30:00 PM 26.08 78.944 0.716 8.05 -24.39 7.7
8/12/2021 2:45:00 PM 26.13 79.034 0.729 8.06 -5.58 7.64
8/12/2021 3:00:00 PM 26.21 79.17799 0.738 8.08 3.24 7.62
8/12/2021 3:15:00 PM 26.3 79.34 0.749 8.09 -22.44 7.65
8/12/2021 3:30:00 PM 26.36 79.448 0.761 8.1 -26.25 7.63
8/12/2021 3:45:00 PM 26.4 79.52 0.769 8.11 -21.89 7.56
8/12/2021 4:00:00 PM 26.43 79.574 0.776 8.12 -2.26 7.51
8/12/2021 4:15:00 PM 26.38 79.484 0.783 8.12 6.81 7.38
8/12/2021 4:30:00 PM 26.39 79.502 0.79 8.13 -24.57 7.33
8/12/2021 4:45:00 PM 26.42 79.556 0.796 8.13 -22.88 7.34
8/12/2021 5:00:00 PM 26.41 79.538 0.801 8.13 -9.69 7.21
8/12/2021 5:15:00 PM 26.41 79.538 0.808 8.13 -23.48 7.17
8/12/2021 5:30:00 PM 26.4 79.52 0.813 8.14 -18.61 7.06
8/12/2021 5:45:00 PM 26.39 79.502 0.819 8.14 -24.49 7.03
8/12/2021 6:00:00 PM 26.38 79.484 0.826 8.13 -4.28 6.9
8/12/2021 6:15:00 PM 26.36 79.448 0.833 8.14 -28.99 6.82
8/12/2021 6:30:00 PM 26.36 79.448 0.84 8.13 -27.37 6.71
8/12/2021 6:45:00 PM 26.36 79.448 0.849 8.13 -28.31 6.67
8/12/2021 7:00:00 PM 26.35 79.43 0.857 8.13 -28.51 6.57
8/12/2021 7:15:00 PM 26.34 79.412 0.866 8.13 -28.62 6.6
8/12/2021 7:30:00 PM 26.33 79.394 0.874 8.13 -21.98 6.55
8/12/2021 7:45:00 PM 26.32 79.376 0.886 8.13 -27.13 6.52
8/12/2021 8:00:00 PM 26.29 79.32201 0.893 8.12 -29.68 6.42
8/12/2021 8:15:00 PM 26.26 79.268 0.902 8.12 -28.35 6.35
8/12/2021 8:30:00 PM 26.23 79.214 0.912 8.12 -25.25 6.36
8/12/2021 8:45:00 PM 26.19 79.142 0.919 8.12 -30.93 6.29
8/12/2021 9:00:00 PM 26.15 79.07 0.927 8.12 -32.18 6.18
8/12/2021 9:15:00 PM 26.11 78.998 0.934 8.11 -32.81 6.21
8/12/2021 9:30:00 PM 26.07 78.926 0.94 8.11 -24.87 6.12
8/12/2021 9:45:00 PM 26.03 78.854 0.947 8.11 -30.53 6.11
8/12/2021 10:00:00 PM 25.98 78.764 0.952 8.1 -30.8 6.06
8/12/2021 10:15:00 PM 25.93 78.674 0.956 8.1 -30.46 6.05
8/12/2021 10:30:00 PM 25.88 78.584 0.96 8.1 -31.25 6.06
8/12/2021 10:45:00 PM 25.84 78.512 0.963 8.1 -22.34 6.03
8/12/2021 11:00:00 PM 25.79 78.422 0.965 8.09 -13.98 6.01
8/12/2021 11:15:00 PM 25.74 78.332 0.967 8.09 24.7 6.05
8/12/2021 11:30:00 PM 25.7 78.26 0.968 8.09 17.13 6.01
8/12/2021 11:45:00 PM 25.66 78.188 0.968 8.08 -21.3 5.99
8/13/2021 12:00:00 AM 25.6 78.08 0.969 8.07 31.14 5.97
8/13/2021 12:15:00 AM 25.51 77.918 0.962 8.07 -12.67 5.98
8/13/2021 12:30:00 AM 25.46 77.828 0.961 8.07 -0.97 5.97
8/13/2021 12:45:00 AM 25.4 77.72 0.962 8.07 26.5 5.91
8/13/2021 1:00:00 AM 25.35 77.63 0.962 8.06 -27.56 5.93
8/13/2021 1:15:00 AM 25.3 77.54 0.96 8.05 -24.8 5.94
8/13/2021 1:30:00 AM 25.24 77.432 0.956 8.05 -28.84 5.93
8/13/2021 1:45:00 AM 25.18 77.324 0.953 8.05 -19.89 5.91
8/13/2021 2:00:00 AM 25.12 77.216 0.948 8.04 -28.27 5.9
8/13/2021 2:15:00 AM 25.06 77.108 0.944 8.04 -30.6 5.9
8/13/2021 2:30:00 AM 25 77 0.94 8.04 -18.98 5.89
8/13/2021 2:45:00 AM 24.94 76.892 0.936 8.03 -16.6 5.88
8/13/2021 3:00:00 AM 24.88 76.784 0.93 8.02 7.25 5.88
8/13/2021 3:15:00 AM 24.82 76.676 0.925 8.02 3.17 5.86
8/13/2021 3:30:00 AM 24.77 76.586 0.919 8.02 -22.83 5.84
8/13/2021 3:45:00 AM 24.72 76.496 0.914 8.01 -28.75 5.86
8/13/2021 4:00:00 AM 24.66 76.388 0.908 8.01 -26.58 5.86
8/13/2021 4:15:00 AM 24.61 76.298 0.901 8 -31.64 5.84
8/13/2021 4:30:00 AM 24.56 76.208 0.894 8 -18.86 5.85
8/13/2021 4:45:00 AM 24.5 76.1 0.887 7.99 -6.63 5.83
8/13/2021 5:00:00 AM 24.45 76.01 0.878 7.98 20.17 5.85
8/13/2021 5:15:00 AM 24.4 75.92 0.87 7.98 -7.54 5.85
8/13/2021 5:30:00 AM 24.35 75.83 0.862 7.98 39.3 5.88
8/13/2021 5:45:00 AM 24.29 75.722 0.854 7.97 -8.44 5.88
8/13/2021 6:00:00 AM 24.24 75.632 0.844 7.96 -15.84 5.91
8/13/2021 6:15:00 AM 24.19 75.542 0.836 7.96 -29.18 5.88
8/13/2021 6:30:00 AM 24.14 75.452 0.826 7.95 35.12 5.92
8/13/2021 6:45:00 AM 24.09 75.362 0.817 7.95 15.05 5.91
8/13/2021 7:00:00 AM 24.05 75.29 0.808 7.94 -20.56 5.96
8/13/2021 7:15:00 AM 24.01 75.218 0.8 7.94 17.72 5.95
8/13/2021 7:30:00 AM 23.97 75.146 0.79 7.94 -27.4 5.99
8/13/2021 7:45:00 AM 23.94 75.092 0.783 7.94 -32.25 5.98
8/13/2021 8:00:00 AM 23.91 75.038 0.775 7.94 -29.9 6.04
8/13/2021 8:15:00 AM 23.89 75.002 0.767 7.94 -30.06 6.08
8/13/2021 8:30:00 AM 23.87 74.966 0.76 7.93 -31.53 6.09
8/13/2021 8:45:00 AM 23.85 74.93 0.753 7.93 -30.62 6.11
8/13/2021 9:00:00 AM 23.85 74.93 0.746 7.94 -31.38 6.14
8/13/2021 9:15:00 AM 23.85 74.93 0.74 7.94 -31.07 6.17
8/13/2021 9:30:00 AM 23.86 74.948 0.735 7.94 -32.3 6.23
8/13/2021 9:45:00 AM 23.88 74.984 0.731 7.94 -30.59 6.3
8/13/2021 10:00:00 AM 23.91 75.038 0.727 7.94 -32.46 6.4
8/13/2021 10:15:00 AM 23.97 75.146 0.723 7.95 -28.06 6.43
8/13/2021 10:30:00 AM 24.05 75.29 0.72 7.96 -31.96 6.55
8/13/2021 10:45:00 AM 24.24 75.632 0.717 7.97 -30.7 6.72
8/13/2021 11:00:00 AM 24.44 75.992 0.715 8 -32.01 6.88
8/13/2021 11:15:00 AM 24.57 76.226 0.713 8 -31.36 7.01
8/13/2021 11:30:00 AM 24.7 76.46 0.712 8 -31.44 7.13
8/13/2021 11:45:00 AM 24.87 76.766 0.71 8.01 -30.37 7.23
8/13/2021 12:00:00 PM 25.04 77.07201 0.71 8.03 -15.13 7.43
8/13/2021 12:15:00 PM 25.2 77.36 0.709 8.04 -22.64 7.6
8/13/2021 12:30:00 PM 25.39 77.702 0.71 8.06 -31.31 7.71
8/13/2021 12:45:00 PM 25.55 77.99 0.71 8.07 -32.03 7.8
8/13/2021 1:00:00 PM 25.68 78.224 0.711 8.09 -31.75 7.92
8/13/2021 1:15:00 PM 25.85 78.53 0.711 8.11 -31.54 7.91
8/13/2021 1:30:00 PM 25.97 78.746 0.712 8.12 -34.97 7.91
8/13/2021 1:45:00 PM 26.11 78.998 0.713 8.13 -32.06 7.96
8/13/2021 2:00:00 PM 26.23 79.214 0.715 8.14 -27.06 7.98
8/13/2021 2:15:00 PM 26.36 79.448 0.717 8.15 -27.39 7.99
8/13/2021 2:30:00 PM 26.46 79.628 0.719 8.17 -34.86 8.03
8/13/2021 2:45:00 PM 26.55 79.79 0.72 8.17 -34.61 8.01
8/13/2021 3:00:00 PM 26.64 79.952 0.722 8.18 -34.31 7.97
8/13/2021 3:15:00 PM 26.7 80.06 0.724 8.19 -33.3 7.97
8/13/2021 3:30:00 PM 26.76 80.168 0.727 8.2 -34.75 7.99
8/13/2021 3:45:00 PM 26.81 80.258 0.729 8.21 -33.71 7.93
8/13/2021 4:00:00 PM 26.84 80.312 0.732 8.21 -35.02 7.85
8/13/2021 4:15:00 PM 26.85 80.33 0.734 8.22 -34.66 7.84
8/13/2021 4:30:00 PM 26.75 80.15 0.737 8.21 -34.61 7.62
8/13/2021 4:45:00 PM 26.67 80.006 0.74 8.21 -29.48 7.48
8/13/2021 5:00:00 PM 26.62 79.916 0.742 8.2 -34.54 7.33
8/13/2021 5:15:00 PM 26.57 79.826 0.745 8.19 -34.95 7.16
8/13/2021 5:30:00 PM 26.48 79.664 0.747 8.18 -34.86 7.06
8/13/2021 5:45:00 PM 26.41 79.538 0.75 8.17 -10.57 6.84
8/13/2021 6:00:00 PM 26.36 79.448 0.753 8.17 -18.57 6.7
8/13/2021 6:15:00 PM 26.33 79.394 0.755 8.16 -34.6 6.64
8/13/2021 6:30:00 PM 26.29 79.32201 0.758 8.15 -34.68 6.54
8/13/2021 6:45:00 PM 26.25 79.25 0.761 8.14 -34.57 6.47
8/13/2021 7:00:00 PM 26.2 79.16 0.764 8.14 -34.99 6.43
8/13/2021 7:15:00 PM 26.17 79.106 0.764 8.13 -34.7 6.35
8/13/2021 7:30:00 PM 26.15 79.07 0.769 8.12 -20.28 6.22
8/13/2021 7:45:00 PM 26.12 79.016 0.772 8.12 -35.12 6.14
8/13/2021 8:00:00 PM 26.1 78.98 0.775 8.11 -33.98 6.19
8/13/2021 8:15:00 PM 26.07 78.926 0.777 8.11 -34.5 6.1
8/13/2021 8:30:00 PM 26.04 78.872 0.78 8.11 -33.38 6.03
8/13/2021 8:45:00 PM 26.01 78.818 0.782 8.1 -33.07 5.96
8/13/2021 9:00:00 PM 25.98 78.764 0.786 8.09 -19.21 5.88
8/13/2021 9:15:00 PM 25.96 78.728 0.788 8.09 -19.56 5.82
8/13/2021 9:30:00 PM 25.93 78.674 0.79 8.08 -31.75 5.84
8/13/2021 9:45:00 PM 25.9 78.62 0.793 8.08 -34.58 5.75
8/13/2021 10:00:00 PM 25.86 78.548 0.795 8.07 -28.09 5.74
8/13/2021 10:15:00 PM 25.83 78.494 0.797 8.07 -32.22 5.66
8/13/2021 10:30:00 PM 25.79 78.422 0.8 8.06 -32.72 5.74
8/13/2021 10:45:00 PM 25.75 78.35 0.802 8.06 -29.17 5.65
8/13/2021 11:00:00 PM 25.71 78.278 0.804 8.05 -33.98 5.63
8/13/2021 11:15:00 PM 25.67 78.206 0.806 8.04 -34.44 5.6
8/13/2021 11:30:00 PM 25.63 78.134 0.809 8.04 -34.04 5.56
8/13/2021 11:45:00 PM 25.59 78.062 0.811 8.04 -28.92 5.61
8/14/2021 12:00:00 AM 25.54 77.972 0.813 8.03 -32.65 5.58
8/14/2021 12:15:00 AM 25.5 77.9 0.816 8.03 -33.32 5.54
8/14/2021 12:30:00 AM 25.46 77.828 0.817 8.02 -32.84 5.54
8/14/2021 12:45:00 AM 25.42 77.756 0.819 8.02 -24.12 5.55
8/14/2021 1:00:00 AM 25.37 77.666 0.821 8.01 -33.6 5.53
8/14/2021 1:15:00 AM 25.32 77.576 0.823 8.01 -32.8 5.54
8/14/2021 1:30:00 AM 25.28 77.504 0.825 8 -33.34 5.52
8/14/2021 1:45:00 AM 25.22 77.396 0.827 8 -33.2 5.52
8/14/2021 2:00:00 AM 25.18 77.324 0.829 8 -32.79 5.55
8/14/2021 2:15:00 AM 25.14 77.252 0.83 8 -33.47 5.49
8/14/2021 2:30:00 AM 25.09 77.162 0.832 7.99 -31.78 5.51
8/14/2021 2:45:00 AM 25.05 77.09 0.834 7.99 -31.01 5.54
8/14/2021 3:00:00 AM 25 77 0.835 7.99 -33.16 5.58
8/14/2021 3:15:00 AM 24.96 76.92799 0.836 7.98 -32.22 5.59
8/14/2021 3:30:00 AM 24.91 76.838 0.838 7.98 -29.23 5.56
8/14/2021 3:45:00 AM 24.86 76.748 0.839 7.98 -30.99 5.6
8/14/2021 4:00:00 AM 24.81 76.658 0.84 7.98 -17.66 5.6
8/14/2021 4:15:00 AM 24.76 76.568 0.841 7.96 -33.11 5.57
8/14/2021 4:30:00 AM 24.71 76.478 0.842 7.96 -33.34 5.62
8/14/2021 4:45:00 AM 24.66 76.388 0.843 7.97 -32.69 5.51
8/14/2021 5:00:00 AM 24.61 76.298 0.844 7.97 -34.2 5.65
8/14/2021 5:15:00 AM 24.57 76.226 0.845 7.97 -34.05 5.65
8/14/2021 5:30:00 AM 24.53 76.154 0.846 7.96 -25.94 5.68
8/14/2021 5:45:00 AM 24.48 76.064 0.847 7.96 -30.5 5.71
8/14/2021 6:00:00 AM 24.44 75.992 0.848 7.96 -30.72 5.7
8/14/2021 6:15:00 AM 24.4 75.92 0.848 7.95 -32.63 5.66
8/14/2021 6:30:00 AM 24.36 75.848 0.849 7.95 -20.78 5.7
8/14/2021 6:45:00 AM 24.32 75.776 0.85 7.95 -31.56 5.73
8/14/2021 7:00:00 AM 24.29 75.722 0.85 7.95 -29.78 5.72
8/14/2021 7:15:00 AM 24.26 75.668 0.851 7.95 -14.96 5.74
8/14/2021 7:30:00 AM 24.24 75.632 0.852 7.95 -28.34 5.76
8/14/2021 7:45:00 AM 24.21 75.578 0.852 7.96 -28.07 5.81
8/14/2021 8:00:00 AM 24.19 75.542 0.853 7.96 -25.09 5.87
8/14/2021 8:15:00 AM 24.16 75.488 0.853 7.96 -32.87 5.88
8/14/2021 8:30:00 AM 24.14 75.452 0.853 7.96 -25.23 5.87
8/14/2021 8:45:00 AM 24.13 75.434 0.854 7.96 -34.06 5.94
8/14/2021 9:00:00 AM 24.12 75.416 0.854 7.96 -31 5.97
8/14/2021 9:15:00 AM 24.14 75.452 0.854 7.97 -33.79 6.08
8/14/2021 9:30:00 AM 24.18 75.524 0.853 7.98 -17.86 6.13
8/14/2021 9:45:00 AM 24.22 75.596 0.853 7.99 -19.5 6.27
8/14/2021 10:00:00 AM 24.26 75.668 0.853 7.99 -33.62 6.5
8/14/2021 10:15:00 AM 24.31 75.758 0.853 8 -16.51 6.59
8/14/2021 10:30:00 AM 24.35 75.83 0.853 8.01 -26.25 6.76
8/14/2021 10:45:00 AM 24.39 75.902 0.852 8.03 -32.7 6.9
8/14/2021 11:00:00 AM 24.44 75.992 0.852 8.04 -33.97 6.94
8/14/2021 11:15:00 AM 24.47 76.046 0.851 8.04 24.28 7.04
8/14/2021 11:30:00 AM 24.55 76.19 0.851 8.05 -17.95 7.13
8/14/2021 11:45:00 AM 24.61 76.298 0.85 8.06 -30.07 7.28
8/14/2021 12:00:00 PM 24.65 76.37 0.85 8.07 -28.31 7.4
8/14/2021 12:15:00 PM 24.69 76.442 0.849 8.09 -27.01 7.52
8/14/2021 12:30:00 PM 24.71 76.478 0.849 8.09 -15.33 7.58
8/14/2021 12:45:00 PM 24.71 76.478 0.848 8.1 -20.19 7.59
8/14/2021 1:00:00 PM 24.75 76.55 0.847 8.11 -25.49 7.58
8/14/2021 1:15:00 PM 24.79 76.622 0.847 8.12 -28.8 7.72
8/14/2021 1:30:00 PM 24.95 76.91 0.846 8.14 -18.55 7.8
8/14/2021 1:45:00 PM 25.1 77.18 0.845 8.15 -23.36 7.97
8/14/2021 2:00:00 PM 25.18 77.324 0.845 8.16 -25.02 8.07
8/14/2021 2:15:00 PM 25.14 77.252 0.844 8.17 -23.76 8.11
8/14/2021 2:30:00 PM 25.09 77.162 0.843 8.18 -31.24 7.97
8/14/2021 2:45:00 PM 25.1 77.18 0.842 8.18 -31.72 7.93
8/14/2021 3:00:00 PM 25.11 77.198 0.842 8.18 -24.88 7.91
8/14/2021 3:15:00 PM 25.14 77.252 0.84 8.19 -26.51 7.95
8/14/2021 3:30:00 PM 25.2 77.36 0.839 8.2 -33.31 7.96
8/14/2021 3:45:00 PM 25.32 77.576 0.837 8.21 -29.85 8.02
8/14/2021 4:00:00 PM 25.38 77.684 0.836 8.22 -31.9 8.09
8/14/2021 4:15:00 PM 25.41 77.738 0.834 8.23 -28.71 8.16
8/14/2021 4:30:00 PM 25.39 77.702 0.833 8.23 -21.96 7.99
8/14/2021 4:45:00 PM 25.37 77.666 0.831 8.23 3.92 7.96
8/14/2021 5:00:00 PM 25.37 77.666 0.828 8.24 -26.3 7.89
8/14/2021 5:15:00 PM 25.36 77.648 0.827 8.23 -32.55 7.78
8/14/2021 5:30:00 PM 25.34 77.612 0.823 8.23 -26.67 7.72
8/14/2021 5:45:00 PM 25.34 77.612 0.823 8.23 -29.9 7.6
8/14/2021 6:00:00 PM 25.35 77.63 0.687 8.23 -34.48 7.55
8/14/2021 6:15:00 PM 25.36 77.648 0.758 8.23 -29.78 7.43
8/14/2021 6:30:00 PM 25.34 77.612 0.764 8.23 -26.02 7.43
8/14/2021 6:45:00 PM 25.31 77.558 0.811 8.22 -31.22 7.31
8/14/2021 7:00:00 PM 25.28 77.504 0.808 8.21 -16.69 7.16
8/14/2021 7:15:00 PM 25.25 77.45 0.804 8.21 -34.69 7.06
8/14/2021 7:30:00 PM 25.24 77.432 0.803 8.2 -31.24 6.94
8/14/2021 7:45:00 PM 25.22 77.396 0.799 8.19 -32.81 6.92
8/14/2021 8:00:00 PM 25.2 77.36 0.796 8.18 -33.45 6.75
8/14/2021 8:15:00 PM 25.19 77.342 0.793 8.18 -35.44 6.66
8/14/2021 8:30:00 PM 25.16 77.288 0.789 8.17 159.2 6.58
8/14/2021 8:45:00 PM 25.14 77.252 0.785 8.15 -33.09 6.56
8/14/2021 9:00:00 PM 25.12 77.216 0.782 8.15 -33.95 6.43
8/14/2021 9:15:00 PM 25.11 77.198 0.78 8.14 4.9 6.34
8/14/2021 9:30:00 PM 25.09 77.162 0.776 8.13 -23.05 6.26
8/14/2021 9:45:00 PM 25.07 77.126 0.774 8.12 -31.99 6.27
8/14/2021 10:00:00 PM 25.04 77.07201 0.771 8.12 -33.42 6.23
8/14/2021 10:15:00 PM 25.02 77.036 0.766 8.11 -33.23 6.19
8/14/2021 10:30:00 PM 24.99 76.982 0.764 8.11 -23.09 6.15
8/14/2021 10:45:00 PM 24.95 76.91 0.761 8.1 -34.08 6.08
8/14/2021 11:00:00 PM 24.91 76.838 0.758 8.09 -33.5 6.01
8/14/2021 11:15:00 PM 24.88 76.784 0.755 8.09 -23.72 6.08
8/14/2021 11:30:00 PM 24.85 76.73 0.753 8.08 -30.94 5.96
8/14/2021 11:45:00 PM 24.82 76.676 0.75 8.07 -33.94 6
8/15/2021 12:00:00 AM 24.78 76.604 0.747 8.07 -35.12 5.97
8/15/2021 12:15:00 AM 24.75 76.55 0.745 8.07 -33.4 5.91
8/15/2021 12:30:00 AM 24.71 76.478 0.742 8.06 -27.01 5.92
8/15/2021 12:45:00 AM 24.67 76.406 0.741 8.05 -25.63 5.92
8/15/2021 1:00:00 AM 24.63 76.334 0.738 8.04 64.16 5.91
8/15/2021 1:15:00 AM 24.58 76.244 0.731 8.04 -30.5 5.92
8/15/2021 1:30:00 AM 24.54 76.172 0.735 8.04 -28.32 5.9
8/15/2021 1:45:00 AM 24.5 76.1 0.733 8.04 -21.87 5.94
8/15/2021 2:00:00 AM 24.46 76.028 0.732 8.03 -30.13 5.9
8/15/2021 2:15:00 AM 24.41 75.938 0.73 8.03 -34.83 5.88
8/15/2021 2:30:00 AM 24.37 75.866 0.729 8.03 -34.41 5.94
8/15/2021 2:45:00 AM 24.33 75.794 0.728 8.02 -24.24 5.92
8/15/2021 3:00:00 AM 24.29 75.722 0.726 8.02 -34.28 5.9
8/15/2021 3:15:00 AM 24.25 75.65 0.725 8.01 -34.67 5.91
8/15/2021 3:30:00 AM 24.21 75.578 0.724 8.01 -32.88 5.86
8/15/2021 3:45:00 AM 24.16 75.488 0.724 8 -26.27 5.88
8/15/2021 4:00:00 AM 24.11 75.398 0.723 8 -31 5.91
8/15/2021 4:15:00 AM 24.06 75.308 0.722 8 -29.34 5.92
8/15/2021 4:30:00 AM 24.01 75.218 0.721 8 -28.79 6
8/15/2021 4:45:00 AM 23.95 75.11 0.721 7.99 -33.06 5.96
8/15/2021 5:00:00 AM 23.89 75.002 0.721 7.99 -33.96 6.04
8/15/2021 5:15:00 AM 23.82 74.876 0.721 7.99 -22.05 6.03
8/15/2021 5:30:00 AM 23.77 74.786 0.72 7.99 -32.92 6.01
8/15/2021 5:45:00 AM 23.7 74.66 0.721 7.98 -32.78 6.05
8/15/2021 6:00:00 AM 23.64 74.552 0.721 7.97 -33.88 6.06
8/15/2021 6:15:00 AM 23.58 74.444 0.721 7.97 -33.76 6.05
8/15/2021 6:30:00 AM 23.52 74.336 0.721 7.97 -32.47 6.04
8/15/2021 6:45:00 AM 23.46 74.228 0.722 7.96 -33.98 5.98
8/15/2021 7:00:00 AM 23.41 74.138 0.722 7.97 -33.15 6.04
8/15/2021 7:15:00 AM 23.36 74.048 0.722 7.97 -34.45 6.05
8/15/2021 7:30:00 AM 23.31 73.958 0.723 7.97 -33.87 6.15
8/15/2021 7:45:00 AM 23.28 73.904 0.724 7.98 -34.23 6.25
8/15/2021 8:00:00 AM 23.24 73.832 0.725 7.98 -31.06 6.32
8/15/2021 8:15:00 AM 23.22 73.796 0.725 8 -34.38 6.33
8/15/2021 8:30:00 AM 23.2 73.76 0.726 8.01 -34.2 6.41
8/15/2021 8:45:00 AM 23.19 73.742 0.727 8.02 -34.51 6.45
8/15/2021 9:00:00 AM 23.16 73.688 0.728 8.03 -23.89 6.6
8/15/2021 9:15:00 AM 23.12 73.616 0.73 8.03 -34.35 6.68
8/15/2021 9:30:00 AM 23.09 73.562 0.732 8.03 -34.04 6.7
8/15/2021 9:45:00 AM 23.07 73.526 0.733 8.04 -31.09 6.73
8/15/2021 10:00:00 AM 23.05 73.49 0.734 8.04 -34.8 6.77
8/15/2021 10:15:00 AM 23.05 73.49 0.735 8.06 -34.49 6.94
8/15/2021 10:30:00 AM 23.06 73.508 0.737 8.07 -34.76 7.08
8/15/2021 10:45:00 AM 23.11 73.598 0.738 8.08 -34.73 7.26
8/15/2021 11:00:00 AM 23.14 73.652 0.74 8.01 -34.64 7.42
8/15/2021 11:15:00 AM 23.18 73.724 0.742 8.02 -35.65 7.63
8/15/2021 11:30:00 AM 23.24 73.832 0.742 8.08 -27.68 7.77
8/15/2021 11:45:00 AM 23.27 73.886 0.745 8.1 -34.31 7.89
8/15/2021 12:00:00 PM 23.31 73.958 0.747 8.1 -34.78 7.96
8/15/2021 12:15:00 PM 23.38 74.084 0.748 8.12 -34.94 8.07
8/15/2021 12:30:00 PM 23.52 74.336 0.75 8.13 -34.76 8.28
8/15/2021 12:45:00 PM 23.58 74.444 0.752 8.14 -35.09 8.45
8/15/2021 1:00:00 PM 23.67 74.606 0.754 8.16 -11.16 8.46
8/15/2021 1:15:00 PM 23.84 74.912 0.756 8.18 -30.6 8.65
8/15/2021 1:30:00 PM 23.91 75.038 0.758 8.18 -34.32 8.6
8/15/2021 1:45:00 PM 23.94 75.092 0.76 8.2 -34.93 8.81
8/15/2021 2:00:00 PM 24.01 75.218 0.762 8.22 -35.28 8.91
8/15/2021 2:15:00 PM 24.14 75.452 0.763 8.23 -34.55 8.95
8/15/2021 2:30:00 PM 24.24 75.632 0.765 8.24 -34.47 8.85
8/15/2021 2:45:00 PM 24.31 75.758 0.767 8.25 -35.06 8.88
8/15/2021 3:00:00 PM 24.38 75.884 0.769 8.26 -34.69 8.88
8/15/2021 3:15:00 PM 24.41 75.938 0.771 8.25 -34.32 8.77
8/15/2021 3:30:00 PM 24.39 75.902 0.773 8.26 -34.78 8.68
8/15/2021 3:45:00 PM 24.43 75.974 0.774 8.27 -34.87 8.72
8/15/2021 4:00:00 PM 24.45 76.01 0.775 8.27 -35.08 8.65
8/15/2021 4:15:00 PM 24.43 75.974 0.777 8.27 -35.19 8.55
8/15/2021 4:30:00 PM 24.42 75.956 0.779 8.27 -34.22 8.48
8/15/2021 4:45:00 PM 24.4 75.92 0.78 8.27 -34.21 8.38
8/15/2021 5:00:00 PM 24.36 75.848 0.782 8.26 -34.52 8.33
8/15/2021 5:15:00 PM 24.32 75.776 0.784 8.26 -34.75 8.25
8/15/2021 5:30:00 PM 24.28 75.704 0.785 8.25 -35.2 8.07
8/15/2021 5:45:00 PM 24.22 75.596 0.786 8.25 -35.6 7.89
8/15/2021 6:00:00 PM 24.19 75.542 0.787 8.24 -35.26 7.82
8/15/2021 6:15:00 PM 24.13 75.434 0.788 8.23 -31.98 7.76
8/15/2021 6:30:00 PM 24.05 75.29 0.79 8.22 -35.31 7.48
8/15/2021 6:45:00 PM 23.99 75.182 0.79 8.21 -35.21 7.44
8/15/2021 7:00:00 PM 23.95 75.11 0.791 8.21 -35.63 7.39
8/15/2021 7:15:00 PM 23.93 75.074 0.792 8.2 -35.08 7.33
8/15/2021 7:30:00 PM 23.91 75.038 0.793 8.2 -34.89 7.3
8/15/2021 7:45:00 PM 23.89 75.002 0.794 8.2 -35.52 7.22
8/15/2021 8:00:00 PM 23.85 74.93 0.795 8.19 -34.75 7.19
8/15/2021 8:15:00 PM 23.82 74.876 0.796 8.19 -35.4 7.05
8/15/2021 8:30:00 PM 23.78 74.804 0.797 8.18 -35.28 6.93
8/15/2021 8:45:00 PM 23.75 74.75 0.797 8.17 -34.88 6.94
8/15/2021 9:00:00 PM 23.72 74.696 0.798 8.17 -30.61 6.93
8/15/2021 9:15:00 PM 23.68 74.624 0.799 8.16 -35.44 6.85
8/15/2021 9:30:00 PM 23.64 74.552 0.8 8.16 -28.29 6.77
8/15/2021 9:45:00 PM 23.61 74.498 0.801 8.15 -31.55 6.76
8/15/2021 10:00:00 PM 23.59 74.462 0.802 8.14 -33.81 6.69
8/15/2021 10:15:00 PM 23.57 74.426 0.803 8.14 -35.33 6.63
8/15/2021 10:30:00 PM 23.55 74.39 0.804 8.14 -35.38 6.63
8/15/2021 10:45:00 PM 23.53 74.354 0.805 8.13 -34.59 6.59
8/15/2021 11:00:00 PM 23.52 74.336 0.806 8.13 -33.54 6.53
8/15/2021 11:15:00 PM 23.49 74.282 0.807 8.13 -34.71 6.54
8/15/2021 11:30:00 PM 23.47 74.246 0.808 8.13 -34.97 6.5
8/15/2021 11:45:00 PM 23.45 74.21 0.809 8.12 -7.94 6.46
8/16/2021 12:00:00 AM 23.42 74.156 0.81 8.11 -34.07 6.46
8/16/2021 12:15:00 AM 23.39 74.102 0.811 8.11 -34.59 6.42
8/16/2021 12:30:00 AM 23.37 74.066 0.812 8.1 -33.98 6.39
8/16/2021 12:45:00 AM 23.34 74.012 0.813 8.1 -34.55 6.37
8/16/2021 1:00:00 AM 23.3 73.94 0.814 8.09 -34.48 6.3
8/16/2021 1:15:00 AM 23.25 73.85 0.815 8.08 -34.89 6.28
8/16/2021 1:30:00 AM 23.21 73.778 0.816 8.08 -34.98 6.29
8/16/2021 1:45:00 AM 23.18 73.724 0.817 8.07 -34.57 6.27
8/16/2021 2:00:00 AM 23.15 73.67 0.818 8.07 -34.17 6.27
8/16/2021 2:15:00 AM 23.12 73.616 0.818 8.07 -33.17 6.25
8/16/2021 2:30:00 AM 23.1 73.58 0.821 8.06 -30.23 6.24
8/16/2021 2:45:00 AM 23.07 73.526 0.822 8.06 -33.14 6.23
8/16/2021 3:00:00 AM 23.04 73.472 0.823 8.05 -32.92 6.22
8/16/2021 3:15:00 AM 23.02 73.436 0.824 8.05 -33.13 6.25
8/16/2021 3:30:00 AM 23 73.4 0.825 8.05 -28.95 6.21
8/16/2021 3:45:00 AM 22.97 73.346 0.826 8.05 -33.79 6.25
8/16/2021 4:00:00 AM 22.94 73.292 0.827 8.05 -32.62 6.29
8/16/2021 4:15:00 AM 22.92 73.256 0.828 8.04 -30.42 6.27
8/16/2021 4:30:00 AM 22.9 73.22 0.829 8.04 -32.65 6.3
8/16/2021 4:45:00 AM 22.88 73.184 0.831 8.04 -32.45 6.3
8/16/2021 5:00:00 AM 22.86 73.148 0.832 8.03 -33.19 6.3
8/16/2021 5:15:00 AM 22.84 73.112 0.833 8.03 -33.57 6.3
8/16/2021 5:30:00 AM 22.81 73.058 0.834 8.01 12.44 6.3
8/16/2021 5:45:00 AM 22.79 73.022 0.836 8.01 -30.8 6.31
8/16/2021 6:00:00 AM 22.77 72.986 0.837 8.01 -18.54 6.25
8/16/2021 6:15:00 AM 22.74 72.932 0.838 8.01 -27.75 6.26
8/16/2021 6:30:00 AM 22.72 72.896 0.839 8 -32.24 6.14
8/16/2021 6:45:00 AM 22.7 72.86 0.84 8 -34.53 6.02
8/16/2021 7:00:00 AM 22.68 72.824 0.841 8 -30.08 6.24
8/16/2021 7:15:00 AM 22.67 72.806 0.842 8 -31.46 6.28
8/16/2021 7:30:00 AM 22.66 72.788 0.843 8 -33.34 6.39
8/16/2021 7:45:00 AM 22.66 72.788 0.845 8 -32.76 6.37
8/16/2021 8:00:00 AM 22.65 72.77 0.846 7.99 -34.05 6.45
8/16/2021 8:15:00 AM 22.64 72.752 0.847 8 -34.15 6.53
8/16/2021 8:30:00 AM 22.65 72.77 0.848 8 -33.22 6.54
8/16/2021 8:45:00 AM 22.66 72.788 0.849 8.01 -34.44 6.62
8/16/2021 9:00:00 AM 22.65 72.77 0.855 6.62 11.48 7.71
8/16/2021 9:15:00 AM 22.67 72.806 0.856 7.25 2.89 7.13
8/16/2021 9:30:00 AM 22.68 72.824 0.857 7.62 4.4 7.14
8/16/2021 9:45:00 AM 22.7 72.86 0.858 7.76 17.85 7.22
8/16/2021 10:00:00 AM 22.74 72.932 0.859 7.9 2.82 7.3
8/16/2021 10:15:00 AM 22.79 73.022 0.86 7.98 2.44 7.45
8/16/2021 10:30:00 AM 22.82 73.076 0.862 8.04 2.82 7.56
8/16/2021 10:45:00 AM 22.84 73.112 0.863 8.09 2.79 7.67
8/16/2021 11:00:00 AM 22.85 73.13 0.864 8.13 2.96 7.72
8/16/2021 11:15:00 AM 22.86 73.148 0.866 8.13 1.79 7.72
8/16/2021 11:30:00 AM 22.87 73.166 0.867 8.17 2.71 7.74
8/16/2021 11:45:00 AM 22.94 73.292 0.868 8.19 2.84 7.87
8/16/2021 12:00:00 PM 23 73.4 0.869 8.21 2.31 8.01
8/16/2021 12:15:00 PM 23.05 73.49 0.871 8.25 2.97 8.21
8/16/2021 12:30:00 PM 23.09 73.562 0.872 8.27 2.43 8.32
8/16/2021 12:45:00 PM 23.15 73.67 0.873 8.3 2.26 8.45
8/16/2021 1:00:00 PM 23.18 73.724 0.875 8.33 2.23 8.51
8/16/2021 1:15:00 PM 23.2 73.76 0.876 8.35 2.24 8.61
8/16/2021 1:30:00 PM 23.27 73.886 0.878 8.37 28.64 8.74
8/16/2021 1:45:00 PM 23.3 73.94 0.879 8.38 4.47 8.64
8/16/2021 2:00:00 PM 23.34 74.012 0.88 8.39 2.98 8.72
8/16/2021 2:15:00 PM 23.39 74.102 0.882 8.42 1.52 8.8
8/16/2021 2:30:00 PM 23.42 74.156 0.883 8.42 2.57 8.82
8/16/2021 2:45:00 PM 23.43 74.174 0.884 8.44 4.83 8.89
8/16/2021 3:00:00 PM 23.42 74.156 0.886 8.44 2.73 8.79
8/16/2021 3:15:00 PM 23.43 74.174 0.887 8.46 1.91 8.72
8/16/2021 3:30:00 PM 23.42 74.156 0.889 8.47 1.93 8.66
8/16/2021 3:45:00 PM 23.42 74.156 0.89 8.47 2.06 8.59
8/16/2021 4:00:00 PM 23.41 74.138 0.891 8.46 1.78 8.48
8/16/2021 4:15:00 PM 23.41 74.138 0.893 8.47 3.21 8.44
8/16/2021 4:30:00 PM 23.42 74.156 0.894 8.47 2.5 8.37
8/16/2021 4:45:00 PM 23.42 74.156 0.896 8.46 1.91 8.36
8/16/2021 5:00:00 PM 23.44 74.192 0.897 8.46 2.65 8.3
8/16/2021 5:15:00 PM 23.45 74.21 0.898 8.46 3.25 8.27
8/16/2021 5:30:00 PM 23.47 74.246 0.9 8.49 4.17 8.29
8/16/2021 5:45:00 PM 23.46 74.228 0.901 8.5 2.06 8.25
8/16/2021 6:00:00 PM 23.44 74.192 0.902 8.49 4.03 8.1
8/16/2021 6:15:00 PM 23.44 74.192 0.904 8.5 2.41 8.04
8/16/2021 6:30:00 PM 23.44 74.192 0.905 8.49 1.69 7.98
8/16/2021 6:45:00 PM 23.42 74.156 0.906 8.48 1.58 7.89
8/16/2021 7:00:00 PM 23.4 74.12 0.907 8.48 3.37 7.79
8/16/2021 7:15:00 PM 23.38 74.084 0.909 8.48 4.2 7.69
8/16/2021 7:30:00 PM 23.37 74.066 0.91 8.47 2.13 7.6
8/16/2021 7:45:00 PM 23.35 74.03 0.911 8.47 1.82 7.55
8/16/2021 8:00:00 PM 23.34 74.012 0.913 8.47 2.33 7.46
8/16/2021 8:15:00 PM 23.32 73.976 0.914 8.46 5.33 7.39
8/16/2021 8:30:00 PM 23.31 73.958 0.915 8.46 3.02 7.3
8/16/2021 8:45:00 PM 23.29 73.922 0.916 8.46 2.48 7.26
8/16/2021 9:00:00 PM 23.27 73.886 0.917 8.45 5.49 7.2
8/16/2021 9:15:00 PM 23.26 73.868 0.919 8.46 5.46 7.17
8/16/2021 9:30:00 PM 23.25 73.85 0.92 8.46 2.99 7.13
8/16/2021 9:45:00 PM 23.24 73.832 0.921 8.45 2.92 7.07
8/16/2021 10:00:00 PM 23.23 73.814 0.922 8.45 3.2 7.05
8/16/2021 10:15:00 PM 23.21 73.778 0.923 8.45 4.06 7
8/16/2021 10:30:00 PM 23.2 73.76 0.925 8.44 3.12 6.96
8/16/2021 10:45:00 PM 23.19 73.742 0.926 8.45 2.32 6.93
8/16/2021 11:00:00 PM 23.18 73.724 0.927 8.44 2.81 6.91
8/16/2021 11:15:00 PM 23.18 73.724 0.928 8.44 3.44 6.87
8/16/2021 11:30:00 PM 23.17 73.706 0.929 8.43 5.43 6.8
8/16/2021 11:45:00 PM 23.16 73.688 0.93 8.42 5.87 6.8
8/17/2021 12:00:00 AM 23.15 73.67 0.93 8.42 5.83 6.77
8/17/2021 12:15:00 AM 23.13 73.634 0.931 8.42 5.49 6.75
8/17/2021 12:30:00 AM 23.12 73.616 0.932 8.41 6.09 6.72
8/17/2021 12:45:00 AM 23.11 73.598 0.93 8.41 3.43 6.73
8/17/2021 1:00:00 AM 23.1 73.58 0.934 8.41 3.25 6.7
8/17/2021 1:15:00 AM 23.09 73.562 0.935 8.41 4.13 6.68
8/17/2021 1:30:00 AM 23.08 73.544 0.936 8.41 6.98 6.67
8/17/2021 1:45:00 AM 23.06 73.508 0.937 8.4 2.11 6.66
8/17/2021 2:00:00 AM 23.05 73.49 0.937 8.41 3.63 6.65
8/17/2021 2:15:00 AM 23.03 73.454 0.939 8.4 4.43 6.61
8/17/2021 2:30:00 AM 23.01 73.418 0.939 8.4 2.58 6.63
8/17/2021 2:45:00 AM 23 73.4 0.94 8.39 4.11 6.61
8/17/2021 3:00:00 AM 22.99 73.382 0.941 8.39 6.79 6.62
8/17/2021 3:15:00 AM 22.98 73.364 0.942 8.39 2.25 6.65
8/17/2021 3:30:00 AM 22.96 73.328 0.942 8.39 4.21 6.62
8/17/2021 3:45:00 AM 22.95 73.31 0.943 8.38 2.17 6.61
8/17/2021 4:00:00 AM 22.93 73.274 0.939 8.38 3.89 6.63
8/17/2021 4:15:00 AM 22.92 73.256 0.945 8.38 2.52 6.62
8/17/2021 4:30:00 AM 22.9 73.22 0.945 8.37 4.34 6.61
8/17/2021 4:45:00 AM 22.89 73.202 0.946 8.37 5.32 6.61
8/17/2021 5:00:00 AM 22.87 73.166 0.947 8.37 4.26 6.61
8/17/2021 5:15:00 AM 22.85 73.13 0.947 8.36 4.39 6.63
8/17/2021 5:30:00 AM 22.84 73.112 0.948 8.36 2.68 6.61
8/17/2021 5:45:00 AM 22.82 73.076 0.947 8.35 8.5 6.58
8/17/2021 6:00:00 AM 22.81 73.058 0.949 8.35 2.8 6.58
8/17/2021 6:15:00 AM 22.79 73.022 0.949 8.35 6.57 6.57
8/17/2021 6:30:00 AM 22.78 73.004 0.95 8.35 5.15 6.56
8/17/2021 6:45:00 AM 22.77 72.986 0.951 8.35 2.98 6.6
8/17/2021 7:00:00 AM 22.76 72.968 0.952 8.35 2.73 6.61
8/17/2021 7:15:00 AM 22.75 72.95 0.953 8.34 3.66 6.57
8/17/2021 7:30:00 AM 22.75 72.95 0.954 8.34 4.52 6.61
8/17/2021 7:45:00 AM 22.74 72.932 0.955 8.34 3.17 6.65
8/17/2021 8:00:00 AM 22.74 72.932 0.956 8.34 2.68 6.67
8/17/2021 8:15:00 AM 22.73 72.914 0.957 8.35 2.41 6.69
8/17/2021 8:30:00 AM 22.73 72.914 0.957 8.34 3.35 6.72
8/17/2021 8:45:00 AM 22.73 72.914 0.958 8.33 2.2 6.75
8/17/2021 9:00:00 AM 22.74 72.932 0.959 8.34 1.92 6.8
8/17/2021 9:15:00 AM 22.75 72.95 0.96 8.34 7.08 6.88
8/17/2021 9:30:00 AM 22.76 72.968 0.96 8.35 4.21 6.95
8/17/2021 9:45:00 AM 22.77 72.986 0.962 8.35 3.67 7.01
8/17/2021 10:00:00 AM 22.79 73.022 0.963 8.35 2.3 7.06
8/17/2021 10:15:00 AM 22.81 73.058 0.963 8.36 2.35 7.13
8/17/2021 10:30:00 AM 22.82 73.076 0.964 8.37 2.16 7.2
8/17/2021 10:45:00 AM 22.85 73.13 0.965 8.37 1.44 7.27
8/17/2021 11:00:00 AM 22.91 73.238 0.966 8.36 2.56 7.45
8/17/2021 11:15:00 AM 22.97 73.346 0.966 8.39 3.84 7.6
8/17/2021 11:30:00 AM 23.01 73.418 0.967 8.41 2.18 7.77
8/17/2021 11:45:00 AM 23.03 73.454 0.968 8.41 2.79 7.77
8/17/2021 12:00:00 PM 23.08 73.544 0.968 8.4 1.93 7.85
8/17/2021 12:15:00 PM 23.13 73.634 0.969 8.43 2.38 7.93
8/17/2021 12:30:00 PM 23.2 73.76 0.97 8.45 2.19 8.08
8/17/2021 12:45:00 PM 23.29 73.922 0.97 8.45 1.65 8.25
8/17/2021 1:00:00 PM 23.33 73.994 0.971 8.47 1.79 8.36
8/17/2021 1:15:00 PM 23.37 74.066 0.971 8.48 2.11 8.39
8/17/2021 1:30:00 PM 23.49 74.282 0.972 8.49 1.57 8.48
8/17/2021 1:45:00 PM 23.68 74.624 0.972 8.5 2.04 8.7
8/17/2021 2:00:00 PM 23.79 74.82201 0.972 8.51 2.13 8.88
8/17/2021 2:15:00 PM 23.93 75.074 0.972 8.54 2.16 9.01
8/17/2021 2:30:00 PM 24.01 75.218 0.973 8.57 3.35 9.06
8/17/2021 2:45:00 PM 24.1 75.38 0.973 8.58 2.06 9.11
8/17/2021 3:00:00 PM 24.14 75.452 0.973 8.59 2.2 9.09
8/17/2021 3:15:00 PM 24.14 75.452 0.974 8.6 2.14 9.12
8/17/2021 3:30:00 PM 24.13 75.434 0.974 8.6 1.91 9.08
8/17/2021 3:45:00 PM 24.1 75.38 0.974 8.6 2.99 8.93
8/17/2021 4:00:00 PM 24.09 75.362 0.974 8.55 1.7 8.78
8/17/2021 4:15:00 PM 24.07 75.326 0.975 8.56 2.23 8.67
8/17/2021 4:30:00 PM 24.05 75.29 0.974 8.56 2.28 8.59
8/17/2021 4:45:00 PM 24.04 75.272 0.974 8.58 1.72 8.55
8/17/2021 5:00:00 PM 24.03 75.254 0.974 8.58 1.36 8.53
8/17/2021 5:15:00 PM 24.03 75.254 0.974 8.58 1.67 8.51
8/17/2021 5:30:00 PM 24.03 75.254 0.974 8.59 1.65 8.48
8/17/2021 5:45:00 PM 24.02 75.236 0.974 8.59 2.05 8.32
8/17/2021 6:00:00 PM 24.01 75.218 0.974 8.6 1.88 8.33
8/17/2021 6:15:00 PM 23.99 75.182 0.974 8.6 3.03 8.23
8/17/2021 6:30:00 PM 23.97 75.146 0.974 8.59 3.39 8.1
8/17/2021 6:45:00 PM 23.95 75.11 0.975 8.59 1.91 7.97
8/17/2021 7:00:00 PM 23.94 75.092 0.975 8.59 2.45 7.91
8/17/2021 7:15:00 PM 23.92 75.056 0.975 8.58 2.3 7.84
8/17/2021 7:30:00 PM 23.9 75.02 0.975 8.58 3.53 7.74
8/17/2021 7:45:00 PM 23.88 74.984 0.975 8.57 2.64 7.65
8/17/2021 8:00:00 PM 23.86 74.948 0.976 8.57 2.51 7.57
8/17/2021 8:15:00 PM 23.84 74.912 0.976 8.56 2.95 7.46
8/17/2021 8:30:00 PM 23.82 74.876 0.976 8.56 3.52 7.38
8/17/2021 8:45:00 PM 23.8 74.84 0.976 8.55 2.36 7.3
8/17/2021 9:00:00 PM 23.79 74.82201 0.976 8.56 2.19 7.26
8/17/2021 9:15:00 PM 23.77 74.786 0.976 8.55 4.12 7.21
8/17/2021 9:30:00 PM 23.76 74.768 0.976 8.55 4.86 7.15
8/17/2021 9:45:00 PM 23.74 74.732 0.976 8.53 2.75 7.1
8/17/2021 10:00:00 PM 23.73 74.714 0.976 8.54 3.15 7.06
8/17/2021 10:15:00 PM 23.73 74.714 0.976 8.53 3.01 7.01
8/17/2021 10:30:00 PM 23.72 74.696 0.976 8.52 3.09 6.96
8/17/2021 10:45:00 PM 23.72 74.696 0.976 8.52 4.37 6.92
8/17/2021 11:00:00 PM 23.71 74.67799 0.976 8.51 4.05 6.88
8/17/2021 11:15:00 PM 23.71 74.67799 0.977 8.51 3.31 6.83
8/17/2021 11:30:00 PM 23.71 74.67799 0.977 8.5 2.71 6.8
8/17/2021 11:45:00 PM 23.7 74.66 0.977 8.5 3.92 6.77
8/18/2021 12:00:00 AM 23.7 74.66 0.978 8.49 2.51 6.74
8/18/2021 12:15:00 AM 23.69 74.642 0.978 8.49 3.86 6.72
8/18/2021 12:30:00 AM 23.69 74.642 0.978 8.47 4.77 6.68
8/18/2021 12:45:00 AM 23.68 74.624 0.978 8.48 4.39 6.67
8/18/2021 1:00:00 AM 23.66 74.588 0.979 8.43 4.15 6.65
8/18/2021 1:15:00 AM 23.65 74.57 0.979 8.46 4.23 6.63
8/18/2021 1:30:00 AM 23.64 74.552 0.976 8.45 3.88 6.62
8/18/2021 1:45:00 AM 23.63 74.534 0.98 8.45 3.2 6.61
8/18/2021 2:00:00 AM 23.61 74.498 0.981 8.43 5.14 6.57
8/18/2021 2:15:00 AM 23.6 74.48 0.981 8.43 5.83 6.56
8/18/2021 2:30:00 AM 23.59 74.462 0.981 8.43 4.65 6.57
8/18/2021 2:45:00 AM 23.57 74.426 0.982 8.43 2.9 6.54
8/18/2021 3:00:00 AM 23.55 74.39 0.982 8.41 4.6 6.54
8/18/2021 3:15:00 AM 23.53 74.354 0.982 8.42 4.29 6.55
8/18/2021 3:30:00 AM 23.51 74.318 0.982 8.41 7.52 6.54
8/18/2021 3:45:00 AM 23.49 74.282 0.983 8.42 3.69 6.52
8/18/2021 4:00:00 AM 23.47 74.246 0.983 8.41 3.93 6.53
8/18/2021 4:15:00 AM 23.44 74.192 0.984 8.42 4.08 6.51
8/18/2021 4:30:00 AM 23.43 74.174 0.983 8.41 4.28 6.51
8/18/2021 4:45:00 AM 23.41 74.138 0.983 8.41 4.06 6.52
8/18/2021 5:00:00 AM 23.39 74.102 0.984 8.41 4 6.51
8/18/2021 5:15:00 AM 23.37 74.066 0.983 8.4 4.99 6.51
8/18/2021 5:30:00 AM 23.35 74.03 0.984 8.4 40.28 6.51
8/18/2021 5:45:00 AM 23.34 74.012 0.979 8.39 4.36 6.52
8/18/2021 6:00:00 AM 23.32 73.976 0.983 8.4 4.28 6.54
8/18/2021 6:15:00 AM 23.31 73.958 0.981 8.39 4.97 6.57
8/18/2021 6:30:00 AM 23.29 73.922 0.98 8.39 5.56 6.57
8/18/2021 6:45:00 AM 23.27 73.886 0.98 8.38 8.06 6.55
8/18/2021 7:00:00 AM 23.26 73.868 0.979 8.37 4.36 6.59
8/18/2021 7:15:00 AM 23.24 73.832 0.979 8.35 5.75 6.6
8/18/2021 7:30:00 AM 23.24 73.832 0.979 6.84 3.9 6.66
8/18/2021 7:45:00 AM 23.24 73.832 0.979 6.8 5.17 6.7
8/18/2021 8:00:00 AM 23.24 73.832 0.979 6.96 3.81 6.74
8/18/2021 8:15:00 AM 23.25 73.85 0.979 6.85 3.49 6.82
8/18/2021 8:30:00 AM 23.27 73.886 0.979 6.73 4.76 6.9
8/18/2021 8:45:00 AM 23.28 73.904 0.979 7.13 3.76 6.96
8/18/2021 9:00:00 AM 23.31 73.958 0.979 7.39 6.51 7.05
8/18/2021 9:15:00 AM 23.33 73.994 0.978 7.43 3.69 7.12
8/18/2021 9:30:00 AM 23.35 74.03 0.978 7.51 3.95 7.24
8/18/2021 9:45:00 AM 23.38 74.084 0.978 7.56 3.42 7.32
8/18/2021 10:00:00 AM 23.43 74.174 0.978 7.65 3.1 7.43
8/18/2021 10:15:00 AM 23.5 74.3 0.977 7.72 2.79 7.57
8/18/2021 10:30:00 AM 23.56 74.408 0.977 7.8 3.46 7.72
8/18/2021 10:45:00 AM 23.59 74.462 0.977 7.87 2.78 7.8
8/18/2021 11:00:00 AM 23.64 74.552 0.977 7.92 2.62 7.87
8/18/2021 11:15:00 AM 23.71 74.67799 0.977 7.99 2.35 7.89
8/18/2021 11:30:00 AM 23.79 74.82201 0.977 8.05 2.64 8.06
8/18/2021 11:45:00 AM 23.96 75.128 0.976 8.13 3 8.35
8/18/2021 12:00:00 PM 24.04 75.272 0.975 8.18 1.81 8.46
8/18/2021 12:15:00 PM 24.12 75.416 0.975 8.23 3.23 8.54
8/18/2021 12:30:00 PM 24.3 75.74 0.975 8.27 3.32 8.62
8/18/2021 12:45:00 PM 24.46 76.028 0.974 8.3 4.03 8.75
8/18/2021 1:00:00 PM 24.52 76.136 0.974 8.35 3.34 8.79
8/18/2021 1:15:00 PM 24.6 76.28 0.974 8.38 2.49 8.84
8/18/2021 1:30:00 PM 24.69 76.442 0.973 8.4 3.09 8.96
8/18/2021 1:45:00 PM 24.76 76.568 0.973 8.42 6.91 8.99
8/18/2021 2:00:00 PM 24.76 76.568 0.971 8.44 2.86 9
8/18/2021 2:15:00 PM 24.74 76.532 0.971 8.45 2.41 8.89
8/18/2021 2:30:00 PM 24.72 76.496 0.971 8.45 2.74 8.84
8/18/2021 2:45:00 PM 24.74 76.532 0.97 8.47 3.36 8.8
8/18/2021 3:00:00 PM 24.81 76.658 0.969 8.49 2.9 8.85
8/18/2021 3:15:00 PM 24.86 76.748 0.968 8.51 2.26 8.97
8/18/2021 3:30:00 PM 24.91 76.838 0.967 8.52 2.45 8.95
8/18/2021 3:45:00 PM 24.89 76.802 0.966 8.54 2.68 8.89
8/18/2021 4:00:00 PM 24.87 76.766 0.965 8.54 3.06 8.72
8/18/2021 4:15:00 PM 24.9 76.82 0.964 8.55 2.42 8.62
8/18/2021 4:30:00 PM 24.89 76.802 0.964 8.54 3.51 8.52
8/18/2021 4:45:00 PM 24.92 76.856 0.963 8.55 2.71 8.5
8/18/2021 5:00:00 PM 24.96 76.92799 0.962 8.56 3.06 8.58
8/18/2021 5:15:00 PM 24.95 76.91 0.961 8.57 2.95 8.51
8/18/2021 5:30:00 PM 24.92 76.856 0.957 8.59 3.23 8.35
8/18/2021 5:45:00 PM 24.9 76.82 0.956 8.55 4.01 8.18
8/18/2021 6:00:00 PM 24.87 76.766 0.955 8.59 3.65 8.04
8/18/2021 6:15:00 PM 24.84 76.712 0.956 8.58 3.2 7.91
8/18/2021 6:30:00 PM 24.82 76.676 0.956 8.57 3.65 7.79
8/18/2021 6:45:00 PM 24.8 76.64 0.956 8.57 4.32 7.72
8/18/2021 7:00:00 PM 24.77 76.586 0.956 8.57 7.69 7.62
8/18/2021 7:15:00 PM 24.75 76.55 0.955 8.58 4.44 7.52
8/18/2021 7:30:00 PM 24.73 76.514 0.954 8.57 3.85 7.41
8/18/2021 7:45:00 PM 24.71 76.478 0.954 8.55 5.34 7.27
8/18/2021 8:00:00 PM 24.69 76.442 0.953 8.53 4.56 7.17
8/18/2021 8:15:00 PM 24.68 76.424 0.952 8.52 4.15 7.12
8/18/2021 8:30:00 PM 24.67 76.406 0.948 8.53 4.68 7.07
8/18/2021 8:45:00 PM 24.66 76.388 0.945 8.54 6.66 6.99
8/18/2021 9:00:00 PM 24.63 76.334 0.939 8.54 4.36 6.97
8/18/2021 9:15:00 PM 24.6 76.28 0.931 8.51 18 6.92
8/18/2021 9:30:00 PM 24.55 76.19 0.914 8.54 25.03 6.94
8/18/2021 9:45:00 PM 24.44 75.992 0.839 8.57 36.47 7.11
8/18/2021 10:00:00 PM 24.04 75.272 0.556 8.58 193.8 7.31
8/18/2021 10:15:00 PM 23.98 75.164 0.15 8.57 421.4 7.63
8/18/2021 10:30:00 PM 23.87 74.966 0.071 8.43 448.2 7.84
8/18/2021 10:45:00 PM 23.84 74.912 0.119 8.2 441.5 7.83
8/18/2021 11:00:00 PM 23.9 75.02 0.181 8.12 388.7 7.8
8/18/2021 11:15:00 PM 23.99 75.182 0.432 8.14 381.9 7.52
8/18/2021 11:30:00 PM 23.89 75.002 0.494 8.19 755.8 7.13
8/18/2021 11:45:00 PM 23.9 75.02 0.27 8.14 902.9 6.94
8/19/2021 12:00:00 AM 23.92 75.056 0.244 8.05 843.8 6.92
8/19/2021 12:15:00 AM 24.02 75.236 0.268 7.99 726.9 6.91
8/19/2021 12:30:00 AM 24.04 75.272 0.272 7.97 556.7 7
8/19/2021 12:45:00 AM 24.01 75.218 0.275 7.95 452 7.04
8/19/2021 1:00:00 AM 23.97 75.146 0.295 7.92 416.9 7.06
8/19/2021 1:15:00 AM 23.94 75.092 0.347 7.91 368 7.1
8/19/2021 1:30:00 AM 23.96 75.128 0.34 7.92 314.5 7.1
8/19/2021 1:45:00 AM 23.99 75.182 0.291 7.93 298.9 7.1
8/19/2021 2:00:00 AM 23.98 75.164 0.268 7.89 318.4 7
8/19/2021 2:15:00 AM 23.96 75.128 0.272 7.86 363.6 6.94
8/19/2021 2:30:00 AM 23.96 75.128 0.275 7.84 369.6 6.9
8/19/2021 2:45:00 AM 23.97 75.146 0.27 7.84 369.9 6.91
8/19/2021 3:00:00 AM 24 75.2 0.269 7.86 360 6.93
8/19/2021 3:15:00 AM 24.02 75.236 0.28 7.86 334.1 6.99
8/19/2021 3:30:00 AM 24.04 75.272 0.305 7.86 312.7 7.03
8/19/2021 3:45:00 AM 24.04 75.272 0.332 7.87 274.5 6.96
8/19/2021 4:00:00 AM 24 75.2 0.364 7.88 329.7 6.94
8/19/2021 4:15:00 AM 23.93 75.074 0.384 7.89 360.5 7.01
8/19/2021 4:30:00 AM 23.84 74.912 0.368 7.9 407.7 7.06
8/19/2021 4:45:00 AM 23.76 74.768 0.354 7.89 404.4 7.01
8/19/2021 5:00:00 AM 23.67 74.606 0.403 7.88 387.1 6.96
8/19/2021 5:15:00 AM 23.6 74.48 0.489 7.89 458.7 6.94
8/19/2021 5:30:00 AM 23.58 74.444 0.52 7.9 518.6 6.9
8/19/2021 5:45:00 AM 23.58 74.444 0.472 7.9 546.7 6.78
8/19/2021 6:00:00 AM 23.58 74.444 0.389 7.88 513.5 6.67
8/19/2021 6:15:00 AM 23.59 74.462 0.318 7.85 487.1 6.57
8/19/2021 6:30:00 AM 23.59 74.462 0.277 7.82 417.9 6.52
8/19/2021 6:45:00 AM 23.59 74.462 0.258 7.79 383.4 6.52
8/19/2021 7:00:00 AM 23.59 74.462 0.253 7.8 347.3 6.55
8/19/2021 7:15:00 AM 23.59 74.462 0.256 7.76 312.4 6.59
8/19/2021 7:30:00 AM 23.59 74.462 0.263 7.75 282.1 6.64
8/19/2021 7:45:00 AM 23.58 74.444 0.274 7.72 253.5 6.69
8/19/2021 8:00:00 AM 23.57 74.426 0.287 7.72 226.2 6.75
8/19/2021 8:15:00 AM 23.56 74.408 0.302 7.72 215.4 6.8
8/19/2021 8:30:00 AM 23.55 74.39 0.316 7.71 204.5 6.85
8/19/2021 8:45:00 AM 23.53 74.354 0.329 7.72 183.7 6.88
8/19/2021 9:00:00 AM 23.52 74.336 0.342 7.71 175.1 6.91
8/19/2021 9:15:00 AM 23.5 74.3 0.354 7.7 167 6.95
8/19/2021 9:30:00 AM 23.5 74.3 0.365 7.72 156.2 6.98
8/19/2021 9:45:00 AM 23.49 74.282 0.376 7.73 156.5 6.99
8/19/2021 10:00:00 AM 23.5 74.3 0.385 7.74 151.9 7.02
8/19/2021 10:15:00 AM 23.51 74.318 0.392 7.75 137.7 7.04
8/19/2021 10:30:00 AM 23.52 74.336 0.398 7.75 143.3 7.05
8/19/2021 10:45:00 AM 23.55 74.39 0.399 7.75 161 7.06
8/19/2021 11:00:00 AM 23.58 74.444 0.397 7.75 138.1 7.06
8/19/2021 11:15:00 AM 23.61 74.498 0.393 7.75 132.1 7.06
8/19/2021 11:30:00 AM 23.62 74.516 0.387 7.75 129 7.07
8/19/2021 11:45:00 AM 23.66 74.588 0.38 7.75 122.7 7.04
8/19/2021 12:00:00 PM 23.74 74.732 0.373 7.75 112 7.03
8/19/2021 12:15:00 PM 23.72 74.696 0.367 7.75 115 7.02
8/19/2021 12:30:00 PM 23.72 74.696 0.36 7.74 105.2 7
8/19/2021 12:45:00 PM 23.74 74.732 0.354 6.65 101.1 6.98
8/19/2021 1:00:00 PM 23.81 74.858 0.35 6.78 101.6 6.96
8/19/2021 1:15:00 PM 23.9 75.02 0.345 7.12 96.34 6.92
8/19/2021 1:30:00 PM 24 75.2 0.341 7.28 91.83 6.9
8/19/2021 1:45:00 PM 24.1 75.38 0.338 7.42 83.92 6.86
8/19/2021 2:00:00 PM 24.17 75.506 0.335 7.51 82.5 6.83
8/19/2021 2:15:00 PM 24.18 75.524 0.331 7.39 80.19 6.81
8/19/2021 2:30:00 PM 24.19 75.542 0.329 7.46 73.91 6.78
8/19/2021 2:45:00 PM 24.22 75.596 0.326 7.52 77.34 6.75
8/19/2021 3:00:00 PM 24.24 75.632 0.324 7.55 74.06 6.73
8/19/2021 3:15:00 PM 24.26 75.668 0.323 7.58 69.13 6.72
8/19/2021 3:30:00 PM 24.27 75.686 0.321 7.6 67.7 6.7
8/19/2021 3:45:00 PM 24.32 75.776 0.319 7.6 64.35 6.69
8/19/2021 4:00:00 PM 24.35 75.83 0.318 7.62 65.47 6.71
8/19/2021 4:15:00 PM 24.39 75.902 0.317 7.62 68.65 6.68
8/19/2021 4:30:00 PM 24.42 75.956 0.316 7.63 61.54 6.67
8/19/2021 4:45:00 PM 24.42 75.956 0.315 7.62 59.34 6.68
8/19/2021 5:00:00 PM 24.43 75.974 0.315 7.63 57.28 6.68
8/19/2021 5:15:00 PM 24.43 75.974 0.314 7.64 80.57 6.65
8/19/2021 5:30:00 PM 24.44 75.992 0.313 7.65 79.64 6.63
8/19/2021 5:45:00 PM 24.43 75.974 0.313 7.66 59.67 6.65
8/19/2021 6:00:00 PM 24.44 75.992 0.313 7.65 56.17 6.66
8/19/2021 6:15:00 PM 24.44 75.992 0.313 7.65 52.89 6.67
8/19/2021 6:30:00 PM 24.45 76.01 0.313 7.67 51.93 6.65
8/19/2021 6:45:00 PM 24.44 75.992 0.313 7.68 52.26 6.65
8/19/2021 7:00:00 PM 24.43 75.974 0.314 7.65 51.94 6.6
8/19/2021 7:15:00 PM 24.42 75.956 0.314 7.67 51.4 6.63
8/19/2021 7:30:00 PM 24.41 75.938 0.314 7.68 53.42 6.6
8/19/2021 7:45:00 PM 24.39 75.902 0.315 7.66 64.6 6.61
8/19/2021 8:00:00 PM 24.38 75.884 0.316 7.7 53.45 6.57
8/19/2021 8:15:00 PM 24.37 75.866 0.316 7.69 56.39 6.56
8/19/2021 8:30:00 PM 24.36 75.848 0.317 7.68 53.1 6.56
8/19/2021 8:45:00 PM 24.35 75.83 0.317 7.68 49.68 6.57
8/19/2021 9:00:00 PM 24.33 75.794 0.318 7.67 54.52 6.56
8/19/2021 9:15:00 PM 24.31 75.758 0.319 7.68 49.17 6.54
8/19/2021 9:30:00 PM 24.29 75.722 0.319 7.69 50.2 6.52
8/19/2021 9:45:00 PM 24.27 75.686 0.32 7.71 50.86 6.52
8/19/2021 10:00:00 PM 24.24 75.632 0.321 7.7 51.72 6.51
8/19/2021 10:15:00 PM 24.22 75.596 0.322 7.7 51.47 6.52
8/19/2021 10:30:00 PM 24.2 75.56 0.323 7.71 53.77 6.51
8/19/2021 10:45:00 PM 24.18 75.524 0.324 7.71 48.82 6.49
8/19/2021 11:00:00 PM 24.15 75.47 0.325 7.72 56.16 6.5
8/19/2021 11:15:00 PM 24.13 75.434 0.326 7.71 49.49 6.49
8/19/2021 11:30:00 PM 24.1 75.38 0.326 7.73 58.47 6.5
8/19/2021 11:45:00 PM 24.08 75.344 0.327 7.74 54.54 6.48
8/20/2021 12:00:00 AM 24.05 75.29 0.328 7.72 51.94 6.48
8/20/2021 12:15:00 AM 24.03 75.254 0.329 7.72 50.21 6.5
8/20/2021 12:30:00 AM 24 75.2 0.33 7.74 50.15 6.46
8/20/2021 12:45:00 AM 23.98 75.164 0.331 7.72 51.62 6.48
8/20/2021 1:00:00 AM 23.96 75.128 0.333 7.74 63.32 6.44
8/20/2021 1:15:00 AM 23.93 75.074 0.334 7.73 52.18 6.43
8/20/2021 1:30:00 AM 23.91 75.038 0.335 7.75 45.33 6.46
8/20/2021 1:45:00 AM 23.89 75.002 0.336 7.74 53.73 6.45
8/20/2021 2:00:00 AM 23.87 74.966 0.337 7.74 49.18 6.44
8/20/2021 2:15:00 AM 23.84 74.912 0.338 7.74 67.92 6.45
8/20/2021 2:30:00 AM 23.82 74.876 0.339 7.76 32.32 6.46
8/20/2021 2:45:00 AM 23.8 74.84 0.341 7.77 28.54 6.46
8/20/2021 3:00:00 AM 23.78 74.804 0.342 7.75 24.28 6.44
8/20/2021 3:15:00 AM 23.76 74.768 0.343 7.77 28.16 6.45
8/20/2021 3:30:00 AM 23.74 74.732 0.344 7.75 31.66 6.46
8/20/2021 3:45:00 AM 23.72 74.696 0.346 7.75 28.32 6.46
8/20/2021 4:00:00 AM 23.7 74.66 0.347 7.77 25.86 6.44
8/20/2021 4:15:00 AM 23.68 74.624 0.348 7.78 26.55 6.45
8/20/2021 4:30:00 AM 23.66 74.588 0.349 7.77 27.39 6.46
8/20/2021 4:45:00 AM 23.64 74.552 0.35 7.78 28.94 6.46
8/20/2021 5:00:00 AM 23.62 74.516 0.352 7.76 24.95 6.46
8/20/2021 5:15:00 AM 23.61 74.498 0.353 7.77 25.78 6.45
8/20/2021 5:30:00 AM 23.59 74.462 0.354 7.77 25.85 6.47
8/20/2021 5:45:00 AM 23.57 74.426 0.356 7.8 22.86 6.47
8/20/2021 6:00:00 AM 23.56 74.408 0.357 7.78 25.15 6.46
8/20/2021 6:15:00 AM 23.54 74.372 0.358 7.79 29.17 6.43
8/20/2021 6:30:00 AM 23.52 74.336 0.36 7.81 25.07 6.41
8/20/2021 6:45:00 AM 23.51 74.318 0.361 7.79 24.55 6.47
8/20/2021 7:00:00 AM 23.5 74.3 0.363 7.81 27.53 6.48
8/20/2021 7:15:00 AM 23.5 74.3 0.365 7.81 21.29 6.47
8/20/2021 7:30:00 AM 23.49 74.282 0.366 7.83 21.33 6.49
8/20/2021 7:45:00 AM 23.48 74.264 0.368 7.81 25.27 6.48
8/20/2021 8:00:00 AM 23.48 74.264 0.37 7.82 23.68 6.5
8/20/2021 8:15:00 AM 23.47 74.246 0.372 7.82 22.09 6.49
8/20/2021 8:30:00 AM 23.47 74.246 0.373 7.83 27.34 6.51
8/20/2021 8:45:00 AM 23.48 74.264 0.375 7.82 24.61 6.52
8/20/2021 9:00:00 AM 23.49 74.282 0.377 7.85 26.27 6.56
8/20/2021 9:15:00 AM 23.5 74.3 0.379 7.83 23.23 6.58
8/20/2021 9:30:00 AM 23.53 74.354 0.381 7.82 23.58 6.6
8/20/2021 9:45:00 AM 23.55 74.39 0.383 7.86 27.23 6.65
8/20/2021 10:00:00 AM 23.55 74.39 0.384 7.87 21.71 6.67
8/20/2021 10:15:00 AM 23.56 74.408 0.387 7.85 20.53 6.68
8/20/2021 10:30:00 AM 23.56 74.408 0.389 7.87 20.51 6.67
8/20/2021 10:45:00 AM 23.56 74.408 0.39 7.85 23.1 6.69
8/20/2021 11:00:00 AM 23.57 74.426 0.392 7.88 23.81 6.7
8/20/2021 11:15:00 AM 23.58 74.444 0.394 7.88 24.47 6.73
8/20/2021 11:30:00 AM 23.6 74.48 0.396 7.89 24.61 6.78
8/20/2021 11:45:00 AM 23.63 74.534 0.397 7.89 9.21 6.81
8/20/2021 12:00:00 PM 23.65 74.57 0.399 7.91 9.33 6.84
8/20/2021 12:15:00 PM 23.66 74.588 0.401 7.92 8.56 6.86
8/20/2021 12:30:00 PM 23.69 74.642 0.402 7.93 11.4 6.9
8/20/2021 12:45:00 PM 23.71 74.67799 0.405 7.92 8.57 6.94
8/20/2021 1:00:00 PM 23.73 74.714 0.406 7.94 9.8 6.96
8/20/2021 1:15:00 PM 23.76 74.768 0.408 7.93 7.38 7
8/20/2021 1:30:00 PM 23.78 74.804 0.41 7.93 8.63 7.01
8/20/2021 1:45:00 PM 23.8 74.84 0.412 7.97 7.47 7.05
8/20/2021 2:00:00 PM 23.84 74.912 0.413 7.96 8.43 7.08
8/20/2021 2:15:00 PM 23.9 75.02 0.415 7.96 9.44 7.12
8/20/2021 2:30:00 PM 23.93 75.074 0.416 7.97 7.04 7.15
8/20/2021 2:45:00 PM 23.96 75.128 0.418 7.98 10.14 7.15
8/20/2021 3:00:00 PM 23.95 75.11 0.419 7.99 5.99 7.13
8/20/2021 3:15:00 PM 24.01 75.218 0.421 8.01 6.81 7.14
8/20/2021 3:30:00 PM 24.12 75.416 0.422 8.02 8.21 7.2
8/20/2021 3:45:00 PM 24.21 75.578 0.424 8 7.13 7.23
8/20/2021 4:00:00 PM 24.16 75.488 0.425 8.02 6.41 7.21
8/20/2021 4:15:00 PM 24.14 75.452 0.427 8.03 7.58 7.18
8/20/2021 4:30:00 PM 24.15 75.47 0.428 8.03 8.75 7.13
8/20/2021 4:45:00 PM 24.18 75.524 0.429 7.97 6.89 7.14
8/20/2021 5:00:00 PM 24.2 75.56 0.431 8.01 7.01 7.15
8/20/2021 5:15:00 PM 24.23 75.614 0.432 8.05 6.15 7.13
8/20/2021 5:30:00 PM 24.22 75.596 0.434 8.03 8.59 7.1
8/20/2021 5:45:00 PM 24.18 75.524 0.436 8.02 7.36 7.01
8/20/2021 6:00:00 PM 24.15 75.47 0.437 8.04 9.1 6.97
8/20/2021 6:15:00 PM 24.14 75.452 0.439 8.06 7.12 6.95
8/20/2021 6:30:00 PM 24.12 75.416 0.441 8.05 6.62 6.94
8/20/2021 6:45:00 PM 24.11 75.398 0.442 8.04 7.51 6.91
8/20/2021 7:00:00 PM 24.1 75.38 0.444 8.04 7.42 6.89
8/20/2021 7:15:00 PM 24.09 75.362 0.446 8.05 8.57 6.87
8/20/2021 7:30:00 PM 24.07 75.326 0.448 8.03 7.5 6.85
8/20/2021 7:45:00 PM 24.05 75.29 0.449 7.98 10.71 6.83
8/20/2021 8:00:00 PM 24.02 75.236 0.451 8.02 7.72 6.78
8/20/2021 8:15:00 PM 24 75.2 0.453 8.02 7.9 6.76
8/20/2021 8:30:00 PM 23.97 75.146 0.455 8.03 10.82 6.73
8/20/2021 8:45:00 PM 23.95 75.11 0.456 8.03 8.93 6.73
8/20/2021 9:00:00 PM 23.93 75.074 0.458 8.03 8.76 6.7
8/20/2021 9:15:00 PM 23.9 75.02 0.46 8.02 8.36 6.69
8/20/2021 9:30:00 PM 23.87 74.966 0.462 8.04 9.59 6.66
8/20/2021 9:45:00 PM 23.84 74.912 0.464 8.01 10.51 6.66
8/20/2021 10:00:00 PM 23.8 74.84 0.465 8.04 8.86 6.67
8/20/2021 10:15:00 PM 23.76 74.768 0.467 8.02 8.44 6.64
8/20/2021 10:30:00 PM 23.73 74.714 0.469 8.03 9.14 6.64
8/20/2021 10:45:00 PM 23.69 74.642 0.47 8.02 8.58 6.63
8/20/2021 11:00:00 PM 23.65 74.57 0.472 8.03 8.66 6.62
8/20/2021 11:15:00 PM 23.61 74.498 0.474 8.04 8.97 6.61
8/20/2021 11:30:00 PM 23.57 74.426 0.475 8.03 8.65 6.61
8/20/2021 11:45:00 PM 23.53 74.354 0.477 7.96 7.97 6.6
8/21/2021 12:00:00 AM 23.49 74.282 0.479 8.03 8.57 6.6
8/21/2021 12:15:00 AM 23.44 74.192 0.48 8.03 7.89 6.61
8/21/2021 12:30:00 AM 23.4 74.12 0.482 8.02 7.87 6.6
8/21/2021 12:45:00 AM 23.36 74.048 0.484 8.02 9.89 6.62
8/21/2021 1:00:00 AM 23.33 73.994 0.485 8.03 9.34 6.62
8/21/2021 1:15:00 AM 23.29 73.922 0.487 8.03 7.99 6.61
8/21/2021 1:30:00 AM 23.24 73.832 0.489 8.02 9.36 6.6
8/21/2021 1:45:00 AM 23.2 73.76 0.49 7.89 10.86 6.64
8/21/2021 2:00:00 AM 23.16 73.688 0.492 8 13.8 6.61
8/21/2021 2:15:00 AM 23.12 73.616 0.494 8.03 10.59 6.63
8/21/2021 2:30:00 AM 23.08 73.544 0.495 8.04 11.21 6.63
8/21/2021 2:45:00 AM 23.04 73.472 0.497 8.04 10.66 6.66
8/21/2021 3:00:00 AM 23 73.4 0.499 8.04 10.17 6.66
8/21/2021 3:15:00 AM 22.95 73.31 0.501 8.03 13.06 6.67
8/21/2021 3:30:00 AM 22.91 73.238 0.502 8.01 14.57 6.68
8/21/2021 3:45:00 AM 22.87 73.166 0.504 8.03 12.96 6.7
8/21/2021 4:00:00 AM 22.83 73.094 0.506 8.05 11.88 6.71
8/21/2021 4:15:00 AM 22.79 73.022 0.508 8.04 11.29 6.73
8/21/2021 4:30:00 AM 22.75 72.95 0.51 8.05 11.81 6.73
8/21/2021 4:45:00 AM 22.71 72.878 0.512 8.05 10.79 6.74
8/21/2021 5:00:00 AM 22.67 72.806 0.514 8.06 10.27 6.78
8/21/2021 5:15:00 AM 22.63 72.734 0.516 8.06 11.93 6.78
8/21/2021 5:30:00 AM 22.59 72.662 0.519 8.05 14.01 6.8
8/21/2021 5:45:00 AM 22.55 72.59 0.521 8.06 11.21 6.8
8/21/2021 6:00:00 AM 22.51 72.518 0.523 8.06 12.33 6.81
8/21/2021 6:15:00 AM 22.47 72.446 0.525 8.07 19.43 6.83
8/21/2021 6:30:00 AM 22.43 72.374 0.527 8.07 11.13 6.85
8/21/2021 6:45:00 AM 22.4 72.32 0.53 8.07 10 6.86
8/21/2021 7:00:00 AM 22.36 72.248 0.532 8.07 11.53 6.88
8/21/2021 7:15:00 AM 22.33 72.194 0.534 8.06 10.31 6.89
8/21/2021 7:30:00 AM 22.29 72.122 0.537 8.02 9.82 6.91
8/21/2021 7:45:00 AM 22.27 72.086 0.539 8.05 8.71 6.92
8/21/2021 8:00:00 AM 22.24 72.032 0.541 8.05 11.41 6.94
8/21/2021 8:15:00 AM 22.22 71.996 0.543 8.04 9.51 6.96
8/21/2021 8:30:00 AM 22.21 71.978 0.546 8.05 10.01 6.95
8/21/2021 8:45:00 AM 22.19 71.942 0.548 8.04 10.09 6.97
8/21/2021 9:00:00 AM 22.19 71.942 0.55 8.03 10.07 6.97
8/21/2021 9:15:00 AM 22.19 71.942 0.552 8.04 9.76 7.02
8/21/2021 9:30:00 AM 22.2 71.96 0.555 8.07 8.36 7.03
8/21/2021 9:45:00 AM 22.23 72.014 0.556 8.09 8.57 7.07
8/21/2021 10:00:00 AM 22.27 72.086 0.558 8.09 8.58 7.09
8/21/2021 10:15:00 AM 22.33 72.194 0.56 8.07 8.89 7.16
8/21/2021 10:30:00 AM 22.41 72.338 0.563 8.08 8.13 7.24
8/21/2021 10:45:00 AM 22.57 72.626 0.565 8.11 7.94 7.31
8/21/2021 11:00:00 AM 22.77 72.986 0.567 8.1 8.06 7.39
8/21/2021 11:15:00 AM 22.9 73.22 0.569 8.11 10.04 7.49
8/21/2021 11:30:00 AM 23.05 73.49 0.571 8.12 9.22 7.56
8/21/2021 11:45:00 AM 23.13 73.634 0.573 8.14 8.48 7.6
8/21/2021 12:00:00 PM 23.24 73.832 0.575 8.14 10.64 7.65
8/21/2021 12:15:00 PM 23.35 74.03 0.577 8.14 8.06 7.66
8/21/2021 12:30:00 PM 23.51 74.318 0.58 8.15 10.07 7.72
8/21/2021 12:45:00 PM 23.46 74.228 0.582 8.19 8.78 7.77
8/21/2021 1:00:00 PM 23.46 74.228 0.584 8.22 12.1 7.77
8/21/2021 1:15:00 PM 23.61 74.498 0.586 8.19 8.1 7.81
8/21/2021 1:30:00 PM 23.74 74.732 0.588 8.2 8.13 7.88
8/21/2021 1:45:00 PM 23.8 74.84 0.59 8.21 7.79 7.89
8/21/2021 2:00:00 PM 23.86 74.948 0.592 8.24 7.63 7.93
8/21/2021 2:15:00 PM 24.01 75.218 0.594 8.26 7.99 7.96
8/21/2021 2:30:00 PM 24.03 75.254 0.596 8.27 15.21 7.99
8/21/2021 2:45:00 PM 24.11 75.398 0.598 8.27 9.55 7.97
8/21/2021 3:00:00 PM 24.22 75.596 0.6 8.27 9.05 7.97
8/21/2021 3:15:00 PM 24.24 75.632 0.602 8.3 8.75 7.99
8/21/2021 3:30:00 PM 24.24 75.632 0.604 8.31 9.59 7.96
8/21/2021 3:45:00 PM 24.28 75.704 0.605 8.33 8.63 7.94
8/21/2021 4:00:00 PM 24.32 75.776 0.607 8.3 9.93 7.94
8/21/2021 4:15:00 PM 24.35 75.83 0.609 8.31 10.85 7.9
8/21/2021 4:30:00 PM 24.38 75.884 0.611 8.32 10.12 7.84
8/21/2021 4:45:00 PM 24.38 75.884 0.613 8.32 99.38 7.79
8/21/2021 5:00:00 PM 24.38 75.884 0.615 8.32 75.19 7.77
8/21/2021 5:15:00 PM 24.36 75.848 0.617 8.32 202.1 7.74
8/21/2021 5:30:00 PM 24.35 75.83 0.619 8.32 513.3 7.69
8/21/2021 5:45:00 PM 24.36 75.848 0.621 8.33 588.5 7.67
8/21/2021 6:00:00 PM 24.35 75.83 0.623 8.34 250.7 7.64
8/21/2021 6:15:00 PM 24.35 75.83 0.624 8.33 36.3 7.58
8/21/2021 6:30:00 PM 24.35 75.83 0.627 8.33 118.6 7.51
8/21/2021 6:45:00 PM 24.35 75.83 0.629 8.33 60.1 7.48
8/21/2021 7:00:00 PM 24.35 75.83 0.63 8.32 34.72 7.4
8/21/2021 7:15:00 PM 24.35 75.83 0.632 8.34 20.98 7.34
8/21/2021 7:30:00 PM 24.34 75.812 0.634 8.34 4.47 7.31
8/21/2021 7:45:00 PM 24.33 75.794 0.636 8.35 4.8 7.24
8/21/2021 8:00:00 PM 24.32 75.776 0.638 8.36 5.11 7.18
8/21/2021 8:15:00 PM 24.3 75.74 0.64 8.35 4.1 7.13
8/21/2021 8:30:00 PM 24.29 75.722 0.642 8.33 4.31 7.08
8/21/2021 8:45:00 PM 24.27 75.686 0.644 8.34 4.12 7.03
8/21/2021 9:00:00 PM 24.25 75.65 0.646 8.33 3.89 7.01
8/21/2021 9:15:00 PM 24.23 75.614 0.649 8.04 3.75 6.97
8/21/2021 9:30:00 PM 24.21 75.578 0.65 8.28 4.29 6.93
8/21/2021 9:45:00 PM 24.18 75.524 0.653 8.29 5.24 6.91
8/21/2021 10:00:00 PM 24.15 75.47 0.655 8.31 3.98 6.9
8/21/2021 10:15:00 PM 24.12 75.416 0.657 8.29 5.22 6.86
8/21/2021 10:30:00 PM 24.09 75.362 0.659 8.29 3.89 6.84
8/21/2021 10:45:00 PM 24.06 75.308 0.662 8.31 2.97 6.81
8/21/2021 11:00:00 PM 24.03 75.254 0.664 8.32 3.85 6.8
8/21/2021 11:15:00 PM 23.99 75.182 0.666 8.24 3.79 6.79
8/21/2021 11:30:00 PM 23.97 75.146 0.669 8.24 5 6.78
8/21/2021 11:45:00 PM 23.93 75.074 0.671 8.28 4.28 6.76
8/22/2021 12:00:00 AM 23.9 75.02 0.673 8.28 5.27 6.75
8/22/2021 12:15:00 AM 23.86 74.948 0.676 8.29 5.15 6.73
8/22/2021 12:30:00 AM 23.83 74.894 0.678 8.3 7.15 6.73
8/22/2021 12:45:00 AM 23.8 74.84 0.681 8.26 3.93 6.72
8/22/2021 1:00:00 AM 23.76 74.768 0.683 8.26 4.05 6.72
8/22/2021 1:15:00 AM 23.73 74.714 0.685 8.24 8.31 6.71
8/22/2021 1:30:00 AM 23.7 74.66 0.686 8.28 6.39 6.7
8/22/2021 1:45:00 AM 23.66 74.588 0.687 8.27 4.72 6.74
8/22/2021 2:00:00 AM 23.62 74.516 0.689 8.28 3.73 6.73
8/22/2021 2:15:00 AM 23.58 74.444 0.691 8.29 4.81 6.71
8/22/2021 2:30:00 AM 23.55 74.39 0.693 8.29 4.49 6.72
8/22/2021 2:45:00 AM 23.51 74.318 0.695 8.27 3.96 6.73
8/22/2021 3:00:00 AM 23.47 74.246 0.697 8.27 3.71 6.73
8/22/2021 3:15:00 AM 23.43 74.174 0.696 8.26 4.32 6.73
8/22/2021 3:30:00 AM 23.4 74.12 0.696 8.27 4.77 6.72
8/22/2021 3:45:00 AM 23.36 74.048 0.7 8.27 5.46 6.73
8/22/2021 4:00:00 AM 23.32 73.976 0.702 8.27 7.55 6.7
8/22/2021 4:15:00 AM 23.28 73.904 0.704 8.27 4.87 6.72
8/22/2021 4:30:00 AM 23.24 73.832 0.705 8.27 7.15 6.7
8/22/2021 4:45:00 AM 23.21 73.778 0.707 8.28 5.66 6.72
8/22/2021 5:00:00 AM 23.17 73.706 0.709 8.22 4.85 6.71
8/22/2021 5:15:00 AM 23.14 73.652 0.71 8.26 6.38 6.74
8/22/2021 5:30:00 AM 23.1 73.58 0.711 8.27 4.33 6.74
8/22/2021 5:45:00 AM 23.07 73.526 0.713 8.26 4.83 6.76
8/22/2021 6:00:00 AM 23.04 73.472 0.714 8.27 5.93 6.77
8/22/2021 6:15:00 AM 23.01 73.418 0.715 8.26 5.65 6.78
8/22/2021 6:30:00 AM 22.98 73.364 0.717 8.26 4.7 6.78
8/22/2021 6:45:00 AM 22.95 73.31 0.718 8.28 3.76 6.8
8/22/2021 7:00:00 AM 22.91 73.238 0.719 8.25 4.83 6.81
8/22/2021 7:15:00 AM 22.88 73.184 0.72 8.27 3.46 6.83
8/22/2021 7:30:00 AM 22.85 73.13 0.721 8.27 2.65 6.85
8/22/2021 7:45:00 AM 22.81 73.058 0.721 8.27 5.92 6.85
8/22/2021 8:00:00 AM 22.78 73.004 0.723 8.25 3.32 6.9
8/22/2021 8:15:00 AM 22.69 72.842 0.702 8.24 21.69 7.14
8/22/2021 8:30:00 AM 22.57 72.626 0.654 8.27 59.66 7.36
8/22/2021 8:45:00 AM 22.22 71.996 0.371 8.25 330.6 7.61
8/22/2021 9:00:00 AM 22.43 72.374 0.464 8.18 99.23 7.37
8/22/2021 9:15:00 AM 22.47 72.446 0.492 8.19 57.38 7.32
8/22/2021 9:30:00 AM 22.52 72.536 0.509 8.21 37.23 7.35
8/22/2021 9:45:00 AM 22.53 72.554 0.495 8.22 63.47 7.43
8/22/2021 10:00:00 AM 22.52 72.536 0.535 8.21 52.5 7.43
8/22/2021 10:15:00 AM 22.53 72.554 0.558 8.22 43.9 7.4
8/22/2021 10:30:00 AM 22.48 72.464 0.579 8.21 53.83 7.36
8/22/2021 10:45:00 AM 22.35 72.23 0.581 8.22 51.8 7.34
8/22/2021 11:00:00 AM 22.21 71.978 0.573 8.21 97.29 7.29
8/22/2021 11:15:00 AM 22.16 71.888 0.55 8.2 128.6 7.25
8/22/2021 11:30:00 AM 22.16 71.888 0.516 8.19 127.1 7.19
8/22/2021 11:45:00 AM 22.16 71.888 0.479 8.17 137.2 7.16
8/22/2021 12:00:00 PM 22.15 71.87 0.455 8.14 131 7.13
8/22/2021 12:15:00 PM 22.19 71.942 0.446 8.12 109.5 7.13
8/22/2021 12:30:00 PM 22.28 72.104 0.439 8.07 96.12 7.13
8/22/2021 12:45:00 PM 22.38 72.284 0.436 8.09 81.15 7.09
8/22/2021 1:00:00 PM 22.48 72.464 0.434 7.99 62.17 7.11
8/22/2021 1:15:00 PM 22.58 72.644 0.437 8.07 55.35 7.13
8/22/2021 1:30:00 PM 22.67 72.806 0.444 8.07 46.08 7.11
8/22/2021 1:45:00 PM 22.73 72.914 0.455 8.04 46.12 7.09
8/22/2021 2:00:00 PM 22.81 73.058 0.472 8.07 43.14 7.18
8/22/2021 2:15:00 PM 22.86 73.148 0.489 8.08 36.55 7.13
8/22/2021 2:30:00 PM 22.91 73.238 0.509 8.09 35.24 7.23
8/22/2021 2:45:00 PM 22.95 73.31 0.527 8.11 34.89 7.26
8/22/2021 3:00:00 PM 22.98 73.364 0.548 8.11 37.26 7.3
8/22/2021 3:15:00 PM 23 73.4 0.568 8.15 32.9 7.32
8/22/2021 3:30:00 PM 23.02 73.436 0.589 8.17 31.92 7.35
8/22/2021 3:45:00 PM 23.05 73.49 0.611 8.17 29.1 7.37
8/22/2021 4:00:00 PM 23.08 73.544 0.63 8.19 27.37 7.37
8/22/2021 4:15:00 PM 23.08 73.544 0.646 8.21 24.32 7.4
8/22/2021 4:30:00 PM 23.07 73.526 0.66 8.22 25.6 7.4
8/22/2021 4:45:00 PM 23.05 73.49 0.671 8.23 25.45 7.38
8/22/2021 5:00:00 PM 23.03 73.454 0.681 8.23 27.93 7.37
8/22/2021 5:15:00 PM 23.01 73.418 0.688 8.24 28.25 7.36
8/22/2021 5:30:00 PM 22.98 73.364 0.695 8.25 22.41 7.38
8/22/2021 5:45:00 PM 22.94 73.292 0.699 8.25 26.63 7.38
8/22/2021 6:00:00 PM 22.91 73.238 0.701 8.25 20.69 7.38
8/22/2021 6:15:00 PM 22.87 73.166 0.703 8.27 19.79 7.38
8/22/2021 6:30:00 PM 22.83 73.094 0.704 8.26 22.93 7.39
8/22/2021 6:45:00 PM 22.79 73.022 0.706 8.26 23.2 7.39
8/22/2021 7:00:00 PM 22.75 72.95 0.708 8.26 24.16 7.38
8/22/2021 7:15:00 PM 22.71 72.878 0.712 8.26 21.76 7.38
8/22/2021 7:30:00 PM 22.67 72.806 0.716 8.26 23.09 7.4
8/22/2021 7:45:00 PM 22.64 72.752 0.72 8.26 21.21 7.4
8/22/2021 8:00:00 PM 22.6 72.68 0.725 8.26 20.22 7.39
8/22/2021 8:15:00 PM 22.58 72.644 0.729 8.27 19.29 7.36
8/22/2021 8:30:00 PM 22.55 72.59 0.733 8.27 19.67 7.37
8/22/2021 8:45:00 PM 22.53 72.554 0.737 8.27 23.59 7.34
8/22/2021 9:00:00 PM 22.51 72.518 0.741 8.26 18.82 7.34
8/22/2021 9:15:00 PM 22.49 72.482 0.745 8.27 19.14 7.33
8/22/2021 9:30:00 PM 22.46 72.42799 0.748 8.26 19.45 7.29
8/22/2021 9:45:00 PM 22.44 72.392 0.751 8.26 19.2 7.29
8/22/2021 10:00:00 PM 22.41 72.338 0.753 8.25 18.36 7.23
8/22/2021 10:15:00 PM 22.39 72.302 0.755 8.25 20.65 7.26
8/22/2021 10:30:00 PM 22.37 72.266 0.758 8.25 20.72 7.26
8/22/2021 10:45:00 PM 22.34 72.212 0.76 8.26 35.04 7.27
8/22/2021 11:00:00 PM 22.32 72.176 0.762 8.26 19.49 7.24
8/22/2021 11:15:00 PM 22.3 72.14 0.764 8.26 20.5 7.31
8/22/2021 11:30:00 PM 22.28 72.104 0.766 8.28 19.12 7.34
8/22/2021 11:45:00 PM 22.25 72.05 0.767 8.28 21.09 7.38
8/23/2021 12:00:00 AM 22.21 71.978 0.769 8.28 43.62 7.4
8/23/2021 12:15:00 AM 22.16 71.888 0.772 8.29 61.72 7.48
8/23/2021 12:30:00 AM 22.11 71.798 0.784 8.3 90.35 7.51
8/23/2021 12:45:00 AM 22.06 71.708 0.79 8.28 88.44 7.56
8/23/2021 1:00:00 AM 22.04 71.672 0.803 8.28 108.4 7.59
8/23/2021 1:15:00 AM 22.05 71.69 0.831 8.28 109.9 7.63
8/23/2021 1:30:00 AM 22.08 71.744 0.854 8.28 109.7 7.67
8/23/2021 1:45:00 AM 22.09 71.762 0.849 8.26 101.7 7.7
8/23/2021 2:00:00 AM 22.07 71.726 0.802 8.25 105.1 7.69
8/23/2021 2:15:00 AM 22.04 71.672 0.73 8.24 105.6 7.69
8/23/2021 2:30:00 AM 21.99 71.582 0.648 8.22 100.3 7.68
8/23/2021 2:45:00 AM 21.95 71.51 0.578 8.2 102.4 7.7
8/23/2021 3:00:00 AM 21.92 71.456 0.518 8.16 113.9 7.72
8/23/2021 3:15:00 AM 21.9 71.42 0.472 8.13 123.2 7.74
8/23/2021 3:30:00 AM 21.91 71.438 0.451 8.08 115.5 7.74
8/23/2021 3:45:00 AM 21.92 71.456 0.444 7.97 107.2 7.71
8/23/2021 4:00:00 AM 21.94 71.492 0.428 7.8 91.42 7.72
8/23/2021 4:15:00 AM 21.96 71.528 0.429 7.84 102.5 7.69
8/23/2021 4:30:00 AM 21.96 71.528 0.421 7.81 105.3 7.68
8/23/2021 4:45:00 AM 21.96 71.528 0.407 7.84 101.2 7.67
8/23/2021 5:00:00 AM 21.96 71.528 0.39 7.85 106.4 7.64
8/23/2021 5:15:00 AM 21.99 71.582 0.376 7.92 120.3 7.57
8/23/2021 5:30:00 AM 22.03 71.654 0.364 7.99 136.8 7.55
8/23/2021 5:45:00 AM 22.07 71.726 0.352 7.97 138.6 7.54
8/23/2021 6:00:00 AM 22.1 71.78 0.336 7.98 136.9 7.54
8/23/2021 6:15:00 AM 22.13 71.834 0.324 7.96 125.6 7.53
8/23/2021 6:30:00 AM 22.16 71.888 0.312 7.95 121.3 7.51
8/23/2021 6:45:00 AM 22.19 71.942 0.302 7.94 109.7 7.49
8/23/2021 7:00:00 AM 22.21 71.978 0.295 7.92 93.72 7.48
8/23/2021 7:15:00 AM 22.23 72.014 0.29 7.92 99.08 7.46
8/23/2021 7:30:00 AM 22.24 72.032 0.287 7.9 89.08 7.43
8/23/2021 7:45:00 AM 22.24 72.032 0.285 7.88 88.21 7.42
8/23/2021 8:00:00 AM 22.24 72.032 0.283 7.87 83.68 7.4
8/23/2021 8:15:00 AM 22.25 72.05 0.282 7.86 87.31 7.38
8/23/2021 8:30:00 AM 22.26 72.068 0.281 7.87 74.54 7.38
8/23/2021 8:45:00 AM 22.27 72.086 0.281 7.85 71.12 7.38
8/23/2021 9:00:00 AM 22.28 72.104 0.281 7.85 71.33 7.36
8/23/2021 9:15:00 AM 22.29 72.122 0.281 7.83 68.06 7.37
8/23/2021 9:30:00 AM 22.3 72.14 0.281 7.85 68.53 7.36
8/23/2021 9:45:00 AM 22.32 72.176 0.282 7.84 58.85 7.36
8/23/2021 10:00:00 AM 22.34 72.212 0.283 7.84 58.34 7.36
8/23/2021 10:15:00 AM 22.38 72.284 0.285 7.84 57.07 7.37
8/23/2021 10:30:00 AM 22.45 72.41 0.288 7.84 60.05 7.38
8/23/2021 10:45:00 AM 22.54 72.57201 0.29 7.83 55.81 7.41
8/23/2021 11:00:00 AM 22.63 72.734 0.293 7.85 51.39 7.41
8/23/2021 11:15:00 AM 22.71 72.878 0.296 7.85 53.6 7.41
8/23/2021 11:30:00 AM 22.79 73.022 0.299 7.85 50.67 7.41
8/23/2021 11:45:00 AM 22.89 73.202 0.302 7.84 49.45 7.43
8/23/2021 12:00:00 PM 22.91 73.238 0.305 7.85 54.07 7.42
8/23/2021 12:15:00 PM 22.96 73.328 0.308 7.86 48.12 7.4
8/23/2021 12:30:00 PM 23.09 73.562 0.31 7.86 48.03 7.44
8/23/2021 12:45:00 PM 23.15 73.67 0.312 7.85 50.22 7.44
8/23/2021 1:00:00 PM 23.2 73.76 0.315 7.86 45.36 7.42
8/23/2021 1:15:00 PM 23.31 73.958 0.318 7.86 48.63 7.44
8/23/2021 1:30:00 PM 23.41 74.138 0.32 7.89 47.61 7.45
8/23/2021 1:45:00 PM 23.49 74.282 0.323 7.9 45.74 7.45
8/23/2021 2:00:00 PM 23.49 74.282 0.325 7.88 43.92 7.42
8/23/2021 2:15:00 PM 23.57 74.426 0.327 7.89 45.72 7.42
8/23/2021 2:30:00 PM 23.6 74.48 0.329 7.91 44.63 7.43
8/23/2021 2:45:00 PM 23.65 74.57 0.331 7.92 45.08 7.41
8/23/2021 3:00:00 PM 23.66 74.588 0.333 7.93 43.38 7.38
8/23/2021 3:15:00 PM 23.65 74.57 0.334 7.93 48.34 7.37
8/23/2021 3:30:00 PM 23.7 74.66 0.336 7.93 45.36 7.34
8/23/2021 3:45:00 PM 23.75 74.75 0.337 7.95 45.87 7.36
8/23/2021 4:00:00 PM 23.72 74.696 0.339 7.95 47.43 7.36
8/23/2021 4:15:00 PM 23.73 74.714 0.34 7.95 43.54 7.35
8/23/2021 4:30:00 PM 23.78 74.804 0.342 7.96 44.51 7.34
8/23/2021 4:45:00 PM 23.8 74.84 0.344 7.96 44.97 7.35
8/23/2021 5:00:00 PM 23.81 74.858 0.347 7.97 45.35 7.35
8/23/2021 5:15:00 PM 23.76 74.768 0.349 7.97 46.19 7.33
8/23/2021 5:30:00 PM 23.79 74.82201 0.352 7.97 47.22 7.35
8/23/2021 5:45:00 PM 23.76 74.768 0.355 7.98 45.86 7.34
8/23/2021 6:00:00 PM 23.73 74.714 0.358 7.95 43.6 7.3
8/23/2021 6:15:00 PM 23.69 74.642 0.361 7.81 45.57 7.29
8/23/2021 6:30:00 PM 23.65 74.57 0.363 7.78 45.84 7.29
8/23/2021 6:45:00 PM 23.63 74.534 0.361 7.8 58.52 7.37
8/23/2021 7:00:00 PM 23.59 74.462 0.367 7.74 55.38 7.34
8/23/2021 7:15:00 PM 23.58 74.444 0.361 7.82 66.15 7.33
8/23/2021 7:30:00 PM 23.52 74.336 0.366 7.84 71 7.32
8/23/2021 7:45:00 PM 23.45 74.21 0.374 7.88 64.67 7.3
8/23/2021 8:00:00 PM 23.41 74.138 0.38 7.86 58.74 7.3
8/23/2021 8:15:00 PM 23.42 74.156 0.385 7.89 64.74 7.31
8/23/2021 8:30:00 PM 23.44 74.192 0.391 7.92 70.78 7.29
8/23/2021 8:45:00 PM 23.46 74.228 0.4 7.94 72.97 7.27
8/23/2021 9:00:00 PM 23.51 74.318 0.399 7.98 80.99 7.23
8/23/2021 9:15:00 PM 23.58 74.444 0.396 7.94 90.42 7.18
8/23/2021 9:30:00 PM 23.61 74.498 0.396 7.91 99.44 7.15
8/23/2021 9:45:00 PM 23.62 74.516 0.396 7.92 101.9 7.13
8/23/2021 10:00:00 PM 23.63 74.534 0.39 7.93 100.4 7.12
8/23/2021 10:15:00 PM 23.66 74.588 0.383 7.93 97.61 7.1
8/23/2021 10:30:00 PM 23.7 74.66 0.375 7.92 103.4 7.07
8/23/2021 10:45:00 PM 23.72 74.696 0.371 7.91 101.6 7.04
8/23/2021 11:00:00 PM 23.72 74.696 0.37 7.91 101.3 7.01
8/23/2021 11:15:00 PM 23.71 74.67799 0.372 7.9 94.6 6.98
8/23/2021 11:30:00 PM 23.72 74.696 0.37 7.92 89.62 7
8/23/2021 11:45:00 PM 23.74 74.732 0.367 7.9 88.51 6.96
8/24/2021 12:00:00 AM 23.76 74.768 0.364 7.91 82.62 6.92
8/24/2021 12:15:00 AM 23.78 74.804 0.362 7.91 81.23 6.91
8/24/2021 12:30:00 AM 23.79 74.82201 0.364 7.9 81.67 6.89
8/24/2021 12:45:00 AM 23.78 74.804 0.367 7.89 85.13 6.87
8/24/2021 1:00:00 AM 23.77 74.786 0.371 7.88 84.88 6.88
8/24/2021 1:15:00 AM 23.75 74.75 0.374 7.88 82.2 6.87
8/24/2021 1:30:00 AM 23.74 74.732 0.377 7.89 86.05 6.87
8/24/2021 1:45:00 AM 23.72 74.696 0.378 7.89 86.82 6.86
8/24/2021 2:00:00 AM 23.72 74.696 0.379 7.9 87.7 6.85
8/24/2021 2:15:00 AM 23.71 74.67799 0.38 7.91 92.02 6.82
8/24/2021 2:30:00 AM 23.7 74.66 0.382 7.88 88.99 6.82
8/24/2021 2:45:00 AM 23.68 74.624 0.385 7.89 93.14 6.83
8/24/2021 3:00:00 AM 23.66 74.588 0.39 7.9 95.26 6.83
8/24/2021 3:15:00 AM 23.64 74.552 0.395 7.9 95.52 6.86
8/24/2021 3:30:00 AM 23.61 74.498 0.401 7.9 96.79 6.87
8/24/2021 3:45:00 AM 23.58 74.444 0.407 7.91 98.66 6.91
8/24/2021 4:00:00 AM 23.54 74.372 0.415 7.92 95.84 6.92
8/24/2021 4:15:00 AM 23.5 74.3 0.422 7.92 92.95 6.93
8/24/2021 4:30:00 AM 23.46 74.228 0.429 7.92 91.58 6.95
8/24/2021 4:45:00 AM 23.41 74.138 0.435 7.93 92.92 6.97
8/24/2021 5:00:00 AM 23.36 74.048 0.441 7.93 92.63 7.01
8/24/2021 5:15:00 AM 23.3 73.94 0.449 7.94 88.44 7.02
8/24/2021 5:30:00 AM 23.25 73.85 0.455 7.95 87.37 7.05
8/24/2021 5:45:00 AM 23.2 73.76 0.458 7.95 90.14 7.06
8/24/2021 6:00:00 AM 23.15 73.67 0.459 7.96 91.76 7.1
8/24/2021 6:15:00 AM 23.11 73.598 0.46 7.95 88.19 7.12
8/24/2021 6:30:00 AM 23.07 73.526 0.456 7.95 91.79 7.1
8/24/2021 6:45:00 AM 23.03 73.454 0.455 7.97 86 7.12
8/24/2021 7:00:00 AM 22.99 73.382 0.455 7.97 85.52 7.13
8/24/2021 7:15:00 AM 22.96 73.328 0.455 7.96 87.8 7.14
8/24/2021 7:30:00 AM 22.92 73.256 0.455 7.97 89.73 7.13
8/24/2021 7:45:00 AM 22.89 73.202 0.456 7.97 88.74 7.14
8/24/2021 8:00:00 AM 22.85 73.13 0.459 7.98 89.51 7.17
8/24/2021 8:15:00 AM 22.82 73.076 0.461 7.98 91.33 7.14
8/24/2021 8:30:00 AM 22.79 73.022 0.464 7.98 92.75 7.18
8/24/2021 8:45:00 AM 22.77 72.986 0.471 7.99 93.07 7.19
8/24/2021 9:00:00 AM 22.75 72.95 0.474 7.99 97.24 7.22
8/24/2021 9:15:00 AM 22.74 72.932 0.477 7.99 100 7.23
8/24/2021 9:30:00 AM 22.74 72.932 0.48 8 98.26 7.23
8/24/2021 9:45:00 AM 22.76 72.968 0.483 8 99.43 7.26
8/24/2021 10:00:00 AM 22.78 73.004 0.485 8.02 100.3 7.29
8/24/2021 10:15:00 AM 22.82 73.076 0.487 8.02 49.37 7.32
8/24/2021 10:30:00 AM 22.89 73.202 0.489 8.03 54.5 7.35
8/24/2021 10:45:00 AM 22.99 73.382 0.491 8.04 51.4 7.41
8/24/2021 11:00:00 AM 23.1 73.58 0.494 8.05 47.43 7.44
8/24/2021 11:15:00 AM 23.19 73.742 0.496 8.06 47.92 7.48
8/24/2021 11:30:00 AM 23.28 73.904 0.497 8.08 53.05 7.5
8/24/2021 11:45:00 AM 23.38 74.084 0.499 8.09 59.87 7.54
8/24/2021 12:00:00 PM 23.48 74.264 0.5 8.09 61.23 7.57
8/24/2021 12:15:00 PM 23.59 74.462 0.501 8.11 61.17 7.59
8/24/2021 12:30:00 PM 23.71 74.67799 0.502 8.12 64.41 7.6
8/24/2021 12:45:00 PM 23.82 74.876 0.503 8.12 73.54 7.62
8/24/2021 1:00:00 PM 23.91 75.038 0.503 8.13 81.91 7.6
8/24/2021 1:15:00 PM 24.01 75.218 0.503 8.14 59.69 7.63
8/24/2021 1:30:00 PM 24.08 75.344 0.503 8.14 52.12 7.58
8/24/2021 1:45:00 PM 24.17 75.506 0.503 8.14 54.26 7.56
8/24/2021 2:00:00 PM 24.25 75.65 0.501 8.14 50.75 7.56
8/24/2021 2:15:00 PM 24.3 75.74 0.5 8.08 62.41 7.52
8/24/2021 2:30:00 PM 24.36 75.848 0.499 8.13 59.11 7.49
8/24/2021 2:45:00 PM 24.42 75.956 0.497 8.13 60.69 7.48
8/24/2021 3:00:00 PM 24.48 76.064 0.494 8.14 40.63 7.43
8/24/2021 3:15:00 PM 24.54 76.172 0.492 8.13 30.45 7.43
8/24/2021 3:30:00 PM 24.58 76.244 0.489 8.14 28.2 7.41
8/24/2021 3:45:00 PM 24.61 76.298 0.488 8.15 29.97 7.38
8/24/2021 4:00:00 PM 24.64 76.352 0.486 8.14 31.12 7.34
8/24/2021 4:15:00 PM 24.64 76.352 0.486 8.14 29.69 7.28
8/24/2021 4:30:00 PM 24.63 76.334 0.484 8.14 30.53 7.24
8/24/2021 4:45:00 PM 24.62 76.316 0.483 8.14 30.25 7.21
8/24/2021 5:00:00 PM 24.62 76.316 0.481 8.14 100.3 7.19
8/24/2021 5:15:00 PM 24.62 76.316 0.48 8.13 29.96 7.14
8/24/2021 5:30:00 PM 24.62 76.316 0.479 8.13 28.68 7.11
8/24/2021 5:45:00 PM 24.62 76.316 0.478 8.13 37.36 7.05
8/24/2021 6:00:00 PM 24.62 76.316 0.477 8.12 25.33 7.03
8/24/2021 6:15:00 PM 24.63 76.334 0.477 8.12 29.83 7.01
8/24/2021 6:30:00 PM 24.63 76.334 0.477 8.11 33.61 6.96
8/24/2021 6:45:00 PM 24.62 76.316 0.476 8.12 24.94 6.97
8/24/2021 7:00:00 PM 24.6 76.28 0.477 8.11 19.09 6.94
8/24/2021 7:15:00 PM 24.59 76.262 0.477 8.1 21.86 6.93
8/24/2021 7:30:00 PM 24.56 76.208 0.477 8.12 17.92 6.89
8/24/2021 7:45:00 PM 24.52 76.136 0.478 8.11 18.42 6.89
8/24/2021 8:00:00 PM 24.48 76.064 0.479 8.1 21.84 6.86
8/24/2021 8:15:00 PM 24.44 75.992 0.48 8.11 18.39 6.81
8/24/2021 8:30:00 PM 24.4 75.92 0.481 8.11 17.73 6.8
8/24/2021 8:45:00 PM 24.35 75.83 0.483 8.11 18.78 6.78
8/24/2021 9:00:00 PM 24.3 75.74 0.484 8.11 18.22 6.76
8/24/2021 9:15:00 PM 24.25 75.65 0.486 8.02 19.23 6.77
8/24/2021 9:30:00 PM 24.19 75.542 0.488 8.06 17.44 6.75
8/24/2021 9:45:00 PM 24.13 75.434 0.49 8.08 15.62 6.72
8/24/2021 10:00:00 PM 24.08 75.344 0.491 8.06 16.37 6.7
8/24/2021 10:15:00 PM 24.02 75.236 0.493 8.05 12.31 6.7
8/24/2021 10:30:00 PM 23.96 75.128 0.495 8.07 13.2 6.71
8/24/2021 10:45:00 PM 23.91 75.038 0.498 8.06 12.62 6.7
8/24/2021 11:00:00 PM 23.85 74.93 0.5 8.06 17.44 6.7
8/24/2021 11:15:00 PM 23.8 74.84 0.502 8.08 24.63 6.7
8/24/2021 11:30:00 PM 23.74 74.732 0.504 8.08 13.47 6.69
8/24/2021 11:45:00 PM 23.69 74.642 0.506 8.08 13.04 6.67
8/25/2021 12:00:00 AM 23.64 74.552 0.509 8.07 14.25 6.68
8/25/2021 12:15:00 AM 23.59 74.462 0.511 8.08 12.53 6.67
8/25/2021 12:30:00 AM 23.54 74.372 0.513 8.08 12.03 6.7
8/25/2021 12:45:00 AM 23.48 74.264 0.514 8.07 13.26 6.67
8/25/2021 1:00:00 AM 23.43 74.174 0.516 8.06 13.3 6.7
8/25/2021 1:15:00 AM 23.38 74.084 0.518 8.07 13.53 6.7
8/25/2021 1:30:00 AM 23.33 73.994 0.52 8.07 13.56 6.7
8/25/2021 1:45:00 AM 23.28 73.904 0.521 8.08 15.04 6.73
8/25/2021 2:00:00 AM 23.23 73.814 0.522 8.08 12.24 6.72
8/25/2021 2:15:00 AM 23.18 73.724 0.524 8.06 12.63 6.75
8/25/2021 2:30:00 AM 23.13 73.634 0.525 8.06 16.81 6.76
8/25/2021 2:45:00 AM 23.09 73.562 0.527 8.06 14.23 6.77
8/25/2021 3:00:00 AM 23.04 73.472 0.528 8.07 16.27 6.77
8/25/2021 3:15:00 AM 22.99 73.382 0.529 8.06 13.8 6.77
8/25/2021 3:30:00 AM 22.94 73.292 0.53 8.06 14.29 6.79
8/25/2021 3:45:00 AM 22.9 73.22 0.531 8.06 14.39 6.79
8/25/2021 4:00:00 AM 22.85 73.13 0.532 8.06 15.02 6.77
8/25/2021 4:15:00 AM 22.81 73.058 0.532 8.06 14.13 6.81
8/25/2021 4:30:00 AM 22.76 72.968 0.533 8.06 16.97 6.82
8/25/2021 4:45:00 AM 22.72 72.896 0.534 8.05 14.17 6.82
8/25/2021 5:00:00 AM 22.68 72.824 0.535 8.06 14.44 6.83
8/25/2021 5:15:00 AM 22.64 72.752 0.535 8.06 14.06 6.83
8/25/2021 5:30:00 AM 22.6 72.68 0.535 8.06 14.37 6.85
8/25/2021 5:45:00 AM 22.57 72.626 0.536 8.06 15.19 6.86
8/25/2021 6:00:00 AM 22.53 72.554 0.537 8.06 17.55 6.84
8/25/2021 6:15:00 AM 22.49 72.482 0.54 8.07 16.31 6.8
8/25/2021 6:30:00 AM 22.46 72.42799 0.54 8.07 21.89 6.82
8/25/2021 6:45:00 AM 22.43 72.374 0.539 8.07 46.85 6.85
8/25/2021 7:00:00 AM 22.4 72.32 0.54 8.08 14.37 6.93
8/25/2021 7:15:00 AM 22.38 72.284 0.541 8.08 14.12 6.92
8/25/2021 7:30:00 AM 22.36 72.248 0.541 8.08 13.9 6.96
8/25/2021 7:45:00 AM 22.35 72.23 0.542 8.09 20.58 6.99
8/25/2021 8:00:00 AM 22.33 72.194 0.542 8.09 12.04 6.99
8/25/2021 8:15:00 AM 22.33 72.194 0.543 8.08 12.62 7.01
8/25/2021 8:30:00 AM 22.32 72.176 0.543 8.06 13.28 7.03
8/25/2021 8:45:00 AM 22.33 72.194 0.544 8.1 19.38 7.05
8/25/2021 9:00:00 AM 22.33 72.194 0.545 8.1 12.71 7.07
8/25/2021 9:15:00 AM 22.35 72.23 0.545 8.11 11.36 7.08
8/25/2021 9:30:00 AM 22.37 72.266 0.547 8.11 11.47 7.13
8/25/2021 9:45:00 AM 22.41 72.338 0.547 8.11 12.59 7.14
8/25/2021 10:00:00 AM 22.46 72.42799 0.549 8.12 10.72 7.19
8/25/2021 10:15:00 AM 22.53 72.554 0.55 8.1 11.6 7.26
8/25/2021 10:30:00 AM 22.62 72.716 0.551 8.13 9.92 7.33
8/25/2021 10:45:00 AM 22.77 72.986 0.553 8.13 10.18 7.4
8/25/2021 11:00:00 AM 22.96 73.328 0.555 8.13 10.66 7.48
8/25/2021 11:15:00 AM 23.1 73.58 0.555 8.16 10 7.52
8/25/2021 11:30:00 AM 23.24 73.832 0.557 8.18 9.06 7.61
8/25/2021 11:45:00 AM 23.39 74.102 0.559 8.19 9.86 7.65
8/25/2021 12:00:00 PM 23.53 74.354 0.562 8.2 8.37 7.71
8/25/2021 12:15:00 PM 23.68 74.624 0.564 8.21 8.89 7.76
8/25/2021 12:30:00 PM 23.85 74.93 0.567 8.23 9.52 7.81
8/25/2021 12:45:00 PM 23.98 75.164 0.569 8.24 9.11 7.84
8/25/2021 1:00:00 PM 24.08 75.344 0.571 8.24 12.16 7.86
8/25/2021 1:15:00 PM 24.23 75.614 0.574 8.26 8.21 7.86
8/25/2021 1:30:00 PM 24.33 75.794 0.577 8.26 8.63 7.86
8/25/2021 1:45:00 PM 24.43 75.974 0.579 8.28 7.3 7.85
8/25/2021 2:00:00 PM 24.53 76.154 0.582 8.28 9 7.87
8/25/2021 2:15:00 PM 24.63 76.334 0.585 8.29 8.26 7.85
8/25/2021 2:30:00 PM 24.69 76.442 0.588 8.29 6.74 7.85
8/25/2021 2:45:00 PM 24.75 76.55 0.591 8.31 6.59 7.84
8/25/2021 3:00:00 PM 24.81 76.658 0.593 8.31 6.83 7.8
8/25/2021 3:15:00 PM 24.86 76.748 0.596 8.31 7.96 7.81
8/25/2021 3:30:00 PM 24.9 76.82 0.599 8.32 6.8 7.75
8/25/2021 3:45:00 PM 24.93 76.874 0.602 8.32 7.85 7.73
8/25/2021 4:00:00 PM 24.96 76.92799 0.605 8.33 6.45 7.7
8/25/2021 4:15:00 PM 24.96 76.92799 0.608 8.33 6.94 7.67
8/25/2021 4:30:00 PM 24.94 76.892 0.61 8.33 6.49 7.64
8/25/2021 4:45:00 PM 24.94 76.892 0.612 8.33 5.8 7.59
8/25/2021 5:00:00 PM 24.95 76.91 0.615 8.34 6.38 7.56
8/25/2021 5:15:00 PM 24.95 76.91 0.617 8.35 6.03 7.5
8/25/2021 5:30:00 PM 24.95 76.91 0.62 8.34 6.36 7.45
8/25/2021 5:45:00 PM 24.95 76.91 0.622 8.35 7.13 7.42
8/25/2021 6:00:00 PM 24.95 76.91 0.624 8.35 6.27 7.36
8/25/2021 6:15:00 PM 24.96 76.92799 0.626 8.35 6.72 7.32
8/25/2021 6:30:00 PM 24.96 76.92799 0.628 8.33 7.39 7.28
8/25/2021 6:45:00 PM 24.97 76.946 0.63 8.33 6.82 7.26
8/25/2021 7:00:00 PM 24.96 76.92799 0.632 8.34 5.45 7.24
8/25/2021 7:15:00 PM 24.95 76.91 0.635 8.34 6.18 7.2
8/25/2021 7:30:00 PM 24.93 76.874 0.637 8.34 6.32 7.18
8/25/2021 7:45:00 PM 24.9 76.82 0.639 8.34 5.56 7.14
8/25/2021 8:00:00 PM 24.87 76.766 0.641 8.34 6.72 7.1
8/25/2021 8:15:00 PM 24.82 76.676 0.643 8.34 8.04 7.08
8/25/2021 8:30:00 PM 24.78 76.604 0.645 8.34 7.7 7.05
8/25/2021 8:45:00 PM 24.74 76.532 0.648 8.34 6.1 7.03
8/25/2021 9:00:00 PM 24.69 76.442 0.65 8.34 6.31 7.03
8/25/2021 9:15:00 PM 24.64 76.352 0.652 8.34 6.44 6.99
8/25/2021 9:30:00 PM 24.59 76.262 0.654 8.34 6.12 6.99
8/25/2021 9:45:00 PM 24.54 76.172 0.656 8.34 5.89 6.97
8/25/2021 10:00:00 PM 24.48 76.064 0.658 8.34 6.53 6.96
8/25/2021 10:15:00 PM 24.43 75.974 0.66 8.34 6.21 6.93
8/25/2021 10:30:00 PM 24.37 75.866 0.662 8.34 6.6 6.95
8/25/2021 10:45:00 PM 24.32 75.776 0.664 8.34 7.89 6.93
8/25/2021 11:00:00 PM 24.26 75.668 0.666 8.34 7.35 6.94
8/25/2021 11:15:00 PM 24.2 75.56 0.669 8.34 6.7 6.94
8/25/2021 11:30:00 PM 24.15 75.47 0.67 8.34 7.12 6.93
8/25/2021 11:45:00 PM 24.1 75.38 0.673 8.35 6.87 6.93
8/26/2021 12:00:00 AM 24.05 75.29 0.674 8.34 6.52 6.93
8/26/2021 12:15:00 AM 24.01 75.218 0.676 8.33 6.77 6.94
8/26/2021 12:30:00 AM 23.96 75.128 0.678 8.35 7.9 6.92
8/26/2021 12:45:00 AM 23.91 75.038 0.68 8.34 6.89 6.93
8/26/2021 1:00:00 AM 23.86 74.948 0.682 8.34 7.43 6.95
8/26/2021 1:15:00 AM 23.82 74.876 0.683 8.34 7.55 6.95
8/26/2021 1:30:00 AM 23.78 74.804 0.685 8.34 6.83 6.95
8/26/2021 1:45:00 AM 23.74 74.732 0.687 8.35 7.06 6.94
8/26/2021 2:00:00 AM 23.69 74.642 0.688 8.35 6.59 6.95
8/26/2021 2:15:00 AM 23.65 74.57 0.69 8.35 7.68 6.96
8/26/2021 2:30:00 AM 23.62 74.516 0.691 8.34 7.13 6.98
8/26/2021 2:45:00 AM 23.58 74.444 0.693 8.34 9.14 6.98
8/26/2021 3:00:00 AM 23.54 74.372 0.695 8.35 8.23 6.98
8/26/2021 3:15:00 AM 23.49 74.282 0.696 8.35 9.13 6.99
8/26/2021 3:30:00 AM 23.45 74.21 0.698 8.35 6.96 7.01
8/26/2021 3:45:00 AM 23.41 74.138 0.699 8.34 7.3 7.02
8/26/2021 4:00:00 AM 23.37 74.066 0.701 8.32 7.24 7.02
8/26/2021 4:15:00 AM 23.33 73.994 0.702 8.35 6.98 7.02
8/26/2021 4:30:00 AM 23.29 73.922 0.703 8.35 6.81 7.04
8/26/2021 4:45:00 AM 23.25 73.85 0.705 8.34 6.68 7.04
8/26/2021 5:00:00 AM 23.21 73.778 0.706 8.35 6.99 7.06
8/26/2021 5:15:00 AM 23.17 73.706 0.707 8.35 7.36 7.06
8/26/2021 5:30:00 AM 23.13 73.634 0.708 8.36 9.78 7.06
8/26/2021 5:45:00 AM 23.09 73.562 0.709 8.36 7.04 7.06
8/26/2021 6:00:00 AM 23.06 73.508 0.709 8.35 8.1 7.1
8/26/2021 6:15:00 AM 23.03 73.454 0.71 8.35 6.67 7.11
8/26/2021 6:30:00 AM 22.99 73.382 0.711 8.35 6.43 7.12
8/26/2021 6:45:00 AM 22.96 73.328 0.711 8.35 7.49 7.12
8/26/2021 7:00:00 AM 22.93 73.274 0.712 8.36 6.26 7.14
8/26/2021 7:15:00 AM 22.91 73.238 0.713 8.35 6.59 7.17
8/26/2021 7:30:00 AM 22.89 73.202 0.716 8.36 6.71 7.16
8/26/2021 7:45:00 AM 22.87 73.166 0.717 8.37 6.6 7.12
8/26/2021 8:00:00 AM 22.86 73.148 0.718 8.37 7.04 7.17
8/26/2021 8:15:00 AM 22.85 73.13 0.719 8.37 5.51 7.18
8/26/2021 8:30:00 AM 22.85 73.13 0.719 8.37 5.73 7.23
8/26/2021 8:45:00 AM 22.85 73.13 0.72 8.36 8.25 7.27
8/26/2021 9:00:00 AM 22.85 73.13 0.72 8.36 5.16 7.33
8/26/2021 9:15:00 AM 22.86 73.148 0.721 8.36 5.85 7.35
8/26/2021 9:30:00 AM 22.89 73.202 0.722 8.36 6.48 7.39
8/26/2021 9:45:00 AM 22.92 73.256 0.722 8.37 4.77 7.46
8/26/2021 10:00:00 AM 22.96 73.328 0.723 8.37 16 7.5
8/26/2021 10:15:00 AM 23.03 73.454 0.723 8.38 6.56 7.56
8/26/2021 10:30:00 AM 23.12 73.616 0.723 8.39 4.99 7.63
8/26/2021 10:45:00 AM 23.26 73.868 0.721 8.39 4.73 7.73
8/26/2021 11:00:00 AM 23.45 74.21 0.722 8.38 5.9 7.76
8/26/2021 11:15:00 AM 23.59 74.462 0.722 8.42 5.77 7.83
8/26/2021 11:30:00 AM 23.72 74.696 0.723 8.43 4.36 7.92
8/26/2021 11:45:00 AM 23.87 74.966 0.725 8.41 4.4 7.97
8/26/2021 12:00:00 PM 24.02 75.236 0.728 8.45 5.32 8.06
8/26/2021 12:15:00 PM 24.16 75.488 0.73 8.45 4.83 8.11
8/26/2021 12:30:00 PM 24.32 75.776 0.731 8.43 4.5 8.18
8/26/2021 12:45:00 PM 24.47 76.046 0.732 8.47 4.38 8.18
8/26/2021 1:00:00 PM 24.57 76.226 0.734 8.48 4.71 8.22
8/26/2021 1:15:00 PM 24.7 76.46 0.735 8.48 4.89 8.18
8/26/2021 1:30:00 PM 24.79 76.622 0.736 8.49 9.5 8.17
8/26/2021 1:45:00 PM 24.91 76.838 0.737 8.49 3.92 8.21
8/26/2021 2:00:00 PM 25.01 77.018 0.738 8.5 4.15 8.22
8/26/2021 2:15:00 PM 25.08 77.144 0.74 8.51 4.55 8.17
8/26/2021 2:30:00 PM 25.16 77.288 0.741 8.52 3.54 8.15
8/26/2021 2:45:00 PM 25.23 77.414 0.743 8.52 3.91 8.11
8/26/2021 3:00:00 PM 25.29 77.522 0.745 8.52 3.74 8.03
8/26/2021 3:15:00 PM 25.33 77.594 0.748 8.52 3.76 8.02
8/26/2021 3:30:00 PM 25.37 77.666 0.749 8.52 7.79 7.96
8/26/2021 3:45:00 PM 25.37 77.666 0.75 8.53 4.37 7.92
8/26/2021 4:00:00 PM 25.4 77.72 0.752 8.53 3.59 7.89
8/26/2021 4:15:00 PM 25.4 77.72 0.753 8.53 4.1 7.85
8/26/2021 4:30:00 PM 25.38 77.684 0.755 8.54 4.61 7.79
8/26/2021 4:45:00 PM 25.38 77.684 0.756 8.53 3.61 7.73
8/26/2021 5:00:00 PM 25.37 77.666 0.757 8.54 4.31 7.68
8/26/2021 5:15:00 PM 25.37 77.666 0.758 8.53 4.12 7.59
8/26/2021 5:30:00 PM 25.35 77.63 0.759 8.53 3.93 7.53
8/26/2021 5:45:00 PM 25.35 77.63 0.76 8.53 4.19 7.49
8/26/2021 6:00:00 PM 25.36 77.648 0.761 8.52 4.7 7.39
8/26/2021 6:15:00 PM 25.38 77.684 0.763 8.52 3.71 7.33
8/26/2021 6:30:00 PM 25.39 77.702 0.765 8.52 4.6 7.25
8/26/2021 6:45:00 PM 25.4 77.72 0.767 8.56 4.73 7.23
8/26/2021 7:00:00 PM 25.41 77.738 0.768 8.55 3.58 7.19
8/26/2021 7:15:00 PM 25.41 77.738 0.771 8.54 4.44 7.12
8/26/2021 7:30:00 PM 25.41 77.738 0.772 8.54 4.1 7.06
8/26/2021 7:45:00 PM 25.4 77.72 0.774 8.52 4.19 7.06
8/26/2021 8:00:00 PM 25.39 77.702 0.776 8.52 3.8 6.91
8/26/2021 8:15:00 PM 25.37 77.666 0.777 8.52 4.31 6.9
8/26/2021 8:30:00 PM 25.35 77.63 0.779 8.52 3.8 6.87
8/26/2021 8:45:00 PM 25.32 77.576 0.78 8.52 4.04 6.86
8/26/2021 9:00:00 PM 25.29 77.522 0.782 8.51 4.38 6.83
8/26/2021 9:15:00 PM 25.25 77.45 0.783 8.51 4.75 6.85
8/26/2021 9:30:00 PM 25.21 77.378 0.784 8.52 10.03 6.73
8/26/2021 9:45:00 PM 25.16 77.288 0.785 8.51 3.61 6.83
8/26/2021 10:00:00 PM 25.11 77.198 0.786 8.51 3.4 6.8
8/26/2021 10:15:00 PM 25.06 77.108 0.787 8.51 3.77 6.76
8/26/2021 10:30:00 PM 25.01 77.018 0.788 8.5 4.19 6.79
8/26/2021 10:45:00 PM 24.95 76.91 0.79 8.5 5.72 6.77
8/26/2021 11:00:00 PM 24.89 76.802 0.789 8.5 4.6 6.76
8/26/2021 11:15:00 PM 24.83 76.694 0.788 8.49 3.93 6.75
8/26/2021 11:30:00 PM 24.78 76.604 0.789 8.49 5.14 6.7
8/26/2021 11:45:00 PM 24.72 76.496 0.79 8.49 4.48 6.7
8/27/2021 12:00:00 AM 24.66 76.388 0.791 8.49 5.01 6.72
8/27/2021 12:15:00 AM 24.61 76.298 0.797 8.48 5.22 6.73
8/27/2021 12:30:00 AM 24.55 76.19 0.798 8.48 5.42 6.71
8/27/2021 12:45:00 AM 24.5 76.1 0.798 8.47 5.67 6.72
8/27/2021 1:00:00 AM 24.45 76.01 0.799 8.47 5.21 6.76
8/27/2021 1:15:00 AM 24.39 75.902 0.797 8.46 4.34 6.63
8/27/2021 1:30:00 AM 24.34 75.812 0.799 8.47 5.16 6.73
8/27/2021 1:45:00 AM 24.29 75.722 0.799 8.47 6.46 6.77
8/27/2021 2:00:00 AM 24.24 75.632 0.8 8.47 4.93 6.76
8/27/2021 2:15:00 AM 24.19 75.542 0.801 8.46 4.93 6.78
8/27/2021 2:30:00 AM 24.14 75.452 0.802 8.46 4.91 6.78
8/27/2021 2:45:00 AM 24.09 75.362 0.803 8.45 5.86 6.76
8/27/2021 3:00:00 AM 24.04 75.272 0.806 8.45 4.8 6.7
8/27/2021 3:15:00 AM 23.99 75.182 0.806 8.45 8.22 6.79
8/27/2021 3:30:00 AM 23.95 75.11 0.806 8.45 4.84 6.76
8/27/2021 3:45:00 AM 23.9 75.02 0.806 8.45 4.36 6.8
8/27/2021 4:00:00 AM 23.85 74.93 0.808 8.45 5.85 6.84
8/27/2021 4:15:00 AM 23.8 74.84 0.809 8.45 5.83 6.78
8/27/2021 4:30:00 AM 23.76 74.768 0.81 8.45 6.35 6.72
8/27/2021 4:45:00 AM 23.71 74.67799 0.81 8.45 4.82 6.77
8/27/2021 5:00:00 AM 23.66 74.588 0.811 8.45 5.1 6.77
8/27/2021 5:15:00 AM 23.62 74.516 0.81 8.45 4.13 6.8
8/27/2021 5:30:00 AM 23.58 74.444 0.81 8.44 4.87 6.79
8/27/2021 5:45:00 AM 23.53 74.354 0.809 8.44 5.55 6.85
8/27/2021 6:00:00 AM 23.49 74.282 0.81 8.44 4.78 6.94
8/27/2021 6:15:00 AM 23.45 74.21 0.809 8.44 5.53 7
8/27/2021 6:30:00 AM 23.41 74.138 0.809 8.44 6.16 7.03
8/27/2021 6:45:00 AM 23.37 74.066 0.808 8.44 6.14 6.9
8/27/2021 7:00:00 AM 23.34 74.012 0.807 8.44 4.51 6.88
8/27/2021 7:15:00 AM 23.31 73.958 0.807 8.44 5.75 6.91
8/27/2021 7:30:00 AM 23.29 73.922 0.805 8.44 7.87 6.77
8/27/2021 7:45:00 AM 23.28 73.904 0.806 8.44 4.75 7.02
8/27/2021 8:00:00 AM 23.27 73.886 0.805 8.44 6.32 7.21
8/27/2021 8:15:00 AM 23.27 73.886 0.804 8.44 9.15 7.26
8/27/2021 8:30:00 AM 23.26 73.868 0.805 8.41 5.4 7.32
8/27/2021 8:45:00 AM 23.25 73.85 0.804 8.44 5.57 7.36
8/27/2021 9:00:00 AM 23.25 73.85 0.804 8.44 4.29 7.37
8/27/2021 9:15:00 AM 23.29 73.922 0.804 8.44 3.85 7.46
8/27/2021 9:30:00 AM 23.35 74.03 0.804 8.43 3.34 7.58
8/27/2021 9:45:00 AM 23.41 74.138 0.804 8.45 5.07 7.71
8/27/2021 10:00:00 AM 23.45 74.21 0.804 8.45 6.33 7.77
8/27/2021 10:15:00 AM 23.47 74.246 0.804 8.45 3.84 7.81
8/27/2021 10:30:00 AM 23.5 74.3 0.804 8.47 4.56 7.82
8/27/2021 10:45:00 AM 23.56 74.408 0.804 8.47 4.31 7.85
8/27/2021 11:00:00 AM 23.64 74.552 0.804 8.48 5.57 7.97
8/27/2021 11:15:00 AM 23.74 74.732 0.804 8.49 39.88 8.1
8/27/2021 11:30:00 AM 23.84 74.912 0.804 8.5 5.32 8.18
8/27/2021 11:45:00 AM 23.92 75.056 0.804 8.51 6.96 8.25
8/27/2021 12:00:00 PM 23.97 75.146 0.804 8.5 4.76 8.29
8/27/2021 12:15:00 PM 24.16 75.488 0.804 8.53 4.41 8.34
8/27/2021 12:30:00 PM 24.39 75.902 0.804 8.53 4.76 8.42
8/27/2021 12:45:00 PM 24.56 76.208 0.803 8.56 4.99 8.5
8/27/2021 1:00:00 PM 24.71 76.478 0.804 8.57 5.12 8.53
8/27/2021 1:15:00 PM 24.87 76.766 0.803 8.58 4.41 8.57
8/27/2021 1:30:00 PM 24.98 76.964 0.804 8.59 4.19 8.55
8/27/2021 1:45:00 PM 25.11 77.198 0.803 8.56 4.55 8.56
8/27/2021 2:00:00 PM 25.2 77.36 0.803 8.57 4.41 8.56
8/27/2021 2:15:00 PM 25.2 77.36 0.803 8.56 5.19 8.53
8/27/2021 2:30:00 PM 25.32 77.576 0.803 8.57 5.19 8.5
8/27/2021 2:45:00 PM 25.37 77.666 0.803 8.57 4.38 8.51
8/27/2021 3:00:00 PM 25.3 77.54 0.803 8.58 4.44 8.47
8/27/2021 3:15:00 PM 25.28 77.504 0.802 8.57 5.26 8.4
8/27/2021 3:30:00 PM 25.37 77.666 0.801 8.57 4.56 8.39
8/27/2021 3:45:00 PM 25.49 77.882 0.801 8.58 4.22 8.42
8/27/2021 4:00:00 PM 25.43 77.774 0.801 8.58 5.29 8.33
8/27/2021 4:15:00 PM 25.35 77.63 0.795 8.58 4.07 8.17
8/27/2021 4:30:00 PM 25.32 77.576 0.799 8.58 5 8.05
8/27/2021 4:45:00 PM 25.33 77.594 0.797 8.57 3.8 8
8/27/2021 5:00:00 PM 25.35 77.63 0.796 8.57 3.43 8.02
8/27/2021 5:15:00 PM 25.31 77.558 0.796 8.56 3.66 7.97
8/27/2021 5:30:00 PM 25.22 77.396 0.794 8.56 4.3 7.85
8/27/2021 5:45:00 PM 25.14 77.252 0.79 8.56 4.63 7.76
8/27/2021 6:00:00 PM 25.11 77.198 0.788 8.55 4.5 7.66
8/27/2021 6:15:00 PM 25.11 77.198 0.788 8.53 5.53 7.6
8/27/2021 6:30:00 PM 25.09 77.162 0.789 8.53 6.32 7.57
8/27/2021 6:45:00 PM 25.07 77.126 0.79 8.53 3.94 7.49
8/27/2021 7:00:00 PM 25.05 77.09 0.789 8.53 4.47 7.43
8/27/2021 7:15:00 PM 25.03 77.054 0.79 8.53 4.54 7.34
8/27/2021 7:30:00 PM 25 77 0.789 8.53 7.9 7.36
8/27/2021 7:45:00 PM 25.01 77.018 0.788 8.54 50.25 7.45
8/27/2021 8:00:00 PM 24.6 76.28 0.685 8.46 648.8 7.02
8/27/2021 8:15:00 PM 23.57 74.426 0.407 8.3 1189 6.49
8/27/2021 8:30:00 PM 23.76 74.768 0.445 8.21 686.8 6.89
8/27/2021 8:45:00 PM 24.14 75.452 0.565 8.24 357.7 7.08
8/27/2021 9:00:00 PM 24.16 75.488 0.608 8.13 342.1 7.07
8/27/2021 9:15:00 PM 24.11 75.398 0.615 8.11 231 7.1
8/27/2021 9:30:00 PM 24.06 75.308 0.602 8.11 206.9 7.08
8/27/2021 9:45:00 PM 23.97 75.146 0.55 8.12 246.3 6.95
8/27/2021 10:00:00 PM 23.83 74.894 0.473 8.07 354.3 6.71
8/27/2021 10:15:00 PM 23.67 74.606 0.411 8.04 461.7 6.54
8/27/2021 10:30:00 PM 23.57 74.426 0.385 7.99 488.2 6.45
8/27/2021 10:45:00 PM 23.51 74.318 0.38 7.94 481.7 6.45
8/27/2021 11:00:00 PM 23.5 74.3 0.381 7.92 443.6 6.47
8/27/2021 11:15:00 PM 23.5 74.3 0.381 7.92 418.8 6.49
8/27/2021 11:30:00 PM 23.51 74.318 0.381 7.92 378.3 6.49
8/27/2021 11:45:00 PM 23.53 74.354 0.38 7.92 331.6 6.49
8/28/2021 12:00:00 AM 23.55 74.39 0.38 7.92 287.9 6.48
8/28/2021 12:15:00 AM 23.58 74.444 0.382 7.91 245.5 6.49
8/28/2021 12:30:00 AM 23.61 74.498 0.384 7.91 227.8 6.47
8/28/2021 12:45:00 AM 23.63 74.534 0.388 7.92 180.4 6.49
8/28/2021 1:00:00 AM 23.64 74.552 0.393 7.92 178.5 6.49
8/28/2021 1:15:00 AM 23.64 74.552 0.396 7.92 189.9 6.5
8/28/2021 1:30:00 AM 23.63 74.534 0.4 7.91 189.1 6.54
8/28/2021 1:45:00 AM 23.62 74.516 0.406 7.92 193.2 6.55
8/28/2021 2:00:00 AM 23.6 74.48 0.412 7.93 191.2 6.59
8/28/2021 2:15:00 AM 23.58 74.444 0.418 7.94 199.1 6.63
8/28/2021 2:30:00 AM 23.55 74.39 0.423 7.96 196.1 6.68
8/28/2021 2:45:00 AM 23.51 74.318 0.421 7.97 197.6 6.69
8/28/2021 3:00:00 AM 23.47 74.246 0.415 7.96 190.7 6.68
8/28/2021 3:15:00 AM 23.42 74.156 0.402 7.96 176.9 6.67
8/28/2021 3:30:00 AM 23.38 74.084 0.389 7.94 164.3 6.68
8/28/2021 3:45:00 AM 23.35 74.03 0.375 7.92 145.1 6.64
8/28/2021 4:00:00 AM 23.32 73.976 0.364 7.9 134.8 6.62
8/28/2021 4:15:00 AM 23.29 73.922 0.356 7.89 130.8 6.6
8/28/2021 4:30:00 AM 23.26 73.868 0.35 7.87 124.9 6.61
8/28/2021 4:45:00 AM 23.23 73.814 0.346 7.86 114.2 6.57
8/28/2021 5:00:00 AM 23.19 73.742 0.344 7.84 114.5 6.59
8/28/2021 5:15:00 AM 23.16 73.688 0.346 7.82 108.8 6.58
8/28/2021 5:30:00 AM 23.13 73.634 0.351 7.83 105.9 6.6
8/28/2021 5:45:00 AM 23.1 73.58 0.358 7.84 105.1 6.63
8/28/2021 6:00:00 AM 23.07 73.526 0.366 7.83 91.98 6.65
8/28/2021 6:15:00 AM 23.03 73.454 0.376 7.84 93.17 6.64
8/28/2021 6:30:00 AM 23 73.4 0.388 7.85 86.34 6.65
8/28/2021 6:45:00 AM 22.97 73.346 0.4 7.84 80.93 6.66
8/28/2021 7:00:00 AM 22.94 73.292 0.411 7.86 74.15 6.68
8/28/2021 7:15:00 AM 22.92 73.256 0.424 7.87 75.38 6.69
8/28/2021 7:30:00 AM 22.9 73.22 0.44 7.89 68.42 6.72
8/28/2021 7:45:00 AM 22.89 73.202 0.455 7.9 66.26 6.73
8/28/2021 8:00:00 AM 22.88 73.184 0.467 7.91 60.83 6.75
8/28/2021 8:15:00 AM 22.87 73.166 0.481 7.79 59.62 6.78
8/28/2021 8:30:00 AM 22.86 73.148 0.493 7.86 57.97 6.78
8/28/2021 8:45:00 AM 22.86 73.148 0.505 7.91 53.85 6.82
8/28/2021 9:00:00 AM 22.86 73.148 0.516 7.96 53.49 6.82
8/28/2021 9:15:00 AM 22.87 73.166 0.524 7.98 51.54 6.83
8/28/2021 9:30:00 AM 22.89 73.202 0.533 8 51.67 6.87
8/28/2021 9:45:00 AM 22.9 73.22 0.54 8.02 53.47 6.87
8/28/2021 10:00:00 AM 22.91 73.238 0.546 8.03 51.29 6.88
8/28/2021 10:15:00 AM 22.96 73.328 0.551 8.05 56.04 6.92
8/28/2021 10:30:00 AM 23 73.4 0.554 8.06 50.27 6.95
8/28/2021 10:45:00 AM 23.03 73.454 0.558 8.07 49.24 6.94
8/28/2021 11:00:00 AM 23.09 73.562 0.56 8.08 51.55 6.96
8/28/2021 11:15:00 AM 23.21 73.778 0.562 8.09 51.53 6.98
8/28/2021 11:30:00 AM 23.29 73.922 0.563 8.09 52.5 7.03
8/28/2021 11:45:00 AM 23.29 73.922 0.564 8.1 49.8 7.04
8/28/2021 12:00:00 PM 23.29 73.922 0.565 8.1 49.53 6.97
8/28/2021 12:15:00 PM 23.27 73.886 0.564 8.1 46.68 6.92
8/28/2021 12:30:00 PM 23.29 73.922 0.565 8.1 49.29 6.9
8/28/2021 12:45:00 PM 23.34 74.012 0.564 8.1 44.53 6.92
8/28/2021 1:00:00 PM 23.42 74.156 0.562 8.1 46.66 6.91
8/28/2021 1:15:00 PM 23.48 74.264 0.561 8.1 47.66 6.94
8/28/2021 1:30:00 PM 23.43 74.174 0.558 8.11 49.38 6.88
8/28/2021 1:45:00 PM 23.43 74.174 0.555 8.1 46.09 6.82
8/28/2021 2:00:00 PM 23.43 74.174 0.552 8.09 46.07 6.78
8/28/2021 2:15:00 PM 23.44 74.192 0.549 8.09 45.49 6.75
8/28/2021 2:30:00 PM 23.49 74.282 0.544 8.08 64.52 6.76
8/28/2021 2:45:00 PM 23.5 74.3 0.539 8.08 44.88 6.78
8/28/2021 3:00:00 PM 23.52 74.336 0.535 8.07 42.74 6.8
8/28/2021 3:15:00 PM 23.51 74.318 0.529 8.07 40.44 6.76
8/28/2021 3:30:00 PM 23.5 74.3 0.524 8.07 41.27 6.73
8/28/2021 3:45:00 PM 23.52 74.336 0.518 8.07 43.82 6.73
8/28/2021 4:00:00 PM 23.54 74.372 0.512 8.06 41.94 6.72
8/28/2021 4:15:00 PM 23.54 74.372 0.506 8.06 43.15 6.69
8/28/2021 4:30:00 PM 23.53 74.354 0.5 8.05 39.74 6.7
8/28/2021 4:45:00 PM 23.52 74.336 0.494 8.05 39.74 6.66
8/28/2021 5:00:00 PM 23.51 74.318 0.487 8.04 38.57 6.61
8/28/2021 5:15:00 PM 23.5 74.3 0.481 8.03 39.65 6.6
8/28/2021 5:30:00 PM 23.48 74.264 0.476 8.02 39.7 6.57
8/28/2021 5:45:00 PM 23.46 74.228 0.469 8.02 38.28 6.55
8/28/2021 6:00:00 PM 23.44 74.192 0.464 8 40.68 6.52
8/28/2021 6:15:00 PM 23.42 74.156 0.458 8 36.42 6.46
8/28/2021 6:30:00 PM 23.39 74.102 0.453 7.99 36.23 6.49
8/28/2021 6:45:00 PM 23.36 74.048 0.448 7.97 35.78 6.46
8/28/2021 7:00:00 PM 23.33 73.994 0.444 7.97 34.34 6.44
8/28/2021 7:15:00 PM 23.3 73.94 0.44 7.97 36.65 6.46
8/28/2021 7:30:00 PM 23.27 73.886 0.435 7.96 36.8 6.36
8/28/2021 7:45:00 PM 23.23 73.814 0.431 7.95 36.61 6.36
8/28/2021 8:00:00 PM 23.2 73.76 0.427 7.94 36 6.33
8/28/2021 8:15:00 PM 23.16 73.688 0.423 7.93 35.57 6.36
8/28/2021 8:30:00 PM 23.13 73.634 0.42 7.93 37.12 6.31
8/28/2021 8:45:00 PM 23.1 73.58 0.418 7.92 28.44 6.31
8/28/2021 9:00:00 PM 23.06 73.508 0.415 7.92 26.15 6.33
8/28/2021 9:15:00 PM 23.02 73.436 0.417 7.91 27.87 6.3
8/28/2021 9:30:00 PM 22.98 73.364 0.416 7.91 55.7 6.33
8/28/2021 9:45:00 PM 22.95 73.31 0.415 7.9 25.76 6.29
8/28/2021 10:00:00 PM 22.91 73.238 0.414 7.87 24.93 6.34
8/28/2021 10:15:00 PM 22.87 73.166 0.414 7.86 23.65 6.31
8/28/2021 10:30:00 PM 22.83 73.094 0.414 7.87 24.06 6.31
8/28/2021 10:45:00 PM 22.79 73.022 0.415 7.86 24.3 6.4
8/28/2021 11:00:00 PM 22.75 72.95 0.416 7.87 24.21 6.39
8/28/2021 11:15:00 PM 22.71 72.878 0.417 7.89 23.94 6.42
8/28/2021 11:30:00 PM 22.67 72.806 0.418 7.88 23.83 6.44
8/28/2021 11:45:00 PM 22.63 72.734 0.42 7.89 19.75 6.41
8/29/2021 12:00:00 AM 22.59 72.662 0.422 7.88 20.34 6.43
8/29/2021 12:15:00 AM 22.55 72.59 0.424 7.89 22.64 6.43
8/29/2021 12:30:00 AM 22.51 72.518 0.427 7.9 20.78 6.44
8/29/2021 12:45:00 AM 22.47 72.446 0.429 7.9 18.96 6.47
8/29/2021 1:00:00 AM 22.43 72.374 0.433 7.9 18.84 6.5
8/29/2021 1:15:00 AM 22.39 72.302 0.436 7.91 18.26 6.5
8/29/2021 1:30:00 AM 22.35 72.23 0.439 7.91 16.72 6.5
8/29/2021 1:45:00 AM 22.32 72.176 0.443 7.9 18.42 6.52
8/29/2021 2:00:00 AM 22.28 72.104 0.446 7.91 19.04 6.51
8/29/2021 2:15:00 AM 22.24 72.032 0.45 7.92 17.86 6.57
8/29/2021 2:30:00 AM 22.21 71.978 0.454 7.93 17.65 6.56
8/29/2021 2:45:00 AM 22.17 71.906 0.458 7.94 18.35 6.57
8/29/2021 3:00:00 AM 22.13 71.834 0.462 7.94 17.73 6.6
8/29/2021 3:15:00 AM 22.1 71.78 0.467 7.95 19.69 6.59
8/29/2021 3:30:00 AM 22.06 71.708 0.471 7.96 17.14 6.63
8/29/2021 3:45:00 AM 22.03 71.654 0.476 7.97 17.3 6.62
8/29/2021 4:00:00 AM 22 71.6 0.481 7.97 16.22 6.66
8/29/2021 4:15:00 AM 21.96 71.528 0.486 7.98 16.1 6.68
8/29/2021 4:30:00 AM 21.93 71.474 0.49 8 15.5 6.71
8/29/2021 4:45:00 AM 21.9 71.42 0.495 8.01 16.13 6.71
8/29/2021 5:00:00 AM 21.87 71.366 0.5 8.01 16.12 6.71
8/29/2021 5:15:00 AM 21.84 71.312 0.505 8.02 17.48 6.79
8/29/2021 5:30:00 AM 21.81 71.258 0.51 8.02 16.16 6.77
8/29/2021 5:45:00 AM 21.78 71.204 0.515 8.04 14.85 6.76
8/29/2021 6:00:00 AM 21.75 71.15 0.521 8.05 14.86 6.78
8/29/2021 6:15:00 AM 21.72 71.096 0.526 8.06 14.19 6.82
8/29/2021 6:30:00 AM 21.69 71.042 0.531 8.07 16.67 6.83
8/29/2021 6:45:00 AM 21.67 71.006 0.537 8.07 14.12 6.84
8/29/2021 7:00:00 AM 21.64 70.952 0.542 8.08 13.2 6.89
8/29/2021 7:15:00 AM 21.62 70.916 0.548 8.1 12.14 6.96
8/29/2021 7:30:00 AM 21.6 70.88 0.553 8.11 11.65 6.93
8/29/2021 7:45:00 AM 21.58 70.844 0.559 8.12 10.72 6.97
8/29/2021 8:00:00 AM 21.57 70.826 0.565 8.13 11.03 7
8/29/2021 8:15:00 AM 21.55 70.79 0.57 8.14 11.36 7.04
8/29/2021 8:30:00 AM 21.54 70.772 0.576 8.15 11.25 7.05
8/29/2021 8:45:00 AM 21.53 70.754 0.581 8.16 11.81 7.14
8/29/2021 9:00:00 AM 21.53 70.754 0.587 8.18 10.88 7.15
8/29/2021 9:15:00 AM 21.52 70.736 0.592 8.18 9.97 7.19
8/29/2021 9:30:00 AM 21.52 70.736 0.597 8.19 10.09 7.3
8/29/2021 9:45:00 AM 21.54 70.772 0.602 8.21 15.71 7.32
8/29/2021 10:00:00 AM 21.56 70.808 0.607 8.23 12.02 7.43
8/29/2021 10:15:00 AM 21.57 70.826 0.612 8.24 8.97 7.52
8/29/2021 10:30:00 AM 21.58 70.844 0.617 8.24 8.54 7.53
8/29/2021 10:45:00 AM 21.63 70.934 0.621 8.26 9.35 7.61
8/29/2021 11:00:00 AM 21.67 71.006 0.626 8.28 10.22 7.7
8/29/2021 11:15:00 AM 21.71 71.078 0.63 8.3 9.28 7.83
8/29/2021 11:30:00 AM 21.77 71.186 0.633 8.32 8.69 7.92
8/29/2021 11:45:00 AM 21.85 71.33 0.637 8.32 9.39 7.97
8/29/2021 12:00:00 PM 21.93 71.474 0.641 8.35 9.45 8.07
8/29/2021 12:15:00 PM 22.05 71.69 0.644 8.36 9.67 8.15
8/29/2021 12:30:00 PM 22.21 71.978 0.648 8.37 8.32 8.27
8/29/2021 12:45:00 PM 22.33 72.194 0.651 8.38 8.37 8.33
8/29/2021 1:00:00 PM 22.38 72.284 0.653 8.4 8.59 8.31
8/29/2021 1:15:00 PM 22.52 72.536 0.656 8.4 8.96 8.35
8/29/2021 1:30:00 PM 22.61 72.698 0.658 8.41 7.11 8.38
8/29/2021 1:45:00 PM 22.73 72.914 0.66 8.4 9.68 8.4
8/29/2021 2:00:00 PM 22.76 72.968 0.663 8.39 9.35 8.41
8/29/2021 2:15:00 PM 22.9 73.22 0.665 8.41 8.8 8.43
8/29/2021 2:30:00 PM 22.97 73.346 0.666 8.41 13.89 8.46
8/29/2021 2:45:00 PM 22.93 73.274 0.669 8.44 10.76 8.4
8/29/2021 3:00:00 PM 22.85 73.13 0.667 8.44 9.16 8.37
8/29/2021 3:15:00 PM 22.82 73.076 0.672 8.45 11.56 8.37
8/29/2021 3:30:00 PM 22.84 73.112 0.674 8.45 11.98 8.34
8/29/2021 3:45:00 PM 22.9 73.22 0.676 8.45 10.06 8.32
8/29/2021 4:00:00 PM 22.9 73.22 0.678 8.46 10.12 8.33
8/29/2021 4:15:00 PM 22.89 73.202 0.68 8.46 12.07 8.21
8/29/2021 4:30:00 PM 22.91 73.238 0.683 8.46 12.43 8.22
8/29/2021 4:45:00 PM 22.91 73.238 0.685 8.46 21.39 8.2
8/29/2021 5:00:00 PM 22.88 73.184 0.688 8.47 13.43 8.16
8/29/2021 5:15:00 PM 22.84 73.112 0.69 8.47 12.12 8.08
8/29/2021 5:30:00 PM 22.83 73.094 0.693 8.47 25.9 8.01
8/29/2021 5:45:00 PM 22.84 73.112 0.696 8.47 11.08 7.99
8/29/2021 6:00:00 PM 22.85 73.13 0.699 8.47 11.42 7.97
8/29/2021 6:15:00 PM 22.86 73.148 0.702 8.47 16.4 7.92
8/29/2021 6:30:00 PM 22.87 73.166 0.705 8.47 12.1 7.91
8/29/2021 6:45:00 PM 22.87 73.166 0.709 8.48 8.17 7.82
8/29/2021 7:00:00 PM 22.88 73.184 0.712 8.47 15.16 7.78
8/29/2021 7:15:00 PM 22.87 73.166 0.715 8.47 14.72 7.69
8/29/2021 7:30:00 PM 22.86 73.148 0.719 8.47 15.89 7.66
8/29/2021 7:45:00 PM 22.84 73.112 0.722 8.46 14.79 7.58
8/29/2021 8:00:00 PM 22.82 73.076 0.725 8.46 14.19 7.55
8/29/2021 8:15:00 PM 22.79 73.022 0.729 8.45 19.74 7.48
8/29/2021 8:30:00 PM 22.77 72.986 0.732 8.45 11.38 7.45
8/29/2021 8:45:00 PM 22.74 72.932 0.735 8.45 11.18 7.42
8/29/2021 9:00:00 PM 22.71 72.878 0.738 8.44 23.49 7.37
8/29/2021 9:15:00 PM 22.68 72.824 0.741 8.44 20.42 7.32
8/29/2021 9:30:00 PM 22.65 72.77 0.745 8.44 15.31 7.33
8/29/2021 9:45:00 PM 22.62 72.716 0.747 8.44 20.59 7.24
8/29/2021 10:00:00 PM 22.59 72.662 0.75 8.44 20.68 7.28
8/29/2021 10:15:00 PM 22.56 72.608 0.752 8.44 16.47 7.28
8/29/2021 10:30:00 PM 22.54 72.57201 0.755 8.43 18.39 7.19
8/29/2021 10:45:00 PM 22.51 72.518 0.757 8.44 21.22 7.24
8/29/2021 11:00:00 PM 22.48 72.464 0.759 8.44 22.51 7.22
8/29/2021 11:15:00 PM 22.45 72.41 0.752 8.43 14.66 7.2
8/29/2021 11:30:00 PM 22.42 72.356 0.746 8.42 9.06 7.18
8/29/2021 11:45:00 PM 22.39 72.302 0.766 8.42 7.23 7.18
8/30/2021 12:00:00 AM 22.38 72.284 0.767 8.42 8.31 7.17
8/30/2021 12:15:00 AM 22.36 72.248 0.769 8.42 9.56 7.13
8/30/2021 12:30:00 AM 22.34 72.212 0.77 8.42 6.78 7.14
8/30/2021 12:45:00 AM 22.31 72.158 0.765 8.42 8.31 7.17
8/30/2021 1:00:00 AM 22.29 72.122 0.771 8.42 7.52 7.16
8/30/2021 1:15:00 AM 22.27 72.086 0.774 8.42 7.16 7.15
8/30/2021 1:30:00 AM 22.24 72.032 0.776 8.43 7.84 7.14
8/30/2021 1:45:00 AM 22.2 71.96 0.778 8.42 7.06 7.18
8/30/2021 2:00:00 AM 22.18 71.924 0.779 8.42 11.96 7.21
8/30/2021 2:15:00 AM 22.15 71.87 0.78 8.41 6.73 7.18
8/30/2021 2:30:00 AM 22.12 71.816 0.781 8.42 7.8 7.16
8/30/2021 2:45:00 AM 22.1 71.78 0.782 8.42 7.83 7.19
8/30/2021 3:00:00 AM 22.07 71.726 0.782 8.42 6.73 7.21
8/30/2021 3:15:00 AM 22.05 71.69 0.783 8.43 7.16 7.17
8/30/2021 3:30:00 AM 22.02 71.636 0.783 8.42 9.19 7.19
8/30/2021 3:45:00 AM 21.99 71.582 0.784 8.42 6.95 7.2
8/30/2021 4:00:00 AM 21.96 71.528 0.784 8.41 7.85 7.18
8/30/2021 4:15:00 AM 21.92 71.456 0.784 8.42 7.32 7.2
8/30/2021 4:30:00 AM 21.89 71.402 0.784 8.42 6.86 7.21
8/30/2021 4:45:00 AM 21.85 71.33 0.785 8.42 10.99 7.22
8/30/2021 5:00:00 AM 21.82 71.276 0.784 8.42 7.92 7.26
8/30/2021 5:15:00 AM 21.79 71.222 0.784 8.42 8.37 7.27
8/30/2021 5:30:00 AM 21.76 71.168 0.784 8.42 11.75 7.24
8/30/2021 5:45:00 AM 21.73 71.114 0.784 8.42 8.15 7.29
8/30/2021 6:00:00 AM 21.7 71.06 0.784 8.42 7.29 7.26
8/30/2021 6:15:00 AM 21.67 71.006 0.783 8.41 6.81 7.26
8/30/2021 6:30:00 AM 21.65 70.97 0.783 8.41 6.93 7.27
8/30/2021 6:45:00 AM 21.63 70.934 0.783 8.42 6.52 7.28
8/30/2021 7:00:00 AM 21.6 70.88 0.782 8.42 7.02 7.29
8/30/2021 7:15:00 AM 21.59 70.862 0.781 8.42 6.41 7.34
8/30/2021 7:30:00 AM 21.58 70.844 0.781 8.42 6.26 7.32
8/30/2021 7:45:00 AM 21.56 70.808 0.78 8.41 6.09 7.4
8/30/2021 8:00:00 AM 21.55 70.79 0.779 8.42 6.18 7.38
8/30/2021 8:15:00 AM 21.55 70.79 0.777 8.39 5.83 7.46
8/30/2021 8:30:00 AM 21.56 70.808 0.776 8.42 4.82 7.48
8/30/2021 8:45:00 AM 21.58 70.844 0.775 8.42 6.73 7.53
8/30/2021 9:00:00 AM 21.6 70.88 0.774 8.42 5.44 7.57
8/30/2021 9:15:00 AM 21.62 70.916 0.772 8.43 4.07 7.64
8/30/2021 9:30:00 AM 21.64 70.952 0.771 8.43 4.57 7.66
8/30/2021 9:45:00 AM 21.67 71.006 0.769 8.43 4.5 7.75
8/30/2021 10:00:00 AM 21.72 71.096 0.768 8.44 3.87 7.85
8/30/2021 10:15:00 AM 21.74 71.132 0.766 8.41 4.36 7.91
8/30/2021 10:30:00 AM 21.78 71.204 0.764 8.45 5.06 7.96
8/30/2021 10:45:00 AM 21.89 71.402 0.763 8.45 4.75 8.03
8/30/2021 11:00:00 AM 21.99 71.582 0.761 8.42 3.98 8.12
8/30/2021 11:15:00 AM 22.09 71.762 0.759 8.48 3.84 8.18
8/30/2021 11:30:00 AM 22.2 71.96 0.756 8.49 4.33 8.24
8/30/2021 11:45:00 AM 22.4 72.32 0.754 8.5 4.19 8.38
8/30/2021 12:00:00 PM 22.53 72.554 0.752 7.6 3.9 8.44
8/30/2021 12:15:00 PM 22.59 72.662 0.75 7.77 4.28 8.47
8/30/2021 12:30:00 PM 22.67 72.806 0.747 7.86 4.51 8.51
8/30/2021 12:45:00 PM 22.78 73.004 0.745 8.03 3.51 8.53
8/30/2021 1:00:00 PM 22.88 73.184 0.742 8.13 3.48 8.59
8/30/2021 1:15:00 PM 22.93 73.274 0.739 8.31 3.72 8.59
8/30/2021 1:30:00 PM 22.92 73.256 0.737 8.37 3.91 8.52
8/30/2021 1:45:00 PM 23.03 73.454 0.734 8.41 3.51 8.52
8/30/2021 2:00:00 PM 23.16 73.688 0.732 8.45 3.31 8.54
8/30/2021 2:15:00 PM 23.31 73.958 0.729 8.48 5.79 8.61
8/30/2021 2:30:00 PM 23.38 74.084 0.726 8.5 4.26 8.63
8/30/2021 2:45:00 PM 23.31 73.958 0.724 8.51 4.2 8.5
8/30/2021 3:00:00 PM 23.35 74.03 0.721 8.49 4.02 8.41
8/30/2021 3:15:00 PM 23.49 74.282 0.719 8.51 3.61 8.45
8/30/2021 3:30:00 PM 23.54 74.372 0.717 8.52 3.96 8.41
8/30/2021 3:45:00 PM 23.59 74.462 0.714 8.52 4.73 8.42
8/30/2021 4:00:00 PM 23.63 74.534 0.711 8.53 4.1 8.38
8/30/2021 4:15:00 PM 23.64 74.552 0.709 8.53 4.79 8.28
8/30/2021 4:30:00 PM 23.62 74.516 0.708 8.53 4.5 8.23
8/30/2021 4:45:00 PM 23.64 74.552 0.707 8.53 3.6 8.15
8/30/2021 5:00:00 PM 23.65 74.57 0.705 8.53 3.66 8.15
8/30/2021 5:15:00 PM 23.61 74.498 0.703 8.53 3.98 8.1
8/30/2021 5:30:00 PM 23.61 74.498 0.701 8.52 7.02 8.02
8/30/2021 5:45:00 PM 23.63 74.534 0.7 8.53 3.91 7.96
8/30/2021 6:00:00 PM 23.63 74.534 0.698 8.53 5.35 7.87
8/30/2021 6:15:00 PM 23.64 74.552 0.697 8.52 3.8 7.81
8/30/2021 6:30:00 PM 23.66 74.588 0.696 8.53 3.7 7.76
8/30/2021 6:45:00 PM 23.67 74.606 0.695 8.53 27.8 7.74
8/30/2021 7:00:00 PM 23.69 74.642 0.694 8.53 5.93 7.67
8/30/2021 7:15:00 PM 23.69 74.642 0.692 8.54 4.46 7.61
8/30/2021 7:30:00 PM 23.69 74.642 0.694 8.53 4.71 7.54
8/30/2021 7:45:00 PM 23.68 74.624 0.694 8.53 4.04 7.46
8/30/2021 8:00:00 PM 23.66 74.588 0.693 8.52 4.93 7.4
8/30/2021 8:15:00 PM 23.64 74.552 0.693 8.51 5.95 7.33
8/30/2021 8:30:00 PM 23.62 74.516 0.693 8.51 6.24 7.29
8/30/2021 8:45:00 PM 23.59 74.462 0.693 8.5 3.68 7.26
8/30/2021 9:00:00 PM 23.55 74.39 0.693 8.5 5.3 7.23
8/30/2021 9:15:00 PM 23.51 74.318 0.693 8.49 3.98 7.21
8/30/2021 9:30:00 PM 23.47 74.246 0.693 8.49 4.39 7.15
8/30/2021 9:45:00 PM 23.43 74.174 0.694 8.48 4.15 7.08
8/30/2021 10:00:00 PM 23.39 74.102 0.694 8.49 5.18 7.11
8/30/2021 10:15:00 PM 23.35 74.03 0.695 8.48 5.07 7.08
8/30/2021 10:30:00 PM 23.31 73.958 0.695 8.48 4.32 7.06
8/30/2021 10:45:00 PM 23.27 73.886 0.696 8.49 6.11 7
8/30/2021 11:00:00 PM 23.22 73.796 0.696 8.48 5.04 7.02
8/30/2021 11:15:00 PM 23.17 73.706 0.697 8.47 5.59 7
8/30/2021 11:30:00 PM 23.13 73.634 0.698 8.4 5.95 7
8/30/2021 11:45:00 PM 23.09 73.562 0.699 8.39 7.67 6.96
8/31/2021 12:00:00 AM 23.04 73.472 0.699 8.43 5.38 7.02
8/31/2021 12:15:00 AM 22.99 73.382 0.7 8.44 6.02 6.99
8/31/2021 12:30:00 AM 22.95 73.31 0.699 8.44 7.21 7.03
8/31/2021 12:45:00 AM 22.91 73.238 0.702 8.44 7.07 7
8/31/2021 1:00:00 AM 22.86 73.148 0.702 8.44 6.01 7.01
8/31/2021 1:15:00 AM 22.82 73.076 0.702 8.44 5.16 7.03
8/31/2021 1:30:00 AM 22.78 73.004 0.701 8.44 7.13 7.02
8/31/2021 1:45:00 AM 22.73 72.914 0.696 8.44 5.82 7.04
8/31/2021 2:00:00 AM 22.69 72.842 0.695 8.44 5.71 7.05
8/31/2021 2:15:00 AM 22.65 72.77 0.702 8.44 6.05 7.04
8/31/2021 2:30:00 AM 22.61 72.698 0.707 8.44 6.63 7.03
8/31/2021 2:45:00 AM 22.56 72.608 0.709 8.44 5.72 7.06
8/31/2021 3:00:00 AM 22.52 72.536 0.709 8.44 5.84 7.05
8/31/2021 3:15:00 AM 22.48 72.464 0.71 8.43 6.62 7.05
8/31/2021 3:30:00 AM 22.45 72.41 0.71 8.44 5.91 7.07
8/31/2021 3:45:00 AM 22.41 72.338 0.712 8.44 6.47 7.06
8/31/2021 4:00:00 AM 22.37 72.266 0.712 8.44 6.64 7.1
8/31/2021 4:15:00 AM 22.33 72.194 0.714 8.44 7.66 7.1
8/31/2021 4:30:00 AM 22.29 72.122 0.715 8.44 8.23 7.13
8/31/2021 4:45:00 AM 22.26 72.068 0.716 8.44 7.08 7.13
8/31/2021 5:00:00 AM 22.23 72.014 0.716 8.45 7.03 7.14
8/31/2021 5:15:00 AM 22.19 71.942 0.717 8.44 6.99 7.15
8/31/2021 5:30:00 AM 22.16 71.888 0.718 8.45 6.83 7.15
8/31/2021 5:45:00 AM 22.12 71.816 0.719 8.45 7.07 7.18
8/31/2021 6:00:00 AM 22.09 71.762 0.719 8.45 7.88 7.16
8/31/2021 6:15:00 AM 22.05 71.69 0.72 8.45 7.95 7.18
8/31/2021 6:30:00 AM 22.02 71.636 0.721 8.45 7.18 7.19
8/31/2021 6:45:00 AM 21.99 71.582 0.722 8.45 6.33 7.19
8/31/2021 7:00:00 AM 21.97 71.546 0.723 8.45 6.19 7.2
8/31/2021 7:15:00 AM 21.95 71.51 0.724 8.45 6.94 7.23
8/31/2021 7:30:00 AM 21.93 71.474 0.722 8.46 5.76 7.28
8/31/2021 7:45:00 AM 21.92 71.456 0.725 8.46 4.94 7.29
8/31/2021 8:00:00 AM 21.92 71.456 0.724 8.46 12.01 7.34
8/31/2021 8:15:00 AM 21.92 71.456 0.726 8.46 5.7 7.38
8/31/2021 8:30:00 AM 21.92 71.456 0.726 8.47 4.5 7.43
8/31/2021 8:45:00 AM 21.93 71.474 0.727 8.47 4.78 7.51
8/31/2021 9:00:00 AM 21.93 71.474 0.728 8.47 5.1 7.51
8/31/2021 9:15:00 AM 21.95 71.51 0.728 8.48 4.32 7.57
8/31/2021 9:30:00 AM 21.97 71.546 0.729 8.48 4 7.66
8/31/2021 9:45:00 AM 22 71.6 0.73 8.48 3.9 7.74
8/31/2021 10:00:00 AM 22.05 71.69 0.73 8.48 4.14 7.82
8/31/2021 10:15:00 AM 22.1 71.78 0.728 8.5 6.7 7.93
8/31/2021 10:30:00 AM 22.14 71.852 0.731 8.5 4.42 7.98
8/31/2021 10:45:00 AM 22.18 71.924 0.731 8.5 3.53 8.08
8/31/2021 11:00:00 AM 22.23 72.014 0.732 8.52 9.7 8.15
8/31/2021 11:15:00 AM 22.3 72.14 0.732 8.52 2.78 8.23
8/31/2021 11:30:00 AM 22.35 72.23 0.733 8.53 3.22 8.29
8/31/2021 11:45:00 AM 22.39 72.302 0.733 8.54 3.68 8.35
8/31/2021 12:00:00 PM 22.45 72.41 0.733 8.55 3.05 8.42
8/31/2021 12:15:00 PM 22.49 72.482 0.733 8.53 3.13 8.42
8/31/2021 12:30:00 PM 22.52 72.536 0.734 8.57 3.35 8.46
8/31/2021 12:45:00 PM 22.55 72.59 0.734 8.57 2.73 8.38
8/31/2021 1:00:00 PM 22.59 72.662 0.734 8.58 2.86 8.44
8/31/2021 1:15:00 PM 22.63 72.734 0.734 8.58 3.38 8.47
8/31/2021 1:30:00 PM 22.67 72.806 0.735 8.59 3.07 8.5
8/31/2021 1:45:00 PM 22.72 72.896 0.735 8.59 2.79 8.54
8/31/2021 2:00:00 PM 22.77 72.986 0.735 8.6 2.9 8.56
8/31/2021 2:15:00 PM 22.8 73.04 0.734 8.59 2.79 8.6
8/31/2021 2:30:00 PM 22.84 73.112 0.735 8.6 2.73 8.62
8/31/2021 2:45:00 PM 22.89 73.202 0.733 8.61 2.6 8.63
8/31/2021 3:00:00 PM 22.92 73.256 0.735 8.62 2.6 8.67
8/31/2021 3:15:00 PM 22.94 73.292 0.735 8.62 3.3 8.59
8/31/2021 3:30:00 PM 22.96 73.328 0.735 8.63 2.73 8.58
8/31/2021 3:45:00 PM 22.97 73.346 0.736 8.63 3.12 8.53
8/31/2021 4:00:00 PM 22.98 73.364 0.735 8.63 2.98 8.5
8/31/2021 4:15:00 PM 23 73.4 0.736 8.63 3.34 8.44
8/31/2021 4:30:00 PM 23.02 73.436 0.736 8.63 3.1 8.46
8/31/2021 4:45:00 PM 23.05 73.49 0.736 8.64 3.68 8.48
8/31/2021 5:00:00 PM 23.07 73.526 0.736 8.64 6.53 8.41
8/31/2021 5:15:00 PM 23.08 73.544 0.735 8.65 3.71 8.4
8/31/2021 5:30:00 PM 23.09 73.562 0.736 8.65 3.28 8.32
8/31/2021 5:45:00 PM 23.09 73.562 0.736 8.65 3.57 8.26
8/31/2021 6:00:00 PM 23.08 73.544 0.736 8.64 3.08 8.19
8/31/2021 6:15:00 PM 23.08 73.544 0.736 8.64 2.32 8.12
8/31/2021 6:30:00 PM 23.08 73.544 0.736 8.64 2.72 8.01
8/31/2021 6:45:00 PM 23.07 73.526 0.736 8.64 2.4 7.93
8/31/2021 7:00:00 PM 23.06 73.508 0.736 8.63 3.27 7.88
8/31/2021 7:15:00 PM 23.04 73.472 0.736 8.63 3.46 7.77
8/31/2021 7:30:00 PM 23.03 73.454 0.736 8.63 3.29 7.72
8/31/2021 7:45:00 PM 23.01 73.418 0.735 8.62 3.66 7.67
8/31/2021 8:00:00 PM 22.98 73.364 0.736 8.61 3.38 7.62
8/31/2021 8:15:00 PM 22.96 73.328 0.736 8.62 3778 7.57
8/31/2021 8:30:00 PM 22.94 73.292 0.733 8.61 3778 7.53
8/31/2021 8:45:00 PM 22.91 73.238 0.736 8.62 2350 7.49
8/31/2021 9:00:00 PM 22.89 73.202 0.736 8.6 3.26 7.44
8/31/2021 9:15:00 PM 22.87 73.166 0.735 8.61 4.15 7.44
8/31/2021 9:30:00 PM 22.84 73.112 0.736 8.59 4.01 7.38
8/31/2021 9:45:00 PM 22.82 73.076 0.736 8.59 3.68 7.34
8/31/2021 10:00:00 PM 22.79 73.022 0.736 8.59 3.67 7.36
8/31/2021 10:15:00 PM 22.77 72.986 0.736 8.59 4.3 7.33
8/31/2021 10:30:00 PM 22.74 72.932 0.736 8.58 4.55 7.31
8/31/2021 10:45:00 PM 22.71 72.878 0.736 8.58 4.58 7.29
8/31/2021 11:00:00 PM 22.68 72.824 0.735 8.57 4.29 7.24
8/31/2021 11:15:00 PM 22.65 72.77 0.735 8.57 6.19 7.23
8/31/2021 11:30:00 PM 22.62 72.716 0.735 8.57 4.43 7.23
8/31/2021 11:45:00 PM 22.59 72.662 0.736 8.56 4.43 7.21
9/1/2021 12:00:00 AM 22.56 72.608 0.733 8.56 5.68 7.21
9/1/2021 12:15:00 AM 22.53 72.554 0.735 8.55 5.22 7.19
9/1/2021 12:30:00 AM 22.5 72.5 0.735 8.55 4.61 7.16
9/1/2021 12:45:00 AM 22.46 72.42799 0.735 8.54 4.62 7.18
9/1/2021 1:00:00 AM 22.43 72.374 0.735 8.54 5.39 7.22
9/1/2021 1:15:00 AM 22.4 72.32 0.735 8.54 4.72 7.2
9/1/2021 1:30:00 AM 22.37 72.266 0.734 8.54 4.5 7.21
9/1/2021 1:45:00 AM 22.34 72.212 0.735 8.54 4.35 7.17
9/1/2021 2:00:00 AM 22.31 72.158 0.729 8.53 10.74 7.21
9/1/2021 2:15:00 AM 22.28 72.104 0.734 8.53 5.52 7.21
9/1/2021 2:30:00 AM 22.24 72.032 0.734 8.52 5.85 7.2
9/1/2021 2:45:00 AM 22.21 71.978 0.725 8.52 6.07 7.22
9/1/2021 3:00:00 AM 22.19 71.942 0.732 8.52 5.34 7.23
9/1/2021 3:15:00 AM 22.16 71.888 0.733 8.52 5.88 7.22
9/1/2021 3:30:00 AM 22.13 71.834 0.732 8.51 5.83 7.21
9/1/2021 3:45:00 AM 22.1 71.78 0.732 8.51 5.64 7.2
9/1/2021 4:00:00 AM 22.07 71.726 0.731 8.51 6.28 7.21
9/1/2021 4:15:00 AM 22.04 71.672 0.73 8.51 5.22 7.24
9/1/2021 4:30:00 AM 22.01 71.618 0.727 8.51 5.43 7.22
9/1/2021 4:45:00 AM 21.98 71.564 0.726 8.51 5.56 7.26
9/1/2021 5:00:00 AM 21.96 71.528 0.725 8.5 6.22 7.24
9/1/2021 5:15:00 AM 21.93 71.474 0.728 8.5 5.96 7.25
9/1/2021 5:30:00 AM 21.9 71.42 0.728 8.49 6.34 7.26
9/1/2021 5:45:00 AM 21.88 71.384 0.728 8.5 5.86 7.21
9/1/2021 6:00:00 AM 21.85 71.33 0.728 8.49 7.36 7.22
9/1/2021 6:15:00 AM 21.83 71.294 0.728 8.48 5.98 7.23
9/1/2021 6:30:00 AM 21.8 71.24 0.728 8.49 5.76 7.23
9/1/2021 6:45:00 AM 21.78 71.204 0.728 8.48 7.07 7.23
9/1/2021 7:00:00 AM 21.74 71.132 0.725 8.49 9.72 7.28
9/1/2021 7:15:00 AM 21.7 71.06 0.715 8.49 16.8 7.36
9/1/2021 7:30:00 AM 21.68 71.024 0.713 8.49 18.72 7.32
9/1/2021 7:45:00 AM 21.65 70.97 0.709 8.49 27.08 7.34
9/1/2021 8:00:00 AM 21.6 70.88 0.682 8.49 23.56 7.28
9/1/2021 8:15:00 AM 21.62 70.916 0.687 8.47 27.51 7.3
9/1/2021 8:30:00 AM 21.61 70.898 0.694 8.47 26.31 7.32
9/1/2021 8:45:00 AM 21.6 70.88 0.701 8.47 22.47 7.36
9/1/2021 9:00:00 AM 21.58 70.844 0.704 8.45 20.78 7.32
9/1/2021 9:15:00 AM 21.57 70.826 0.705 8.47 15.7 7.3
9/1/2021 9:30:00 AM 21.55 70.79 0.707 8.47 15 7.28
9/1/2021 9:45:00 AM 21.51 70.718 0.707 8.35 3779 7.32
9/1/2021 10:00:00 AM 21.45 70.61 0.706 8.37 16.11 7.42
9/1/2021 10:15:00 AM 21.36 70.448 0.704 8.39 18.33 7.47
9/1/2021 10:30:00 AM 21.28 70.304 0.701 8.4 20.18 7.48
9/1/2021 10:45:00 AM 21.19 70.142 0.694 8.41 32.34 7.5
9/1/2021 11:00:00 AM 21.13 70.034 0.682 8.42 30.35 7.48
9/1/2021 11:15:00 AM 21.12 70.016 0.668 8.42 31.3 7.48
9/1/2021 11:30:00 AM 21.15 70.07 0.654 8.41 36.21 7.41
9/1/2021 11:45:00 AM 21.21 70.17799 0.642 8.4 32.55 7.37
9/1/2021 12:00:00 PM 21.29 70.32201 0.634 8.39 33.81 7.35
9/1/2021 12:15:00 PM 21.36 70.448 0.629 8.39 31.3 7.3
9/1/2021 12:30:00 PM 21.41 70.538 0.625 8.38 32.51 7.33
9/1/2021 12:45:00 PM 21.43 70.574 0.616 8.39 44.79 7.32
9/1/2021 1:00:00 PM 21.42 70.556 0.58 8.38 48.48 7.35
9/1/2021 1:15:00 PM 21.34 70.412 0.506 8.39 79.55 7.51
9/1/2021 1:30:00 PM 21.37 70.466 0.501 8.36 99.29 7.52
9/1/2021 1:45:00 PM 21.31 70.358 0.46 8.36 106.5 7.66
9/1/2021 2:00:00 PM 21.37 70.466 0.361 8.35 274.8 7.83
9/1/2021 2:15:00 PM 21.41 70.538 0.326 8.3 3779 7.9
9/1/2021 2:30:00 PM 21.44 70.592 0.292 8.28 205 7.97
9/1/2021 2:45:00 PM 21.43 70.574 0.336 8.22 188.7 7.9
9/1/2021 3:00:00 PM 21.37 70.466 0.4 8.22 104.8 7.71
9/1/2021 3:15:00 PM 21.29 70.32201 0.428 8.26 119 7.7
9/1/2021 3:30:00 PM 21.23 70.214 0.421 8.28 139.1 7.68
9/1/2021 3:45:00 PM 21.2 70.16 0.411 8.27 150.2 7.69
9/1/2021 4:00:00 PM 21.21 70.17799 0.387 8.27 198.3 7.73
9/1/2021 4:15:00 PM 21.23 70.214 0.356 8.23 233.7 7.76
9/1/2021 4:30:00 PM 21.24 70.232 0.332 8.19 235.6 7.82
9/1/2021 4:45:00 PM 21.26 70.268 0.328 8.16 303.6 7.81
9/1/2021 5:00:00 PM 21.25 70.25 0.308 8.12 559.9 7.7
9/1/2021 5:15:00 PM 21.17 70.106 0.254 8.08 764.7 7.61
9/1/2021 5:30:00 PM 21.13 70.034 0.21 8.03 833.2 7.45
9/1/2021 5:45:00 PM 21.06 69.908 0.178 7.99 873.9 7.47
9/1/2021 6:00:00 PM 21.01 69.818 0.177 7.94 768.7 7.55
9/1/2021 6:15:00 PM 20.98 69.764 0.179 7.89 583 7.63
9/1/2021 6:30:00 PM 20.97 69.746 0.184 7.87 507.9 7.66
9/1/2021 6:45:00 PM -99999.99 -179968 -99999.99 -99999.99 -99999.99 -99999.99
9/1/2021 7:00:00 PM -99999.99 -179968 -99999.99 -99999.99 -99999.99 -99999.99
9/1/2021 7:15:00 PM -99999.99 -179968 -99999.99 -99999.99 -99999.99 -99999.99
9/1/2021 7:30:00 PM -99999.99 -179968 -99999.99 -99999.99 -99999.99 -99999.99
9/1/2021 7:45:00 PM -99999.99 -179968 -99999.99 -99999.99 -99999.99 -99999.99
9/1/2021 8:00:00 PM -99999.99 -179968 -99999.99 -99999.99 -99999.99 -99999.99
9/1/2021 8:15:00 PM -99999.99 -179968 -99999.99 -99999.99 -99999.99 -99999.99
9/1/2021 8:30:00 PM -99999.99 -179968 -99999.99 -99999.99 -99999.99 -99999.99
9/1/2021 8:45:00 PM -99999.99 -179968 -99999.99 -99999.99 -99999.99 -99999.99
9/1/2021 9:00:00 PM -99999.99 -179968 -99999.99 -99999.99 -99999.99 -99999.99
9/1/2021 9:15:00 PM -99999.99 -179968 -99999.99 -99999.99 -99999.99 -99999.99
9/1/2021 9:30:00 PM -99999.99 -179968 -99999.99 -99999.99 -99999.99 -99999.99
9/1/2021 9:45:00 PM -99999.99 -179968 -99999.99 -99999.99 -99999.99 -99999.99
9/1/2021 10:00:00 PM -99999.99 -179968 -99999.99 -99999.99 -99999.99 -99999.99
9/1/2021 10:15:00 PM -99999.99 -179968 -99999.99 -99999.99 -99999.99 -99999.99
9/1/2021 10:30:00 PM -99999.99 -179968 -99999.99 -99999.99 -99999.99 -99999.99
9/1/2021 10:45:00 PM -99999.99 -179968 -99999.99 -99999.99 -99999.99 -99999.99
9/1/2021 11:00:00 PM -99999.99 -179968 -99999.99 -99999.99 -99999.99 -99999.99
9/1/2021 11:15:00 PM -99999.99 -179968 -99999.99 -99999.99 -99999.99 -99999.99
9/1/2021 11:30:00 PM -99999.99 -179968 -99999.99 -99999.99 -99999.99 -99999.99
9/1/2021 11:45:00 PM -99999.99 -179968 -99999.99 -99999.99 -99999.99 -99999.99
9/2/2021 12:00:00 AM -99999.99 -179968 -99999.99 -99999.99 -99999.99 -99999.99
9/2/2021 12:15:00 AM -99999.99 -179968 -99999.99 -99999.99 -99999.99 -99999.99
9/2/2021 12:30:00 AM -99999.99 -179968 -99999.99 -99999.99 -99999.99 -99999.99
9/2/2021 12:45:00 AM -99999.99 -179968 -99999.99 -99999.99 -99999.99 -99999.99
9/2/2021 1:00:00 AM 20.08 68.144 0.156 7.53 329.4 6.8
9/2/2021 1:15:00 AM -99999.99 -179968 -99999.99 -99999.99 -99999.99 -99999.99
9/2/2021 1:30:00 AM -99999.99 -179968 -99999.99 -99999.99 -99999.99 -99999.99
9/2/2021 1:45:00 AM -99999.99 -179968 -99999.99 -99999.99 -99999.99 -99999.99
9/2/2021 2:00:00 AM -99999.99 -179968 -99999.99 -99999.99 -99999.99 -99999.99
9/2/2021 2:15:00 AM -99999.99 -179968 -99999.99 -99999.99 -99999.99 -99999.99
9/2/2021 2:30:00 AM -99999.99 -179968 -99999.99 -99999.99 -99999.99 -99999.99
9/2/2021 2:45:00 AM -99999.99 -179968 -99999.99 -99999.99 -99999.99 -99999.99
9/2/2021 3:00:00 AM -99999.99 -179968 -99999.99 -99999.99 -99999.99 -99999.99
9/2/2021 3:30:00 AM -99999.99 -179968 -99999.99 -99999.99 -99999.99 -99999.99
9/2/2021 3:45:00 AM -99999.99 -179968 -99999.99 -99999.99 -99999.99 -99999.99
9/2/2021 4:00:00 AM -99999.99 -179968 -99999.99 -99999.99 -99999.99 -99999.99
9/2/2021 4:15:00 AM -99999.99 -179968 -99999.99 -99999.99 -99999.99 -99999.99
9/2/2021 4:30:00 AM -99999.99 -179968 -99999.99 -99999.99 -99999.99 -99999.99
9/2/2021 4:45:00 AM -99999.99 -179968 -99999.99 -99999.99 -99999.99 -99999.99
9/2/2021 5:00:00 AM -99999.99 -179968 -99999.99 -99999.99 -99999.99 -99999.99
9/2/2021 5:15:00 AM -99999.99 -179968 -99999.99 -99999.99 -99999.99 -99999.99
9/2/2021 5:30:00 AM -99999.99 -179968 -99999.99 -99999.99 -99999.99 -99999.99
9/2/2021 5:45:00 AM -99999.99 -179968 -99999.99 -99999.99 -99999.99 -99999.99
9/2/2021 6:00:00 AM -99999.99 -179968 -99999.99 -99999.99 -99999.99 -99999.99
9/2/2021 6:15:00 AM -99999.99 -179968 -99999.99 -99999.99 -99999.99 -99999.99
9/2/2021 6:30:00 AM -99999.99 -179968 -99999.99 -99999.99 -99999.99 -99999.99
9/2/2021 6:45:00 AM -99999.99 -179968 -99999.99 -99999.99 -99999.99 -99999.99
9/2/2021 7:00:00 AM -99999.99 -179968 -99999.99 -99999.99 -99999.99 -99999.99
9/2/2021 7:30:00 AM -99999.99 -179968 -99999.99 -99999.99 -99999.99 -99999.99
9/2/2021 8:30:00 AM -99999.99 -179968 -99999.99 -99999.99 -99999.99 -99999.99
9/2/2021 8:45:00 AM -99999.99 -179968 -99999.99 -99999.99 -99999.99 -99999.99
9/2/2021 9:00:00 AM -99999.99 -179968 -99999.99 -99999.99 -99999.99 -99999.99
9/2/2021 9:15:00 AM -99999.99 -179968 -99999.99 -99999.99 -99999.99 -99999.99
9/2/2021 9:30:00 AM -99999.99 -179968 -99999.99 -99999.99 -99999.99 -99999.99
9/2/2021 9:45:00 AM -99999.99 -179968 -99999.99 -99999.99 -99999.99 -99999.99